<?xml version="1.0" encoding="UTF-8" standalone="no" ?>
<gpx xmlns="http://www.topografix.com/GPX/1/1" xmlns:xsi="http://www.w3.org/2001/XMLSchema-instance" xsi:schemaLocation="http://www.topografix.com/GPX/1/1 http://www.topografix.com/GPX/1/1/gpx.xsd" version="1.1" creator="VisuGPX - https://www.visugpx.com">
  <metadata>
    <name>Payolle - Plo del Naou</name>
    <desc><![CDATA[De Payolle au col d'Aspin et au Plo del Naou, retour par la Hourquette d'Ancizan, un beau parcours, enneigé seulement à partir de 1400 m ]]></desc>
  </metadata>
  <trk>
    <name><![CDATA[Payolle-Aspin- Plo Del Naou : 09 JAN 2018 09:30]]></name>
    <trkseg>
      <trkpt lat="42.94276" lon="0.28466">
        <ele>1070.08</ele>
        <time>2018-01-09T08:41:20Z</time>
      </trkpt>
      <trkpt lat="42.9428" lon="0.28472">
        <ele>1100.37</ele>
        <time>2018-01-09T08:44:07Z</time>
      </trkpt>
      <trkpt lat="42.94277" lon="0.28478">
        <ele>1100.85</ele>
        <time>2018-01-09T08:44:30Z</time>
      </trkpt>
      <trkpt lat="42.94277" lon="0.28491">
        <ele>1100.37</ele>
        <time>2018-01-09T08:44:43Z</time>
      </trkpt>
      <trkpt lat="42.94279" lon="0.28503">
        <ele>1100.37</ele>
        <time>2018-01-09T08:44:56Z</time>
      </trkpt>
      <trkpt lat="42.94277" lon="0.2851">
        <ele>1097.96</ele>
        <time>2018-01-09T08:46:06Z</time>
      </trkpt>
      <trkpt lat="42.94278" lon="0.28523">
        <ele>1100.37</ele>
        <time>2018-01-09T08:46:18Z</time>
      </trkpt>
      <trkpt lat="42.94281" lon="0.28536">
        <ele>1100.37</ele>
        <time>2018-01-09T08:46:28Z</time>
      </trkpt>
      <trkpt lat="42.94285" lon="0.28544">
        <ele>1100.85</ele>
        <time>2018-01-09T08:46:46Z</time>
      </trkpt>
      <trkpt lat="42.94289" lon="0.28559">
        <ele>1100.85</ele>
        <time>2018-01-09T08:46:55Z</time>
      </trkpt>
      <trkpt lat="42.94292" lon="0.2857">
        <ele>1100.85</ele>
        <time>2018-01-09T08:47:04Z</time>
      </trkpt>
      <trkpt lat="42.94298" lon="0.28578">
        <ele>1101.33</ele>
        <time>2018-01-09T08:47:15Z</time>
      </trkpt>
      <trkpt lat="42.94305" lon="0.2859">
        <ele>1101.33</ele>
        <time>2018-01-09T08:47:26Z</time>
      </trkpt>
      <trkpt lat="42.94311" lon="0.28601">
        <ele>1101.81</ele>
        <time>2018-01-09T08:47:35Z</time>
      </trkpt>
      <trkpt lat="42.94316" lon="0.2861">
        <ele>1102.29</ele>
        <time>2018-01-09T08:47:46Z</time>
      </trkpt>
      <trkpt lat="42.94322" lon="0.28621">
        <ele>1102.29</ele>
        <time>2018-01-09T08:47:55Z</time>
      </trkpt>
      <trkpt lat="42.9433" lon="0.28629">
        <ele>1102.77</ele>
        <time>2018-01-09T08:48:04Z</time>
      </trkpt>
      <trkpt lat="42.94337" lon="0.28638">
        <ele>1102.77</ele>
        <time>2018-01-09T08:48:13Z</time>
      </trkpt>
      <trkpt lat="42.94344" lon="0.28645">
        <ele>1103.25</ele>
        <time>2018-01-09T08:48:23Z</time>
      </trkpt>
      <trkpt lat="42.94351" lon="0.28656">
        <ele>1103.73</ele>
        <time>2018-01-09T08:48:45Z</time>
      </trkpt>
      <trkpt lat="42.94357" lon="0.28666">
        <ele>1104.21</ele>
        <time>2018-01-09T08:49:00Z</time>
      </trkpt>
      <trkpt lat="42.94362" lon="0.28677">
        <ele>1104.69</ele>
        <time>2018-01-09T08:49:12Z</time>
      </trkpt>
      <trkpt lat="42.94362" lon="0.28688">
        <ele>1103.73</ele>
        <time>2018-01-09T08:49:25Z</time>
      </trkpt>
      <trkpt lat="42.94364" lon="0.28701">
        <ele>1104.69</ele>
        <time>2018-01-09T08:49:34Z</time>
      </trkpt>
      <trkpt lat="42.94367" lon="0.28713">
        <ele>1109.02</ele>
        <time>2018-01-09T08:49:44Z</time>
      </trkpt>
      <trkpt lat="42.9437" lon="0.28725">
        <ele>1106.61</ele>
        <time>2018-01-09T08:49:54Z</time>
      </trkpt>
      <trkpt lat="42.94371" lon="0.28737">
        <ele>1107.1</ele>
        <time>2018-01-09T08:50:02Z</time>
      </trkpt>
      <trkpt lat="42.94375" lon="0.28749">
        <ele>1107.1</ele>
        <time>2018-01-09T08:50:11Z</time>
      </trkpt>
      <trkpt lat="42.94379" lon="0.2876">
        <ele>1108.06</ele>
        <time>2018-01-09T08:50:19Z</time>
      </trkpt>
      <trkpt lat="42.94382" lon="0.28771">
        <ele>1108.54</ele>
        <time>2018-01-09T08:50:30Z</time>
      </trkpt>
      <trkpt lat="42.94387" lon="0.28785">
        <ele>1109.5</ele>
        <time>2018-01-09T08:50:39Z</time>
      </trkpt>
      <trkpt lat="42.94389" lon="0.28797">
        <ele>1110.46</ele>
        <time>2018-01-09T08:50:48Z</time>
      </trkpt>
      <trkpt lat="42.9439" lon="0.2881">
        <ele>1111.42</ele>
        <time>2018-01-09T08:50:57Z</time>
      </trkpt>
      <trkpt lat="42.94393" lon="0.28823">
        <ele>1111.9</ele>
        <time>2018-01-09T08:51:06Z</time>
      </trkpt>
      <trkpt lat="42.94398" lon="0.28834">
        <ele>1112.86</ele>
        <time>2018-01-09T08:51:15Z</time>
      </trkpt>
      <trkpt lat="42.94402" lon="0.28848">
        <ele>1113.34</ele>
        <time>2018-01-09T08:51:25Z</time>
      </trkpt>
      <trkpt lat="42.94405" lon="0.28862">
        <ele>1114.31</ele>
        <time>2018-01-09T08:51:37Z</time>
      </trkpt>
      <trkpt lat="42.94403" lon="0.28881">
        <ele>1115.27</ele>
        <time>2018-01-09T08:51:48Z</time>
      </trkpt>
      <trkpt lat="42.94401" lon="0.28902">
        <ele>1116.71</ele>
        <time>2018-01-09T08:52:00Z</time>
      </trkpt>
      <trkpt lat="42.94393" lon="0.28901">
        <ele>1118.63</ele>
        <time>2018-01-09T08:52:11Z</time>
      </trkpt>
      <trkpt lat="42.94385" lon="0.28892">
        <ele>1119.11</ele>
        <time>2018-01-09T08:52:20Z</time>
      </trkpt>
      <trkpt lat="42.94376" lon="0.28884">
        <ele>1120.07</ele>
        <time>2018-01-09T08:52:29Z</time>
      </trkpt>
      <trkpt lat="42.94369" lon="0.28876">
        <ele>1121.03</ele>
        <time>2018-01-09T08:52:37Z</time>
      </trkpt>
      <trkpt lat="42.94358" lon="0.2887">
        <ele>1122.48</ele>
        <time>2018-01-09T08:52:46Z</time>
      </trkpt>
      <trkpt lat="42.94348" lon="0.28863">
        <ele>1123.44</ele>
        <time>2018-01-09T08:52:55Z</time>
      </trkpt>
      <trkpt lat="42.94339" lon="0.28856">
        <ele>1124.4</ele>
        <time>2018-01-09T08:53:03Z</time>
      </trkpt>
      <trkpt lat="42.94328" lon="0.28851">
        <ele>1125.36</ele>
        <time>2018-01-09T08:53:12Z</time>
      </trkpt>
      <trkpt lat="42.94319" lon="0.28849">
        <ele>1126.32</ele>
        <time>2018-01-09T08:53:20Z</time>
      </trkpt>
      <trkpt lat="42.94309" lon="0.28845">
        <ele>1127.28</ele>
        <time>2018-01-09T08:53:29Z</time>
      </trkpt>
      <trkpt lat="42.94299" lon="0.28845">
        <ele>1128.24</ele>
        <time>2018-01-09T08:53:38Z</time>
      </trkpt>
      <trkpt lat="42.94289" lon="0.28842">
        <ele>1129.21</ele>
        <time>2018-01-09T08:53:47Z</time>
      </trkpt>
      <trkpt lat="42.94279" lon="0.2884">
        <ele>1130.17</ele>
        <time>2018-01-09T08:53:56Z</time>
      </trkpt>
      <trkpt lat="42.94269" lon="0.28838">
        <ele>1131.13</ele>
        <time>2018-01-09T08:54:05Z</time>
      </trkpt>
      <trkpt lat="42.9426" lon="0.28838">
        <ele>1132.09</ele>
        <time>2018-01-09T08:54:18Z</time>
      </trkpt>
      <trkpt lat="42.9425" lon="0.28836">
        <ele>1132.57</ele>
        <time>2018-01-09T08:54:27Z</time>
      </trkpt>
      <trkpt lat="42.94239" lon="0.28837">
        <ele>1133.53</ele>
        <time>2018-01-09T08:54:36Z</time>
      </trkpt>
      <trkpt lat="42.94229" lon="0.28839">
        <ele>1134.01</ele>
        <time>2018-01-09T08:54:44Z</time>
      </trkpt>
      <trkpt lat="42.94219" lon="0.28842">
        <ele>1135.45</ele>
        <time>2018-01-09T08:54:54Z</time>
      </trkpt>
      <trkpt lat="42.94209" lon="0.28846">
        <ele>1136.9</ele>
        <time>2018-01-09T08:55:03Z</time>
      </trkpt>
      <trkpt lat="42.94199" lon="0.2885">
        <ele>1137.38</ele>
        <time>2018-01-09T08:55:12Z</time>
      </trkpt>
      <trkpt lat="42.94189" lon="0.28854">
        <ele>1138.34</ele>
        <time>2018-01-09T08:55:21Z</time>
      </trkpt>
      <trkpt lat="42.9418" lon="0.28859">
        <ele>1139.3</ele>
        <time>2018-01-09T08:55:31Z</time>
      </trkpt>
      <trkpt lat="42.9417" lon="0.28863">
        <ele>1140.26</ele>
        <time>2018-01-09T08:55:39Z</time>
      </trkpt>
      <trkpt lat="42.9416" lon="0.28869">
        <ele>1141.22</ele>
        <time>2018-01-09T08:55:48Z</time>
      </trkpt>
      <trkpt lat="42.94151" lon="0.28875">
        <ele>1142.66</ele>
        <time>2018-01-09T08:55:57Z</time>
      </trkpt>
      <trkpt lat="42.94142" lon="0.28881">
        <ele>1143.63</ele>
        <time>2018-01-09T08:56:06Z</time>
      </trkpt>
      <trkpt lat="42.94133" lon="0.28887">
        <ele>1144.59</ele>
        <time>2018-01-09T08:56:15Z</time>
      </trkpt>
      <trkpt lat="42.94124" lon="0.28896">
        <ele>1145.55</ele>
        <time>2018-01-09T08:56:23Z</time>
      </trkpt>
      <trkpt lat="42.94116" lon="0.28905">
        <ele>1146.03</ele>
        <time>2018-01-09T08:56:32Z</time>
      </trkpt>
      <trkpt lat="42.94108" lon="0.28915">
        <ele>1146.99</ele>
        <time>2018-01-09T08:56:42Z</time>
      </trkpt>
      <trkpt lat="42.941" lon="0.28927">
        <ele>1148.43</ele>
        <time>2018-01-09T08:56:52Z</time>
      </trkpt>
      <trkpt lat="42.94093" lon="0.2894">
        <ele>1149.87</ele>
        <time>2018-01-09T08:57:03Z</time>
      </trkpt>
      <trkpt lat="42.94087" lon="0.28957">
        <ele>1150.84</ele>
        <time>2018-01-09T08:57:14Z</time>
      </trkpt>
      <trkpt lat="42.94081" lon="0.28974">
        <ele>1151.8</ele>
        <time>2018-01-09T08:57:25Z</time>
      </trkpt>
      <trkpt lat="42.94076" lon="0.28989">
        <ele>1152.28</ele>
        <time>2018-01-09T08:57:35Z</time>
      </trkpt>
      <trkpt lat="42.9407" lon="0.29011">
        <ele>1154.2</ele>
        <time>2018-01-09T08:57:48Z</time>
      </trkpt>
      <trkpt lat="42.94066" lon="0.29025">
        <ele>1155.16</ele>
        <time>2018-01-09T08:57:59Z</time>
      </trkpt>
      <trkpt lat="42.94066" lon="0.29046">
        <ele>1156.6</ele>
        <time>2018-01-09T08:58:10Z</time>
      </trkpt>
      <trkpt lat="42.94077" lon="0.29057">
        <ele>1158.53</ele>
        <time>2018-01-09T08:58:24Z</time>
      </trkpt>
      <trkpt lat="42.94089" lon="0.29051">
        <ele>1159.49</ele>
        <time>2018-01-09T08:58:35Z</time>
      </trkpt>
      <trkpt lat="42.94097" lon="0.29035">
        <ele>1160.45</ele>
        <time>2018-01-09T08:58:46Z</time>
      </trkpt>
      <trkpt lat="42.94105" lon="0.29023">
        <ele>1161.41</ele>
        <time>2018-01-09T08:58:57Z</time>
      </trkpt>
      <trkpt lat="42.94116" lon="0.29017">
        <ele>1162.85</ele>
        <time>2018-01-09T08:59:10Z</time>
      </trkpt>
      <trkpt lat="42.94131" lon="0.29018">
        <ele>1164.29</ele>
        <time>2018-01-09T08:59:23Z</time>
      </trkpt>
      <trkpt lat="42.94144" lon="0.29017">
        <ele>1164.77</ele>
        <time>2018-01-09T08:59:33Z</time>
      </trkpt>
      <trkpt lat="42.94158" lon="0.29016">
        <ele>1165.74</ele>
        <time>2018-01-09T08:59:48Z</time>
      </trkpt>
      <trkpt lat="42.9417" lon="0.29014">
        <ele>1166.7</ele>
        <time>2018-01-09T09:00:08Z</time>
      </trkpt>
      <trkpt lat="42.94182" lon="0.29016">
        <ele>1166.7</ele>
        <time>2018-01-09T09:00:18Z</time>
      </trkpt>
      <trkpt lat="42.94202" lon="0.29021">
        <ele>1166.7</ele>
        <time>2018-01-09T09:00:28Z</time>
      </trkpt>
      <trkpt lat="42.94223" lon="0.29021">
        <ele>1167.18</ele>
        <time>2018-01-09T09:00:40Z</time>
      </trkpt>
      <trkpt lat="42.94236" lon="0.29021">
        <ele>1168.62</ele>
        <time>2018-01-09T09:00:53Z</time>
      </trkpt>
      <trkpt lat="42.9425" lon="0.29024">
        <ele>1169.58</ele>
        <time>2018-01-09T09:01:08Z</time>
      </trkpt>
      <trkpt lat="42.94263" lon="0.29021">
        <ele>1171.02</ele>
        <time>2018-01-09T09:01:28Z</time>
      </trkpt>
      <trkpt lat="42.94269" lon="0.29029">
        <ele>1171.98</ele>
        <time>2018-01-09T09:01:50Z</time>
      </trkpt>
      <trkpt lat="42.94271" lon="0.29041">
        <ele>1171.98</ele>
        <time>2018-01-09T09:02:04Z</time>
      </trkpt>
      <trkpt lat="42.94258" lon="0.29043">
        <ele>1172.47</ele>
        <time>2018-01-09T09:02:18Z</time>
      </trkpt>
      <trkpt lat="42.9424" lon="0.29048">
        <ele>1173.43</ele>
        <time>2018-01-09T09:02:32Z</time>
      </trkpt>
      <trkpt lat="42.94223" lon="0.29051">
        <ele>1173.43</ele>
        <time>2018-01-09T09:02:44Z</time>
      </trkpt>
      <trkpt lat="42.94205" lon="0.29056">
        <ele>1173.91</ele>
        <time>2018-01-09T09:02:54Z</time>
      </trkpt>
      <trkpt lat="42.94197" lon="0.29067">
        <ele>1172.47</ele>
        <time>2018-01-09T09:03:07Z</time>
      </trkpt>
      <trkpt lat="42.94184" lon="0.29079">
        <ele>1171.5</ele>
        <time>2018-01-09T09:03:20Z</time>
      </trkpt>
      <trkpt lat="42.94169" lon="0.29095">
        <ele>1170.06</ele>
        <time>2018-01-09T09:03:33Z</time>
      </trkpt>
      <trkpt lat="42.94152" lon="0.29126">
        <ele>1168.62</ele>
        <time>2018-01-09T09:03:48Z</time>
      </trkpt>
      <trkpt lat="42.94133" lon="0.29147">
        <ele>1165.74</ele>
        <time>2018-01-09T09:04:06Z</time>
      </trkpt>
      <trkpt lat="42.94124" lon="0.29164">
        <ele>1163.81</ele>
        <time>2018-01-09T09:04:35Z</time>
      </trkpt>
      <trkpt lat="42.94118" lon="0.29173">
        <ele>1163.81</ele>
        <time>2018-01-09T09:05:01Z</time>
      </trkpt>
      <trkpt lat="42.94108" lon="0.29192">
        <ele>1164.77</ele>
        <time>2018-01-09T09:05:24Z</time>
      </trkpt>
      <trkpt lat="42.94101" lon="0.29211">
        <ele>1166.22</ele>
        <time>2018-01-09T09:06:28Z</time>
      </trkpt>
      <trkpt lat="42.94094" lon="0.29223">
        <ele>1168.14</ele>
        <time>2018-01-09T09:06:44Z</time>
      </trkpt>
      <trkpt lat="42.94091" lon="0.29233">
        <ele>1168.14</ele>
        <time>2018-01-09T09:07:06Z</time>
      </trkpt>
      <trkpt lat="42.94084" lon="0.29243">
        <ele>1168.14</ele>
        <time>2018-01-09T09:07:25Z</time>
      </trkpt>
      <trkpt lat="42.9408" lon="0.29247">
        <ele>1169.1</ele>
        <time>2018-01-09T09:07:41Z</time>
      </trkpt>
      <trkpt lat="42.94077" lon="0.29257">
        <ele>1170.06</ele>
        <time>2018-01-09T09:07:51Z</time>
      </trkpt>
      <trkpt lat="42.9407" lon="0.29262">
        <ele>1174.87</ele>
        <time>2018-01-09T09:08:10Z</time>
      </trkpt>
      <trkpt lat="42.94071" lon="0.29267">
        <ele>1179.67</ele>
        <time>2018-01-09T09:08:32Z</time>
      </trkpt>
      <trkpt lat="42.94065" lon="0.29272">
        <ele>1184.96</ele>
        <time>2018-01-09T09:08:58Z</time>
      </trkpt>
      <trkpt lat="42.94063" lon="0.29276">
        <ele>1189.77</ele>
        <time>2018-01-09T09:09:29Z</time>
      </trkpt>
      <trkpt lat="42.94057" lon="0.29278">
        <ele>1194.58</ele>
        <time>2018-01-09T09:09:58Z</time>
      </trkpt>
      <trkpt lat="42.94053" lon="0.29286">
        <ele>1198.9</ele>
        <time>2018-01-09T09:10:35Z</time>
      </trkpt>
      <trkpt lat="42.94052" lon="0.29288">
        <ele>1200.82</ele>
        <time>2018-01-09T09:10:55Z</time>
      </trkpt>
      <trkpt lat="42.9404" lon="0.29296">
        <ele>1201.3</ele>
        <time>2018-01-09T09:11:07Z</time>
      </trkpt>
      <trkpt lat="42.94033" lon="0.29305">
        <ele>1202.27</ele>
        <time>2018-01-09T09:11:17Z</time>
      </trkpt>
      <trkpt lat="42.94033" lon="0.29318">
        <ele>1203.71</ele>
        <time>2018-01-09T09:11:26Z</time>
      </trkpt>
      <trkpt lat="42.94032" lon="0.29333">
        <ele>1204.67</ele>
        <time>2018-01-09T09:11:39Z</time>
      </trkpt>
      <trkpt lat="42.94027" lon="0.29346">
        <ele>1205.15</ele>
        <time>2018-01-09T09:11:48Z</time>
      </trkpt>
      <trkpt lat="42.94018" lon="0.29355">
        <ele>1205.63</ele>
        <time>2018-01-09T09:12:01Z</time>
      </trkpt>
      <trkpt lat="42.94011" lon="0.29364">
        <ele>1205.63</ele>
        <time>2018-01-09T09:12:09Z</time>
      </trkpt>
      <trkpt lat="42.94003" lon="0.29373">
        <ele>1206.11</ele>
        <time>2018-01-09T09:12:18Z</time>
      </trkpt>
      <trkpt lat="42.93995" lon="0.29383">
        <ele>1207.07</ele>
        <time>2018-01-09T09:12:27Z</time>
      </trkpt>
      <trkpt lat="42.93989" lon="0.29392">
        <ele>1208.03</ele>
        <time>2018-01-09T09:12:37Z</time>
      </trkpt>
      <trkpt lat="42.93987" lon="0.29404">
        <ele>1209.96</ele>
        <time>2018-01-09T09:12:48Z</time>
      </trkpt>
      <trkpt lat="42.93982" lon="0.29417">
        <ele>1210.44</ele>
        <time>2018-01-09T09:12:58Z</time>
      </trkpt>
      <trkpt lat="42.93977" lon="0.29433">
        <ele>1211.88</ele>
        <time>2018-01-09T09:13:09Z</time>
      </trkpt>
      <trkpt lat="42.93971" lon="0.29443">
        <ele>1213.32</ele>
        <time>2018-01-09T09:13:20Z</time>
      </trkpt>
      <trkpt lat="42.93963" lon="0.29453">
        <ele>1213.32</ele>
        <time>2018-01-09T09:13:31Z</time>
      </trkpt>
      <trkpt lat="42.93964" lon="0.29463">
        <ele>1215.72</ele>
        <time>2018-01-09T09:13:49Z</time>
      </trkpt>
      <trkpt lat="42.93961" lon="0.2947">
        <ele>1216.69</ele>
        <time>2018-01-09T09:14:55Z</time>
      </trkpt>
      <trkpt lat="42.93956" lon="0.29487">
        <ele>1217.65</ele>
        <time>2018-01-09T09:15:16Z</time>
      </trkpt>
      <trkpt lat="42.93952" lon="0.29499">
        <ele>1219.09</ele>
        <time>2018-01-09T09:15:34Z</time>
      </trkpt>
      <trkpt lat="42.93955" lon="0.29497">
        <ele>1219.57</ele>
        <time>2018-01-09T09:17:07Z</time>
      </trkpt>
      <trkpt lat="42.93947" lon="0.29512">
        <ele>1220.53</ele>
        <time>2018-01-09T09:17:40Z</time>
      </trkpt>
      <trkpt lat="42.93942" lon="0.29527">
        <ele>1221.97</ele>
        <time>2018-01-09T09:17:51Z</time>
      </trkpt>
      <trkpt lat="42.93938" lon="0.29543">
        <ele>1223.42</ele>
        <time>2018-01-09T09:18:03Z</time>
      </trkpt>
      <trkpt lat="42.93933" lon="0.2956">
        <ele>1224.86</ele>
        <time>2018-01-09T09:18:15Z</time>
      </trkpt>
      <trkpt lat="42.93928" lon="0.29574">
        <ele>1225.82</ele>
        <time>2018-01-09T09:18:28Z</time>
      </trkpt>
      <trkpt lat="42.93922" lon="0.29589">
        <ele>1227.26</ele>
        <time>2018-01-09T09:18:39Z</time>
      </trkpt>
      <trkpt lat="42.93915" lon="0.29603">
        <ele>1228.22</ele>
        <time>2018-01-09T09:18:49Z</time>
      </trkpt>
      <trkpt lat="42.93909" lon="0.29618">
        <ele>1229.66</ele>
        <time>2018-01-09T09:18:59Z</time>
      </trkpt>
      <trkpt lat="42.93901" lon="0.2963">
        <ele>1230.62</ele>
        <time>2018-01-09T09:19:09Z</time>
      </trkpt>
      <trkpt lat="42.93896" lon="0.29643">
        <ele>1231.59</ele>
        <time>2018-01-09T09:19:18Z</time>
      </trkpt>
      <trkpt lat="42.93888" lon="0.29654">
        <ele>1232.55</ele>
        <time>2018-01-09T09:19:27Z</time>
      </trkpt>
      <trkpt lat="42.93881" lon="0.29667">
        <ele>1233.51</ele>
        <time>2018-01-09T09:19:36Z</time>
      </trkpt>
      <trkpt lat="42.93874" lon="0.29677">
        <ele>1233.99</ele>
        <time>2018-01-09T09:19:45Z</time>
      </trkpt>
      <trkpt lat="42.93865" lon="0.29689">
        <ele>1234.47</ele>
        <time>2018-01-09T09:19:54Z</time>
      </trkpt>
      <trkpt lat="42.93861" lon="0.29701">
        <ele>1235.43</ele>
        <time>2018-01-09T09:20:03Z</time>
      </trkpt>
      <trkpt lat="42.93855" lon="0.29715">
        <ele>1235.91</ele>
        <time>2018-01-09T09:20:12Z</time>
      </trkpt>
      <trkpt lat="42.93849" lon="0.29727">
        <ele>1236.87</ele>
        <time>2018-01-09T09:20:21Z</time>
      </trkpt>
      <trkpt lat="42.93844" lon="0.29739">
        <ele>1237.83</ele>
        <time>2018-01-09T09:20:30Z</time>
      </trkpt>
      <trkpt lat="42.93837" lon="0.29752">
        <ele>1238.32</ele>
        <time>2018-01-09T09:20:39Z</time>
      </trkpt>
      <trkpt lat="42.93832" lon="0.29764">
        <ele>1238.8</ele>
        <time>2018-01-09T09:20:47Z</time>
      </trkpt>
      <trkpt lat="42.93827" lon="0.29776">
        <ele>1239.76</ele>
        <time>2018-01-09T09:20:56Z</time>
      </trkpt>
      <trkpt lat="42.93823" lon="0.29792">
        <ele>1240.72</ele>
        <time>2018-01-09T09:21:05Z</time>
      </trkpt>
      <trkpt lat="42.93821" lon="0.29807">
        <ele>1241.68</ele>
        <time>2018-01-09T09:21:15Z</time>
      </trkpt>
      <trkpt lat="42.93818" lon="0.29824">
        <ele>1242.16</ele>
        <time>2018-01-09T09:21:25Z</time>
      </trkpt>
      <trkpt lat="42.93818" lon="0.2984">
        <ele>1243.12</ele>
        <time>2018-01-09T09:21:35Z</time>
      </trkpt>
      <trkpt lat="42.93818" lon="0.29855">
        <ele>1243.12</ele>
        <time>2018-01-09T09:21:44Z</time>
      </trkpt>
      <trkpt lat="42.93823" lon="0.29866">
        <ele>1242.64</ele>
        <time>2018-01-09T09:21:52Z</time>
      </trkpt>
      <trkpt lat="42.9383" lon="0.29876">
        <ele>1241.2</ele>
        <time>2018-01-09T09:22:00Z</time>
      </trkpt>
      <trkpt lat="42.93835" lon="0.29888">
        <ele>1240.24</ele>
        <time>2018-01-09T09:22:08Z</time>
      </trkpt>
      <trkpt lat="42.93837" lon="0.29903">
        <ele>1239.76</ele>
        <time>2018-01-09T09:22:17Z</time>
      </trkpt>
      <trkpt lat="42.93836" lon="0.29918">
        <ele>1239.28</ele>
        <time>2018-01-09T09:22:26Z</time>
      </trkpt>
      <trkpt lat="42.93839" lon="0.29932">
        <ele>1238.8</ele>
        <time>2018-01-09T09:22:34Z</time>
      </trkpt>
      <trkpt lat="42.93846" lon="0.29943">
        <ele>1237.83</ele>
        <time>2018-01-09T09:22:42Z</time>
      </trkpt>
      <trkpt lat="42.93853" lon="0.29953">
        <ele>1236.87</ele>
        <time>2018-01-09T09:22:50Z</time>
      </trkpt>
      <trkpt lat="42.9386" lon="0.29961">
        <ele>1236.39</ele>
        <time>2018-01-09T09:22:57Z</time>
      </trkpt>
      <trkpt lat="42.93865" lon="0.29973">
        <ele>1235.43</ele>
        <time>2018-01-09T09:23:06Z</time>
      </trkpt>
      <trkpt lat="42.93861" lon="0.29989">
        <ele>1234.47</ele>
        <time>2018-01-09T09:23:15Z</time>
      </trkpt>
      <trkpt lat="42.93855" lon="0.30003">
        <ele>1233.99</ele>
        <time>2018-01-09T09:23:24Z</time>
      </trkpt>
      <trkpt lat="42.93848" lon="0.30015">
        <ele>1233.51</ele>
        <time>2018-01-09T09:23:32Z</time>
      </trkpt>
      <trkpt lat="42.93842" lon="0.30028">
        <ele>1232.55</ele>
        <time>2018-01-09T09:23:40Z</time>
      </trkpt>
      <trkpt lat="42.93837" lon="0.3004">
        <ele>1231.59</ele>
        <time>2018-01-09T09:23:47Z</time>
      </trkpt>
      <trkpt lat="42.93833" lon="0.30052">
        <ele>1230.62</ele>
        <time>2018-01-09T09:23:54Z</time>
      </trkpt>
      <trkpt lat="42.93829" lon="0.30065">
        <ele>1229.66</ele>
        <time>2018-01-09T09:24:02Z</time>
      </trkpt>
      <trkpt lat="42.93827" lon="0.30081">
        <ele>1228.7</ele>
        <time>2018-01-09T09:24:10Z</time>
      </trkpt>
      <trkpt lat="42.93826" lon="0.30094">
        <ele>1228.22</ele>
        <time>2018-01-09T09:24:18Z</time>
      </trkpt>
      <trkpt lat="42.93826" lon="0.30109">
        <ele>1227.26</ele>
        <time>2018-01-09T09:24:26Z</time>
      </trkpt>
      <trkpt lat="42.93827" lon="0.30123">
        <ele>1226.3</ele>
        <time>2018-01-09T09:24:33Z</time>
      </trkpt>
      <trkpt lat="42.93833" lon="0.30135">
        <ele>1225.34</ele>
        <time>2018-01-09T09:24:41Z</time>
      </trkpt>
      <trkpt lat="42.93842" lon="0.30142">
        <ele>1224.38</ele>
        <time>2018-01-09T09:24:48Z</time>
      </trkpt>
      <trkpt lat="42.93851" lon="0.30145">
        <ele>1223.9</ele>
        <time>2018-01-09T09:24:55Z</time>
      </trkpt>
      <trkpt lat="42.9386" lon="0.30148">
        <ele>1222.93</ele>
        <time>2018-01-09T09:25:03Z</time>
      </trkpt>
      <trkpt lat="42.93869" lon="0.30148">
        <ele>1222.45</ele>
        <time>2018-01-09T09:25:10Z</time>
      </trkpt>
      <trkpt lat="42.93881" lon="0.30147">
        <ele>1221.49</ele>
        <time>2018-01-09T09:25:18Z</time>
      </trkpt>
      <trkpt lat="42.93891" lon="0.3015">
        <ele>1221.01</ele>
        <time>2018-01-09T09:25:26Z</time>
      </trkpt>
      <trkpt lat="42.939" lon="0.30156">
        <ele>1220.05</ele>
        <time>2018-01-09T09:25:34Z</time>
      </trkpt>
      <trkpt lat="42.93909" lon="0.30161">
        <ele>1219.57</ele>
        <time>2018-01-09T09:25:41Z</time>
      </trkpt>
      <trkpt lat="42.93917" lon="0.30167">
        <ele>1218.61</ele>
        <time>2018-01-09T09:25:48Z</time>
      </trkpt>
      <trkpt lat="42.93923" lon="0.30179">
        <ele>1217.65</ele>
        <time>2018-01-09T09:25:56Z</time>
      </trkpt>
      <trkpt lat="42.93924" lon="0.30193">
        <ele>1217.65</ele>
        <time>2018-01-09T09:26:05Z</time>
      </trkpt>
      <trkpt lat="42.93924" lon="0.30209">
        <ele>1216.21</ele>
        <time>2018-01-09T09:26:15Z</time>
      </trkpt>
      <trkpt lat="42.9392" lon="0.30226">
        <ele>1215.24</ele>
        <time>2018-01-09T09:26:24Z</time>
      </trkpt>
      <trkpt lat="42.93917" lon="0.3024">
        <ele>1214.28</ele>
        <time>2018-01-09T09:26:33Z</time>
      </trkpt>
      <trkpt lat="42.93912" lon="0.30252">
        <ele>1212.36</ele>
        <time>2018-01-09T09:26:41Z</time>
      </trkpt>
      <trkpt lat="42.93907" lon="0.30264">
        <ele>1212.36</ele>
        <time>2018-01-09T09:26:49Z</time>
      </trkpt>
      <trkpt lat="42.93902" lon="0.30279">
        <ele>1211.4</ele>
        <time>2018-01-09T09:26:57Z</time>
      </trkpt>
      <trkpt lat="42.939" lon="0.30293">
        <ele>1210.92</ele>
        <time>2018-01-09T09:27:05Z</time>
      </trkpt>
      <trkpt lat="42.93895" lon="0.30306">
        <ele>1209.96</ele>
        <time>2018-01-09T09:27:13Z</time>
      </trkpt>
      <trkpt lat="42.93892" lon="0.30321">
        <ele>1208.51</ele>
        <time>2018-01-09T09:27:21Z</time>
      </trkpt>
      <trkpt lat="42.93888" lon="0.30337">
        <ele>1207.55</ele>
        <time>2018-01-09T09:27:30Z</time>
      </trkpt>
      <trkpt lat="42.93884" lon="0.3035">
        <ele>1206.59</ele>
        <time>2018-01-09T09:27:37Z</time>
      </trkpt>
      <trkpt lat="42.93881" lon="0.30366">
        <ele>1205.63</ele>
        <time>2018-01-09T09:27:45Z</time>
      </trkpt>
      <trkpt lat="42.93881" lon="0.3038">
        <ele>1204.67</ele>
        <time>2018-01-09T09:27:54Z</time>
      </trkpt>
      <trkpt lat="42.93878" lon="0.30393">
        <ele>1204.19</ele>
        <time>2018-01-09T09:28:02Z</time>
      </trkpt>
      <trkpt lat="42.93878" lon="0.30407">
        <ele>1203.23</ele>
        <time>2018-01-09T09:28:10Z</time>
      </trkpt>
      <trkpt lat="42.93877" lon="0.3042">
        <ele>1202.27</ele>
        <time>2018-01-09T09:28:18Z</time>
      </trkpt>
      <trkpt lat="42.93874" lon="0.30433">
        <ele>1201.3</ele>
        <time>2018-01-09T09:28:26Z</time>
      </trkpt>
      <trkpt lat="42.93873" lon="0.30448">
        <ele>1200.34</ele>
        <time>2018-01-09T09:28:35Z</time>
      </trkpt>
      <trkpt lat="42.93871" lon="0.30463">
        <ele>1198.9</ele>
        <time>2018-01-09T09:28:44Z</time>
      </trkpt>
      <trkpt lat="42.9387" lon="0.3048">
        <ele>1197.94</ele>
        <time>2018-01-09T09:28:54Z</time>
      </trkpt>
      <trkpt lat="42.93867" lon="0.30497">
        <ele>1196.98</ele>
        <time>2018-01-09T09:29:04Z</time>
      </trkpt>
      <trkpt lat="42.93864" lon="0.30514">
        <ele>1196.02</ele>
        <time>2018-01-09T09:29:14Z</time>
      </trkpt>
      <trkpt lat="42.9386" lon="0.30525">
        <ele>1195.06</ele>
        <time>2018-01-09T09:29:22Z</time>
      </trkpt>
      <trkpt lat="42.93855" lon="0.30536">
        <ele>1194.58</ele>
        <time>2018-01-09T09:29:30Z</time>
      </trkpt>
      <trkpt lat="42.93847" lon="0.30546">
        <ele>1193.61</ele>
        <time>2018-01-09T09:29:39Z</time>
      </trkpt>
      <trkpt lat="42.93841" lon="0.30559">
        <ele>1193.13</ele>
        <time>2018-01-09T09:29:47Z</time>
      </trkpt>
      <trkpt lat="42.93836" lon="0.30572">
        <ele>1192.65</ele>
        <time>2018-01-09T09:29:55Z</time>
      </trkpt>
      <trkpt lat="42.93833" lon="0.30586">
        <ele>1192.17</ele>
        <time>2018-01-09T09:30:02Z</time>
      </trkpt>
      <trkpt lat="42.93832" lon="0.306">
        <ele>1191.21</ele>
        <time>2018-01-09T09:30:09Z</time>
      </trkpt>
      <trkpt lat="42.93835" lon="0.30614">
        <ele>1190.25</ele>
        <time>2018-01-09T09:30:17Z</time>
      </trkpt>
      <trkpt lat="42.93844" lon="0.30619">
        <ele>1190.25</ele>
        <time>2018-01-09T09:30:25Z</time>
      </trkpt>
      <trkpt lat="42.93856" lon="0.30617">
        <ele>1190.25</ele>
        <time>2018-01-09T09:30:34Z</time>
      </trkpt>
      <trkpt lat="42.93865" lon="0.30618">
        <ele>1189.77</ele>
        <time>2018-01-09T09:30:41Z</time>
      </trkpt>
      <trkpt lat="42.93875" lon="0.30622">
        <ele>1188.81</ele>
        <time>2018-01-09T09:30:48Z</time>
      </trkpt>
      <trkpt lat="42.93886" lon="0.30625">
        <ele>1188.33</ele>
        <time>2018-01-09T09:30:56Z</time>
      </trkpt>
      <trkpt lat="42.93893" lon="0.30635">
        <ele>1186.88</ele>
        <time>2018-01-09T09:31:04Z</time>
      </trkpt>
      <trkpt lat="42.93893" lon="0.30647">
        <ele>1186.88</ele>
        <time>2018-01-09T09:31:13Z</time>
      </trkpt>
      <trkpt lat="42.93884" lon="0.30655">
        <ele>1186.4</ele>
        <time>2018-01-09T09:31:22Z</time>
      </trkpt>
      <trkpt lat="42.93874" lon="0.30662">
        <ele>1185.92</ele>
        <time>2018-01-09T09:31:30Z</time>
      </trkpt>
      <trkpt lat="42.93868" lon="0.30672">
        <ele>1184.96</ele>
        <time>2018-01-09T09:31:38Z</time>
      </trkpt>
      <trkpt lat="42.93863" lon="0.30683">
        <ele>1184</ele>
        <time>2018-01-09T09:31:46Z</time>
      </trkpt>
      <trkpt lat="42.93857" lon="0.30692">
        <ele>1182.56</ele>
        <time>2018-01-09T09:31:54Z</time>
      </trkpt>
      <trkpt lat="42.93848" lon="0.307">
        <ele>1181.6</ele>
        <time>2018-01-09T09:32:03Z</time>
      </trkpt>
      <trkpt lat="42.93839" lon="0.30705">
        <ele>1180.64</ele>
        <time>2018-01-09T09:32:11Z</time>
      </trkpt>
      <trkpt lat="42.93829" lon="0.30713">
        <ele>1180.16</ele>
        <time>2018-01-09T09:32:18Z</time>
      </trkpt>
      <trkpt lat="42.93818" lon="0.30719">
        <ele>1179.19</ele>
        <time>2018-01-09T09:32:25Z</time>
      </trkpt>
      <trkpt lat="42.9381" lon="0.30727">
        <ele>1178.71</ele>
        <time>2018-01-09T09:32:33Z</time>
      </trkpt>
      <trkpt lat="42.93807" lon="0.30737">
        <ele>1177.27</ele>
        <time>2018-01-09T09:32:41Z</time>
      </trkpt>
      <trkpt lat="42.938" lon="0.30751">
        <ele>1176.79</ele>
        <time>2018-01-09T09:32:49Z</time>
      </trkpt>
      <trkpt lat="42.93795" lon="0.30763">
        <ele>1176.31</ele>
        <time>2018-01-09T09:32:56Z</time>
      </trkpt>
      <trkpt lat="42.93795" lon="0.30776">
        <ele>1175.83</ele>
        <time>2018-01-09T09:33:04Z</time>
      </trkpt>
      <trkpt lat="42.93792" lon="0.30786">
        <ele>1175.35</ele>
        <time>2018-01-09T09:33:11Z</time>
      </trkpt>
      <trkpt lat="42.93784" lon="0.30793">
        <ele>1175.35</ele>
        <time>2018-01-09T09:33:19Z</time>
      </trkpt>
      <trkpt lat="42.93775" lon="0.308">
        <ele>1174.87</ele>
        <time>2018-01-09T09:33:28Z</time>
      </trkpt>
      <trkpt lat="42.93768" lon="0.30813">
        <ele>1175.83</ele>
        <time>2018-01-09T09:33:37Z</time>
      </trkpt>
      <trkpt lat="42.93765" lon="0.30824">
        <ele>1177.27</ele>
        <time>2018-01-09T09:33:49Z</time>
      </trkpt>
      <trkpt lat="42.93761" lon="0.30839">
        <ele>1178.23</ele>
        <time>2018-01-09T09:33:59Z</time>
      </trkpt>
      <trkpt lat="42.93757" lon="0.30853">
        <ele>1179.19</ele>
        <time>2018-01-09T09:34:09Z</time>
      </trkpt>
      <trkpt lat="42.93754" lon="0.30866">
        <ele>1180.64</ele>
        <time>2018-01-09T09:34:19Z</time>
      </trkpt>
      <trkpt lat="42.93753" lon="0.3088">
        <ele>1181.6</ele>
        <time>2018-01-09T09:34:30Z</time>
      </trkpt>
      <trkpt lat="42.93751" lon="0.30893">
        <ele>1182.56</ele>
        <time>2018-01-09T09:34:39Z</time>
      </trkpt>
      <trkpt lat="42.93747" lon="0.30905">
        <ele>1184</ele>
        <time>2018-01-09T09:34:48Z</time>
      </trkpt>
      <trkpt lat="42.93745" lon="0.30917">
        <ele>1184.96</ele>
        <time>2018-01-09T09:34:58Z</time>
      </trkpt>
      <trkpt lat="42.93747" lon="0.30929">
        <ele>1185.44</ele>
        <time>2018-01-09T09:35:08Z</time>
      </trkpt>
      <trkpt lat="42.9375" lon="0.30943">
        <ele>1186.4</ele>
        <time>2018-01-09T09:35:17Z</time>
      </trkpt>
      <trkpt lat="42.93754" lon="0.30956">
        <ele>1186.88</ele>
        <time>2018-01-09T09:35:25Z</time>
      </trkpt>
      <trkpt lat="42.93761" lon="0.30969">
        <ele>1187.85</ele>
        <time>2018-01-09T09:35:33Z</time>
      </trkpt>
      <trkpt lat="42.93765" lon="0.30982">
        <ele>1188.33</ele>
        <time>2018-01-09T09:35:41Z</time>
      </trkpt>
      <trkpt lat="42.93773" lon="0.3099">
        <ele>1188.81</ele>
        <time>2018-01-09T09:35:49Z</time>
      </trkpt>
      <trkpt lat="42.9378" lon="0.30999">
        <ele>1189.77</ele>
        <time>2018-01-09T09:35:57Z</time>
      </trkpt>
      <trkpt lat="42.93787" lon="0.31009">
        <ele>1190.73</ele>
        <time>2018-01-09T09:36:06Z</time>
      </trkpt>
      <trkpt lat="42.93793" lon="0.31019">
        <ele>1191.21</ele>
        <time>2018-01-09T09:36:14Z</time>
      </trkpt>
      <trkpt lat="42.938" lon="0.31029">
        <ele>1191.69</ele>
        <time>2018-01-09T09:36:22Z</time>
      </trkpt>
      <trkpt lat="42.93807" lon="0.31039">
        <ele>1192.65</ele>
        <time>2018-01-09T09:36:30Z</time>
      </trkpt>
      <trkpt lat="42.93812" lon="0.3105">
        <ele>1193.13</ele>
        <time>2018-01-09T09:36:38Z</time>
      </trkpt>
      <trkpt lat="42.93818" lon="0.31061">
        <ele>1193.61</ele>
        <time>2018-01-09T09:36:46Z</time>
      </trkpt>
      <trkpt lat="42.93824" lon="0.31071">
        <ele>1194.09</ele>
        <time>2018-01-09T09:36:54Z</time>
      </trkpt>
      <trkpt lat="42.93831" lon="0.3108">
        <ele>1194.58</ele>
        <time>2018-01-09T09:37:03Z</time>
      </trkpt>
      <trkpt lat="42.93837" lon="0.31088">
        <ele>1195.06</ele>
        <time>2018-01-09T09:37:11Z</time>
      </trkpt>
      <trkpt lat="42.93844" lon="0.31097">
        <ele>1195.54</ele>
        <time>2018-01-09T09:37:19Z</time>
      </trkpt>
      <trkpt lat="42.93851" lon="0.31108">
        <ele>1196.5</ele>
        <time>2018-01-09T09:37:28Z</time>
      </trkpt>
      <trkpt lat="42.93855" lon="0.31119">
        <ele>1196.98</ele>
        <time>2018-01-09T09:37:36Z</time>
      </trkpt>
      <trkpt lat="42.93856" lon="0.31136">
        <ele>1197.46</ele>
        <time>2018-01-09T09:37:45Z</time>
      </trkpt>
      <trkpt lat="42.93859" lon="0.31151">
        <ele>1197.94</ele>
        <time>2018-01-09T09:37:55Z</time>
      </trkpt>
      <trkpt lat="42.93863" lon="0.31165">
        <ele>1198.42</ele>
        <time>2018-01-09T09:38:04Z</time>
      </trkpt>
      <trkpt lat="42.93868" lon="0.31178">
        <ele>1199.38</ele>
        <time>2018-01-09T09:38:14Z</time>
      </trkpt>
      <trkpt lat="42.93869" lon="0.31192">
        <ele>1199.38</ele>
        <time>2018-01-09T09:38:22Z</time>
      </trkpt>
      <trkpt lat="42.93871" lon="0.31205">
        <ele>1199.86</ele>
        <time>2018-01-09T09:38:31Z</time>
      </trkpt>
      <trkpt lat="42.93873" lon="0.31218">
        <ele>1200.34</ele>
        <time>2018-01-09T09:38:42Z</time>
      </trkpt>
      <trkpt lat="42.93875" lon="0.31234">
        <ele>1201.3</ele>
        <time>2018-01-09T09:38:52Z</time>
      </trkpt>
      <trkpt lat="42.93879" lon="0.31246">
        <ele>1202.75</ele>
        <time>2018-01-09T09:39:01Z</time>
      </trkpt>
      <trkpt lat="42.93887" lon="0.31255">
        <ele>1203.71</ele>
        <time>2018-01-09T09:39:10Z</time>
      </trkpt>
      <trkpt lat="42.93892" lon="0.31266">
        <ele>1205.15</ele>
        <time>2018-01-09T09:39:20Z</time>
      </trkpt>
      <trkpt lat="42.93898" lon="0.31277">
        <ele>1206.11</ele>
        <time>2018-01-09T09:39:30Z</time>
      </trkpt>
      <trkpt lat="42.93903" lon="0.31288">
        <ele>1207.55</ele>
        <time>2018-01-09T09:39:40Z</time>
      </trkpt>
      <trkpt lat="42.93905" lon="0.31301">
        <ele>1209</ele>
        <time>2018-01-09T09:39:50Z</time>
      </trkpt>
      <trkpt lat="42.93907" lon="0.31314">
        <ele>1210.44</ele>
        <time>2018-01-09T09:40:01Z</time>
      </trkpt>
      <trkpt lat="42.93912" lon="0.31326">
        <ele>1211.88</ele>
        <time>2018-01-09T09:40:13Z</time>
      </trkpt>
      <trkpt lat="42.93915" lon="0.31339">
        <ele>1212.84</ele>
        <time>2018-01-09T09:40:24Z</time>
      </trkpt>
      <trkpt lat="42.93919" lon="0.31351">
        <ele>1214.28</ele>
        <time>2018-01-09T09:40:36Z</time>
      </trkpt>
      <trkpt lat="42.93924" lon="0.31361">
        <ele>1215.72</ele>
        <time>2018-01-09T09:40:47Z</time>
      </trkpt>
      <trkpt lat="42.93931" lon="0.3137">
        <ele>1216.69</ele>
        <time>2018-01-09T09:40:57Z</time>
      </trkpt>
      <trkpt lat="42.93939" lon="0.3138">
        <ele>1218.13</ele>
        <time>2018-01-09T09:41:09Z</time>
      </trkpt>
      <trkpt lat="42.93946" lon="0.31389">
        <ele>1219.09</ele>
        <time>2018-01-09T09:41:19Z</time>
      </trkpt>
      <trkpt lat="42.93951" lon="0.314">
        <ele>1220.05</ele>
        <time>2018-01-09T09:41:28Z</time>
      </trkpt>
      <trkpt lat="42.9396" lon="0.31406">
        <ele>1220.53</ele>
        <time>2018-01-09T09:41:37Z</time>
      </trkpt>
      <trkpt lat="42.93967" lon="0.31411">
        <ele>1221.01</ele>
        <time>2018-01-09T09:41:45Z</time>
      </trkpt>
      <trkpt lat="42.93976" lon="0.31415">
        <ele>1221.97</ele>
        <time>2018-01-09T09:41:56Z</time>
      </trkpt>
      <trkpt lat="42.93985" lon="0.31413">
        <ele>1222.93</ele>
        <time>2018-01-09T09:42:06Z</time>
      </trkpt>
      <trkpt lat="42.93996" lon="0.31411">
        <ele>1223.9</ele>
        <time>2018-01-09T09:42:17Z</time>
      </trkpt>
      <trkpt lat="42.94007" lon="0.3141">
        <ele>1225.82</ele>
        <time>2018-01-09T09:42:27Z</time>
      </trkpt>
      <trkpt lat="42.94016" lon="0.31406">
        <ele>1227.26</ele>
        <time>2018-01-09T09:42:38Z</time>
      </trkpt>
      <trkpt lat="42.94026" lon="0.31403">
        <ele>1229.18</ele>
        <time>2018-01-09T09:42:49Z</time>
      </trkpt>
      <trkpt lat="42.94036" lon="0.31399">
        <ele>1230.62</ele>
        <time>2018-01-09T09:42:58Z</time>
      </trkpt>
      <trkpt lat="42.94045" lon="0.31396">
        <ele>1232.07</ele>
        <time>2018-01-09T09:43:07Z</time>
      </trkpt>
      <trkpt lat="42.94054" lon="0.31393">
        <ele>1233.51</ele>
        <time>2018-01-09T09:43:17Z</time>
      </trkpt>
      <trkpt lat="42.94064" lon="0.3139">
        <ele>1234.95</ele>
        <time>2018-01-09T09:43:27Z</time>
      </trkpt>
      <trkpt lat="42.94071" lon="0.31384">
        <ele>1236.39</ele>
        <time>2018-01-09T09:43:36Z</time>
      </trkpt>
      <trkpt lat="42.9408" lon="0.3138">
        <ele>1237.83</ele>
        <time>2018-01-09T09:43:45Z</time>
      </trkpt>
      <trkpt lat="42.94088" lon="0.31375">
        <ele>1239.76</ele>
        <time>2018-01-09T09:43:56Z</time>
      </trkpt>
      <trkpt lat="42.94097" lon="0.31372">
        <ele>1241.2</ele>
        <time>2018-01-09T09:44:19Z</time>
      </trkpt>
      <trkpt lat="42.94097" lon="0.31385">
        <ele>1242.16</ele>
        <time>2018-01-09T09:47:20Z</time>
      </trkpt>
      <trkpt lat="42.94109" lon="0.31385">
        <ele>1244.08</ele>
        <time>2018-01-09T09:48:07Z</time>
      </trkpt>
      <trkpt lat="42.94121" lon="0.31383">
        <ele>1247.93</ele>
        <time>2018-01-09T09:48:27Z</time>
      </trkpt>
      <trkpt lat="42.94133" lon="0.31386">
        <ele>1251.29</ele>
        <time>2018-01-09T09:48:44Z</time>
      </trkpt>
      <trkpt lat="42.94144" lon="0.31389">
        <ele>1253.7</ele>
        <time>2018-01-09T09:48:59Z</time>
      </trkpt>
      <trkpt lat="42.94153" lon="0.31394">
        <ele>1256.1</ele>
        <time>2018-01-09T09:49:13Z</time>
      </trkpt>
      <trkpt lat="42.94161" lon="0.31407">
        <ele>1258.98</ele>
        <time>2018-01-09T09:49:27Z</time>
      </trkpt>
      <trkpt lat="42.94169" lon="0.31415">
        <ele>1261.39</ele>
        <time>2018-01-09T09:49:40Z</time>
      </trkpt>
      <trkpt lat="42.94176" lon="0.3142">
        <ele>1263.79</ele>
        <time>2018-01-09T09:50:00Z</time>
      </trkpt>
      <trkpt lat="42.94172" lon="0.31435">
        <ele>1265.23</ele>
        <time>2018-01-09T09:50:23Z</time>
      </trkpt>
      <trkpt lat="42.94161" lon="0.3144">
        <ele>1267.16</ele>
        <time>2018-01-09T09:50:37Z</time>
      </trkpt>
      <trkpt lat="42.94147" lon="0.31439">
        <ele>1267.16</ele>
        <time>2018-01-09T09:50:47Z</time>
      </trkpt>
      <trkpt lat="42.94136" lon="0.31446">
        <ele>1268.12</ele>
        <time>2018-01-09T09:50:58Z</time>
      </trkpt>
      <trkpt lat="42.94124" lon="0.31455">
        <ele>1269.56</ele>
        <time>2018-01-09T09:51:11Z</time>
      </trkpt>
      <trkpt lat="42.94112" lon="0.31463">
        <ele>1270.52</ele>
        <time>2018-01-09T09:51:23Z</time>
      </trkpt>
      <trkpt lat="42.94102" lon="0.31471">
        <ele>1271.96</ele>
        <time>2018-01-09T09:51:35Z</time>
      </trkpt>
      <trkpt lat="42.94092" lon="0.31479">
        <ele>1274.85</ele>
        <time>2018-01-09T09:51:49Z</time>
      </trkpt>
      <trkpt lat="42.9408" lon="0.31488">
        <ele>1275.81</ele>
        <time>2018-01-09T09:52:02Z</time>
      </trkpt>
      <trkpt lat="42.94074" lon="0.31499">
        <ele>1277.73</ele>
        <time>2018-01-09T09:52:15Z</time>
      </trkpt>
      <trkpt lat="42.94063" lon="0.31514">
        <ele>1280.61</ele>
        <time>2018-01-09T09:52:30Z</time>
      </trkpt>
      <trkpt lat="42.94056" lon="0.31524">
        <ele>1282.54</ele>
        <time>2018-01-09T09:52:42Z</time>
      </trkpt>
      <trkpt lat="42.94054" lon="0.31543">
        <ele>1286.38</ele>
        <time>2018-01-09T09:52:59Z</time>
      </trkpt>
      <trkpt lat="42.94048" lon="0.31563">
        <ele>1290.23</ele>
        <time>2018-01-09T09:53:21Z</time>
      </trkpt>
      <trkpt lat="42.9406" lon="0.31559">
        <ele>1292.63</ele>
        <time>2018-01-09T09:53:39Z</time>
      </trkpt>
      <trkpt lat="42.94066" lon="0.31551">
        <ele>1294.55</ele>
        <time>2018-01-09T09:53:51Z</time>
      </trkpt>
      <trkpt lat="42.9408" lon="0.31551">
        <ele>1297.44</ele>
        <time>2018-01-09T09:54:07Z</time>
      </trkpt>
      <trkpt lat="42.94096" lon="0.31553">
        <ele>1301.76</ele>
        <time>2018-01-09T09:54:28Z</time>
      </trkpt>
      <trkpt lat="42.9411" lon="0.31558">
        <ele>1304.17</ele>
        <time>2018-01-09T09:54:44Z</time>
      </trkpt>
      <trkpt lat="42.94119" lon="0.31563">
        <ele>1307.05</ele>
        <time>2018-01-09T09:54:59Z</time>
      </trkpt>
      <trkpt lat="42.94126" lon="0.3157">
        <ele>1310.41</ele>
        <time>2018-01-09T09:55:16Z</time>
      </trkpt>
      <trkpt lat="42.94136" lon="0.31578">
        <ele>1312.82</ele>
        <time>2018-01-09T09:55:30Z</time>
      </trkpt>
      <trkpt lat="42.94144" lon="0.31591">
        <ele>1315.22</ele>
        <time>2018-01-09T09:55:45Z</time>
      </trkpt>
      <trkpt lat="42.9415" lon="0.31602">
        <ele>1318.1</ele>
        <time>2018-01-09T09:55:59Z</time>
      </trkpt>
      <trkpt lat="42.94159" lon="0.31612">
        <ele>1320.51</ele>
        <time>2018-01-09T09:56:13Z</time>
      </trkpt>
      <trkpt lat="42.94169" lon="0.31624">
        <ele>1323.39</ele>
        <time>2018-01-09T09:56:30Z</time>
      </trkpt>
      <trkpt lat="42.9418" lon="0.31634">
        <ele>1324.83</ele>
        <time>2018-01-09T09:56:44Z</time>
      </trkpt>
      <trkpt lat="42.94185" lon="0.31645">
        <ele>1327.72</ele>
        <time>2018-01-09T09:57:00Z</time>
      </trkpt>
      <trkpt lat="42.94192" lon="0.31661">
        <ele>1331.08</ele>
        <time>2018-01-09T09:57:16Z</time>
      </trkpt>
      <trkpt lat="42.94181" lon="0.31672">
        <ele>1333.97</ele>
        <time>2018-01-09T09:57:35Z</time>
      </trkpt>
      <trkpt lat="42.94165" lon="0.31674">
        <ele>1337.81</ele>
        <time>2018-01-09T09:57:56Z</time>
      </trkpt>
      <trkpt lat="42.94155" lon="0.31677">
        <ele>1341.18</ele>
        <time>2018-01-09T09:58:13Z</time>
      </trkpt>
      <trkpt lat="42.94143" lon="0.31682">
        <ele>1345.02</ele>
        <time>2018-01-09T09:58:34Z</time>
      </trkpt>
      <trkpt lat="42.94131" lon="0.31683">
        <ele>1347.43</ele>
        <time>2018-01-09T09:58:51Z</time>
      </trkpt>
      <trkpt lat="42.94121" lon="0.31691">
        <ele>1350.31</ele>
        <time>2018-01-09T09:59:09Z</time>
      </trkpt>
      <trkpt lat="42.94119" lon="0.31704">
        <ele>1353.19</ele>
        <time>2018-01-09T09:59:27Z</time>
      </trkpt>
      <trkpt lat="42.94127" lon="0.31711">
        <ele>1356.08</ele>
        <time>2018-01-09T09:59:46Z</time>
      </trkpt>
      <trkpt lat="42.94136" lon="0.3172">
        <ele>1358.48</ele>
        <time>2018-01-09T10:00:01Z</time>
      </trkpt>
      <trkpt lat="42.94143" lon="0.31729">
        <ele>1360.88</ele>
        <time>2018-01-09T10:00:16Z</time>
      </trkpt>
      <trkpt lat="42.94153" lon="0.31739">
        <ele>1363.29</ele>
        <time>2018-01-09T10:00:32Z</time>
      </trkpt>
      <trkpt lat="42.94159" lon="0.31751">
        <ele>1366.17</ele>
        <time>2018-01-09T10:00:48Z</time>
      </trkpt>
      <trkpt lat="42.94165" lon="0.31761">
        <ele>1369.54</ele>
        <time>2018-01-09T10:01:07Z</time>
      </trkpt>
      <trkpt lat="42.94172" lon="0.31778">
        <ele>1372.9</ele>
        <time>2018-01-09T10:01:23Z</time>
      </trkpt>
      <trkpt lat="42.94178" lon="0.31791">
        <ele>1375.78</ele>
        <time>2018-01-09T10:01:40Z</time>
      </trkpt>
      <trkpt lat="42.94184" lon="0.31805">
        <ele>1378.19</ele>
        <time>2018-01-09T10:01:55Z</time>
      </trkpt>
      <trkpt lat="42.94192" lon="0.31817">
        <ele>1379.63</ele>
        <time>2018-01-09T10:02:09Z</time>
      </trkpt>
      <trkpt lat="42.94199" lon="0.31828">
        <ele>1381.07</ele>
        <time>2018-01-09T10:02:21Z</time>
      </trkpt>
      <trkpt lat="42.94204" lon="0.3184">
        <ele>1382.99</ele>
        <time>2018-01-09T10:02:35Z</time>
      </trkpt>
      <trkpt lat="42.94204" lon="0.31859">
        <ele>1384.92</ele>
        <time>2018-01-09T10:03:19Z</time>
      </trkpt>
      <trkpt lat="42.94206" lon="0.31867">
        <ele>1386.84</ele>
        <time>2018-01-09T10:03:54Z</time>
      </trkpt>
      <trkpt lat="42.94214" lon="0.31882">
        <ele>1387.32</ele>
        <time>2018-01-09T10:04:07Z</time>
      </trkpt>
      <trkpt lat="42.94219" lon="0.31895">
        <ele>1388.28</ele>
        <time>2018-01-09T10:04:19Z</time>
      </trkpt>
      <trkpt lat="42.94222" lon="0.31907">
        <ele>1388.76</ele>
        <time>2018-01-09T10:04:32Z</time>
      </trkpt>
      <trkpt lat="42.94227" lon="0.31921">
        <ele>1389.72</ele>
        <time>2018-01-09T10:04:44Z</time>
      </trkpt>
      <trkpt lat="42.9423" lon="0.31938">
        <ele>1391.65</ele>
        <time>2018-01-09T10:04:58Z</time>
      </trkpt>
      <trkpt lat="42.94234" lon="0.31949">
        <ele>1393.09</ele>
        <time>2018-01-09T10:05:10Z</time>
      </trkpt>
      <trkpt lat="42.94234" lon="0.31962">
        <ele>1394.53</ele>
        <time>2018-01-09T10:05:22Z</time>
      </trkpt>
      <trkpt lat="42.94238" lon="0.31973">
        <ele>1395.01</ele>
        <time>2018-01-09T10:05:33Z</time>
      </trkpt>
      <trkpt lat="42.94241" lon="0.31987">
        <ele>1395.49</ele>
        <time>2018-01-09T10:05:43Z</time>
      </trkpt>
      <trkpt lat="42.94246" lon="0.31998">
        <ele>1395.49</ele>
        <time>2018-01-09T10:05:50Z</time>
      </trkpt>
      <trkpt lat="42.9425" lon="0.32009">
        <ele>1395.01</ele>
        <time>2018-01-09T10:05:58Z</time>
      </trkpt>
      <trkpt lat="42.94254" lon="0.32021">
        <ele>1393.57</ele>
        <time>2018-01-09T10:06:06Z</time>
      </trkpt>
      <trkpt lat="42.94257" lon="0.32035">
        <ele>1393.09</ele>
        <time>2018-01-09T10:06:15Z</time>
      </trkpt>
      <trkpt lat="42.94259" lon="0.32048">
        <ele>1392.61</ele>
        <time>2018-01-09T10:06:24Z</time>
      </trkpt>
      <trkpt lat="42.94259" lon="0.32063">
        <ele>1393.09</ele>
        <time>2018-01-09T10:06:35Z</time>
      </trkpt>
      <trkpt lat="42.94259" lon="0.32077">
        <ele>1393.57</ele>
        <time>2018-01-09T10:06:45Z</time>
      </trkpt>
      <trkpt lat="42.94262" lon="0.32091">
        <ele>1393.09</ele>
        <time>2018-01-09T10:06:54Z</time>
      </trkpt>
      <trkpt lat="42.94263" lon="0.32106">
        <ele>1394.05</ele>
        <time>2018-01-09T10:07:04Z</time>
      </trkpt>
      <trkpt lat="42.94262" lon="0.32121">
        <ele>1394.53</ele>
        <time>2018-01-09T10:07:15Z</time>
      </trkpt>
      <trkpt lat="42.94266" lon="0.32134">
        <ele>1394.53</ele>
        <time>2018-01-09T10:07:24Z</time>
      </trkpt>
      <trkpt lat="42.94268" lon="0.32148">
        <ele>1395.01</ele>
        <time>2018-01-09T10:07:36Z</time>
      </trkpt>
      <trkpt lat="42.94273" lon="0.32162">
        <ele>1395.49</ele>
        <time>2018-01-09T10:07:47Z</time>
      </trkpt>
      <trkpt lat="42.94278" lon="0.32174">
        <ele>1395.97</ele>
        <time>2018-01-09T10:07:58Z</time>
      </trkpt>
      <trkpt lat="42.94279" lon="0.32187">
        <ele>1396.93</ele>
        <time>2018-01-09T10:08:09Z</time>
      </trkpt>
      <trkpt lat="42.94285" lon="0.32197">
        <ele>1398.37</ele>
        <time>2018-01-09T10:08:21Z</time>
      </trkpt>
      <trkpt lat="42.94299" lon="0.32206">
        <ele>1399.34</ele>
        <time>2018-01-09T10:08:36Z</time>
      </trkpt>
      <trkpt lat="42.94301" lon="0.32221">
        <ele>1401.74</ele>
        <time>2018-01-09T10:08:52Z</time>
      </trkpt>
      <trkpt lat="42.94302" lon="0.32233">
        <ele>1403.18</ele>
        <time>2018-01-09T10:09:07Z</time>
      </trkpt>
      <trkpt lat="42.94306" lon="0.32237">
        <ele>1403.66</ele>
        <time>2018-01-09T10:09:25Z</time>
      </trkpt>
      <trkpt lat="42.94302" lon="0.3223">
        <ele>1405.1</ele>
        <time>2018-01-09T10:09:38Z</time>
      </trkpt>
      <trkpt lat="42.94299" lon="0.32219">
        <ele>1406.55</ele>
        <time>2018-01-09T10:09:50Z</time>
      </trkpt>
      <trkpt lat="42.94302" lon="0.32206">
        <ele>1407.51</ele>
        <time>2018-01-09T10:10:03Z</time>
      </trkpt>
      <trkpt lat="42.94306" lon="0.32195">
        <ele>1408.47</ele>
        <time>2018-01-09T10:10:16Z</time>
      </trkpt>
      <trkpt lat="42.94308" lon="0.32184">
        <ele>1409.43</ele>
        <time>2018-01-09T10:10:29Z</time>
      </trkpt>
      <trkpt lat="42.94314" lon="0.32173">
        <ele>1409.91</ele>
        <time>2018-01-09T10:10:42Z</time>
      </trkpt>
      <trkpt lat="42.9432" lon="0.32164">
        <ele>1411.35</ele>
        <time>2018-01-09T10:10:53Z</time>
      </trkpt>
      <trkpt lat="42.94329" lon="0.32156">
        <ele>1413.28</ele>
        <time>2018-01-09T10:11:07Z</time>
      </trkpt>
      <trkpt lat="42.94342" lon="0.32142">
        <ele>1413.76</ele>
        <time>2018-01-09T10:11:22Z</time>
      </trkpt>
      <trkpt lat="42.94355" lon="0.32136">
        <ele>1413.76</ele>
        <time>2018-01-09T10:11:35Z</time>
      </trkpt>
      <trkpt lat="42.94367" lon="0.32126">
        <ele>1413.76</ele>
        <time>2018-01-09T10:11:47Z</time>
      </trkpt>
      <trkpt lat="42.94374" lon="0.32111">
        <ele>1413.76</ele>
        <time>2018-01-09T10:11:56Z</time>
      </trkpt>
      <trkpt lat="42.94377" lon="0.32099">
        <ele>1413.76</ele>
        <time>2018-01-09T10:12:06Z</time>
      </trkpt>
      <trkpt lat="42.9438" lon="0.32088">
        <ele>1415.68</ele>
        <time>2018-01-09T10:12:20Z</time>
      </trkpt>
      <trkpt lat="42.94386" lon="0.32074">
        <ele>1416.64</ele>
        <time>2018-01-09T10:12:33Z</time>
      </trkpt>
      <trkpt lat="42.94393" lon="0.3206">
        <ele>1418.08</ele>
        <time>2018-01-09T10:12:45Z</time>
      </trkpt>
      <trkpt lat="42.94406" lon="0.32046">
        <ele>1419.04</ele>
        <time>2018-01-09T10:12:57Z</time>
      </trkpt>
      <trkpt lat="42.94411" lon="0.32035">
        <ele>1418.56</ele>
        <time>2018-01-09T10:13:08Z</time>
      </trkpt>
      <trkpt lat="42.94417" lon="0.32023">
        <ele>1418.08</ele>
        <time>2018-01-09T10:13:23Z</time>
      </trkpt>
      <trkpt lat="42.94427" lon="0.32011">
        <ele>1421.45</ele>
        <time>2018-01-09T10:13:40Z</time>
      </trkpt>
      <trkpt lat="42.94445" lon="0.32001">
        <ele>1423.37</ele>
        <time>2018-01-09T10:13:55Z</time>
      </trkpt>
      <trkpt lat="42.94455" lon="0.31988">
        <ele>1424.81</ele>
        <time>2018-01-09T10:14:35Z</time>
      </trkpt>
      <trkpt lat="42.94454" lon="0.32007">
        <ele>1427.7</ele>
        <time>2018-01-09T10:14:54Z</time>
      </trkpt>
      <trkpt lat="42.94445" lon="0.3203">
        <ele>1431.06</ele>
        <time>2018-01-09T10:15:14Z</time>
      </trkpt>
      <trkpt lat="42.94446" lon="0.32048">
        <ele>1434.42</ele>
        <time>2018-01-09T10:15:32Z</time>
      </trkpt>
      <trkpt lat="42.94446" lon="0.32065">
        <ele>1438.75</ele>
        <time>2018-01-09T10:15:57Z</time>
      </trkpt>
      <trkpt lat="42.94442" lon="0.32083">
        <ele>1441.63</ele>
        <time>2018-01-09T10:16:18Z</time>
      </trkpt>
      <trkpt lat="42.94438" lon="0.32101">
        <ele>1443.56</ele>
        <time>2018-01-09T10:16:38Z</time>
      </trkpt>
      <trkpt lat="42.94435" lon="0.32121">
        <ele>1446.92</ele>
        <time>2018-01-09T10:16:58Z</time>
      </trkpt>
      <trkpt lat="42.94431" lon="0.3214">
        <ele>1451.25</ele>
        <time>2018-01-09T10:17:18Z</time>
      </trkpt>
      <trkpt lat="42.94425" lon="0.32159">
        <ele>1453.17</ele>
        <time>2018-01-09T10:17:37Z</time>
      </trkpt>
      <trkpt lat="42.94423" lon="0.32175">
        <ele>1457.02</ele>
        <time>2018-01-09T10:17:59Z</time>
      </trkpt>
      <trkpt lat="42.94423" lon="0.32191">
        <ele>1460.86</ele>
        <time>2018-01-09T10:18:17Z</time>
      </trkpt>
      <trkpt lat="42.94421" lon="0.32204">
        <ele>1461.34</ele>
        <time>2018-01-09T10:18:31Z</time>
      </trkpt>
      <trkpt lat="42.94416" lon="0.32215">
        <ele>1461.82</ele>
        <time>2018-01-09T10:18:42Z</time>
      </trkpt>
      <trkpt lat="42.94411" lon="0.32227">
        <ele>1463.26</ele>
        <time>2018-01-09T10:18:52Z</time>
      </trkpt>
      <trkpt lat="42.94406" lon="0.32239">
        <ele>1463.74</ele>
        <time>2018-01-09T10:19:02Z</time>
      </trkpt>
      <trkpt lat="42.944" lon="0.3225">
        <ele>1464.71</ele>
        <time>2018-01-09T10:19:11Z</time>
      </trkpt>
      <trkpt lat="42.94393" lon="0.32262">
        <ele>1464.23</ele>
        <time>2018-01-09T10:19:21Z</time>
      </trkpt>
      <trkpt lat="42.94387" lon="0.32273">
        <ele>1466.15</ele>
        <time>2018-01-09T10:19:31Z</time>
      </trkpt>
      <trkpt lat="42.94381" lon="0.32285">
        <ele>1467.11</ele>
        <time>2018-01-09T10:19:41Z</time>
      </trkpt>
      <trkpt lat="42.94375" lon="0.32295">
        <ele>1468.55</ele>
        <time>2018-01-09T10:19:54Z</time>
      </trkpt>
      <trkpt lat="42.9437" lon="0.32307">
        <ele>1468.55</ele>
        <time>2018-01-09T10:20:05Z</time>
      </trkpt>
      <trkpt lat="42.94365" lon="0.32322">
        <ele>1469.51</ele>
        <time>2018-01-09T10:20:15Z</time>
      </trkpt>
      <trkpt lat="42.94361" lon="0.32335">
        <ele>1469.99</ele>
        <time>2018-01-09T10:20:25Z</time>
      </trkpt>
      <trkpt lat="42.9436" lon="0.32348">
        <ele>1470.95</ele>
        <time>2018-01-09T10:20:34Z</time>
      </trkpt>
      <trkpt lat="42.94359" lon="0.3236">
        <ele>1470.95</ele>
        <time>2018-01-09T10:20:43Z</time>
      </trkpt>
      <trkpt lat="42.94358" lon="0.32374">
        <ele>1471.92</ele>
        <time>2018-01-09T10:20:52Z</time>
      </trkpt>
      <trkpt lat="42.94358" lon="0.32388">
        <ele>1472.88</ele>
        <time>2018-01-09T10:21:01Z</time>
      </trkpt>
      <trkpt lat="42.94359" lon="0.32401">
        <ele>1473.36</ele>
        <time>2018-01-09T10:21:11Z</time>
      </trkpt>
      <trkpt lat="42.94357" lon="0.32414">
        <ele>1474.32</ele>
        <time>2018-01-09T10:21:20Z</time>
      </trkpt>
      <trkpt lat="42.94355" lon="0.32427">
        <ele>1475.28</ele>
        <time>2018-01-09T10:21:29Z</time>
      </trkpt>
      <trkpt lat="42.94353" lon="0.3244">
        <ele>1475.76</ele>
        <time>2018-01-09T10:21:38Z</time>
      </trkpt>
      <trkpt lat="42.9435" lon="0.32451">
        <ele>1476.72</ele>
        <time>2018-01-09T10:21:47Z</time>
      </trkpt>
      <trkpt lat="42.94348" lon="0.32463">
        <ele>1477.68</ele>
        <time>2018-01-09T10:21:56Z</time>
      </trkpt>
      <trkpt lat="42.94346" lon="0.32475">
        <ele>1478.16</ele>
        <time>2018-01-09T10:22:04Z</time>
      </trkpt>
      <trkpt lat="42.94342" lon="0.32488">
        <ele>1478.16</ele>
        <time>2018-01-09T10:22:13Z</time>
      </trkpt>
      <trkpt lat="42.9434" lon="0.32502">
        <ele>1479.13</ele>
        <time>2018-01-09T10:22:22Z</time>
      </trkpt>
      <trkpt lat="42.94337" lon="0.32515">
        <ele>1480.09</ele>
        <time>2018-01-09T10:22:32Z</time>
      </trkpt>
      <trkpt lat="42.94336" lon="0.32528">
        <ele>1481.05</ele>
        <time>2018-01-09T10:22:41Z</time>
      </trkpt>
      <trkpt lat="42.94334" lon="0.32541">
        <ele>1481.53</ele>
        <time>2018-01-09T10:22:50Z</time>
      </trkpt>
      <trkpt lat="42.94331" lon="0.32553">
        <ele>1482.01</ele>
        <time>2018-01-09T10:22:59Z</time>
      </trkpt>
      <trkpt lat="42.94328" lon="0.32566">
        <ele>1483.45</ele>
        <time>2018-01-09T10:23:09Z</time>
      </trkpt>
      <trkpt lat="42.94326" lon="0.32579">
        <ele>1483.45</ele>
        <time>2018-01-09T10:23:18Z</time>
      </trkpt>
      <trkpt lat="42.94323" lon="0.32592">
        <ele>1484.41</ele>
        <time>2018-01-09T10:23:27Z</time>
      </trkpt>
      <trkpt lat="42.9432" lon="0.32605">
        <ele>1484.89</ele>
        <time>2018-01-09T10:23:36Z</time>
      </trkpt>
      <trkpt lat="42.94316" lon="0.32618">
        <ele>1484.89</ele>
        <time>2018-01-09T10:23:45Z</time>
      </trkpt>
      <trkpt lat="42.94311" lon="0.32629">
        <ele>1486.34</ele>
        <time>2018-01-09T10:23:54Z</time>
      </trkpt>
      <trkpt lat="42.94306" lon="0.3264">
        <ele>1487.3</ele>
        <time>2018-01-09T10:24:03Z</time>
      </trkpt>
      <trkpt lat="42.943" lon="0.3265">
        <ele>1487.78</ele>
        <time>2018-01-09T10:24:12Z</time>
      </trkpt>
      <trkpt lat="42.94294" lon="0.3266">
        <ele>1487.78</ele>
        <time>2018-01-09T10:24:21Z</time>
      </trkpt>
      <trkpt lat="42.94288" lon="0.32669">
        <ele>1487.78</ele>
        <time>2018-01-09T10:24:30Z</time>
      </trkpt>
      <trkpt lat="42.94282" lon="0.32677">
        <ele>1488.74</ele>
        <time>2018-01-09T10:24:39Z</time>
      </trkpt>
      <trkpt lat="42.94275" lon="0.32685">
        <ele>1490.18</ele>
        <time>2018-01-09T10:24:48Z</time>
      </trkpt>
      <trkpt lat="42.94267" lon="0.32693">
        <ele>1491.14</ele>
        <time>2018-01-09T10:24:57Z</time>
      </trkpt>
      <trkpt lat="42.94261" lon="0.327">
        <ele>1492.1</ele>
        <time>2018-01-09T10:25:06Z</time>
      </trkpt>
      <trkpt lat="42.94252" lon="0.32707">
        <ele>1492.58</ele>
        <time>2018-01-09T10:25:16Z</time>
      </trkpt>
      <trkpt lat="42.94244" lon="0.32716">
        <ele>1493.06</ele>
        <time>2018-01-09T10:25:26Z</time>
      </trkpt>
      <trkpt lat="42.94239" lon="0.32728">
        <ele>1493.06</ele>
        <time>2018-01-09T10:25:42Z</time>
      </trkpt>
      <trkpt lat="42.94238" lon="0.3274">
        <ele>1494.51</ele>
        <time>2018-01-09T10:25:55Z</time>
      </trkpt>
      <trkpt lat="42.94233" lon="0.32741">
        <ele>1494.99</ele>
        <time>2018-01-09T10:26:14Z</time>
      </trkpt>
      <trkpt lat="42.94225" lon="0.32737">
        <ele>1494.99</ele>
        <time>2018-01-09T10:26:24Z</time>
      </trkpt>
      <trkpt lat="42.94216" lon="0.32739">
        <ele>1494.51</ele>
        <time>2018-01-09T10:26:33Z</time>
      </trkpt>
      <trkpt lat="42.94206" lon="0.3274">
        <ele>1494.51</ele>
        <time>2018-01-09T10:26:42Z</time>
      </trkpt>
      <trkpt lat="42.94203" lon="0.3273">
        <ele>1496.91</ele>
        <time>2018-01-09T10:26:58Z</time>
      </trkpt>
      <trkpt lat="42.94198" lon="0.32717">
        <ele>1497.87</ele>
        <time>2018-01-09T10:27:12Z</time>
      </trkpt>
      <trkpt lat="42.94192" lon="0.32709">
        <ele>1498.35</ele>
        <time>2018-01-09T10:27:21Z</time>
      </trkpt>
      <trkpt lat="42.94183" lon="0.32703">
        <ele>1500.27</ele>
        <time>2018-01-09T10:27:31Z</time>
      </trkpt>
      <trkpt lat="42.94176" lon="0.32696">
        <ele>1501.72</ele>
        <time>2018-01-09T10:27:41Z</time>
      </trkpt>
      <trkpt lat="42.94168" lon="0.3269">
        <ele>1502.2</ele>
        <time>2018-01-09T10:27:52Z</time>
      </trkpt>
      <trkpt lat="42.94159" lon="0.32682">
        <ele>1504.12</ele>
        <time>2018-01-09T10:28:04Z</time>
      </trkpt>
      <trkpt lat="42.9415" lon="0.32678">
        <ele>1505.56</ele>
        <time>2018-01-09T10:28:15Z</time>
      </trkpt>
      <trkpt lat="42.94142" lon="0.32672">
        <ele>1507.48</ele>
        <time>2018-01-09T10:28:27Z</time>
      </trkpt>
      <trkpt lat="42.94135" lon="0.32668">
        <ele>1508.93</ele>
        <time>2018-01-09T10:29:04Z</time>
      </trkpt>
      <trkpt lat="42.94128" lon="0.32661">
        <ele>1509.41</ele>
        <time>2018-01-09T10:29:30Z</time>
      </trkpt>
      <trkpt lat="42.94127" lon="0.32649">
        <ele>1510.37</ele>
        <time>2018-01-09T10:30:04Z</time>
      </trkpt>
      <trkpt lat="42.94126" lon="0.32635">
        <ele>1511.33</ele>
        <time>2018-01-09T10:30:15Z</time>
      </trkpt>
      <trkpt lat="42.94125" lon="0.32624">
        <ele>1512.77</ele>
        <time>2018-01-09T10:30:27Z</time>
      </trkpt>
      <trkpt lat="42.94122" lon="0.32612">
        <ele>1514.21</ele>
        <time>2018-01-09T10:30:37Z</time>
      </trkpt>
      <trkpt lat="42.94116" lon="0.32602">
        <ele>1516.14</ele>
        <time>2018-01-09T10:30:48Z</time>
      </trkpt>
      <trkpt lat="42.9411" lon="0.32593">
        <ele>1518.06</ele>
        <time>2018-01-09T10:31:02Z</time>
      </trkpt>
      <trkpt lat="42.94106" lon="0.32581">
        <ele>1519.98</ele>
        <time>2018-01-09T10:31:14Z</time>
      </trkpt>
      <trkpt lat="42.941" lon="0.3257">
        <ele>1521.9</ele>
        <time>2018-01-09T10:31:29Z</time>
      </trkpt>
      <trkpt lat="42.94094" lon="0.32558">
        <ele>1523.83</ele>
        <time>2018-01-09T10:31:43Z</time>
      </trkpt>
      <trkpt lat="42.94089" lon="0.32546">
        <ele>1525.75</ele>
        <time>2018-01-09T10:32:00Z</time>
      </trkpt>
      <trkpt lat="42.94087" lon="0.32535">
        <ele>1528.15</ele>
        <time>2018-01-09T10:32:16Z</time>
      </trkpt>
      <trkpt lat="42.94083" lon="0.3252">
        <ele>1530.08</ele>
        <time>2018-01-09T10:32:32Z</time>
      </trkpt>
      <trkpt lat="42.94078" lon="0.32507">
        <ele>1532</ele>
        <time>2018-01-09T10:32:47Z</time>
      </trkpt>
      <trkpt lat="42.94075" lon="0.32494">
        <ele>1533.44</ele>
        <time>2018-01-09T10:33:02Z</time>
      </trkpt>
      <trkpt lat="42.94072" lon="0.3248">
        <ele>1535.36</ele>
        <time>2018-01-09T10:33:16Z</time>
      </trkpt>
      <trkpt lat="42.9407" lon="0.32472">
        <ele>1537.29</ele>
        <time>2018-01-09T10:33:30Z</time>
      </trkpt>
      <trkpt lat="42.94069" lon="0.32457">
        <ele>1539.69</ele>
        <time>2018-01-09T10:33:45Z</time>
      </trkpt>
      <trkpt lat="42.94064" lon="0.32446">
        <ele>1542.09</ele>
        <time>2018-01-09T10:34:01Z</time>
      </trkpt>
      <trkpt lat="42.94058" lon="0.32434">
        <ele>1544.5</ele>
        <time>2018-01-09T10:34:18Z</time>
      </trkpt>
      <trkpt lat="42.94053" lon="0.32426">
        <ele>1547.86</ele>
        <time>2018-01-09T10:34:36Z</time>
      </trkpt>
      <trkpt lat="42.94048" lon="0.32415">
        <ele>1551.22</ele>
        <time>2018-01-09T10:34:58Z</time>
      </trkpt>
      <trkpt lat="42.94042" lon="0.32394">
        <ele>1554.59</ele>
        <time>2018-01-09T10:35:23Z</time>
      </trkpt>
      <trkpt lat="42.94035" lon="0.32381">
        <ele>1558.43</ele>
        <time>2018-01-09T10:35:45Z</time>
      </trkpt>
      <trkpt lat="42.94025" lon="0.32375">
        <ele>1561.32</ele>
        <time>2018-01-09T10:36:06Z</time>
      </trkpt>
      <trkpt lat="42.94015" lon="0.3237">
        <ele>1563.72</ele>
        <time>2018-01-09T10:36:21Z</time>
      </trkpt>
      <trkpt lat="42.94006" lon="0.32369">
        <ele>1565.64</ele>
        <time>2018-01-09T10:36:37Z</time>
      </trkpt>
      <trkpt lat="42.93996" lon="0.32368">
        <ele>1566.61</ele>
        <time>2018-01-09T10:36:53Z</time>
      </trkpt>
      <trkpt lat="42.93987" lon="0.32369">
        <ele>1568.53</ele>
        <time>2018-01-09T10:37:06Z</time>
      </trkpt>
      <trkpt lat="42.93976" lon="0.32372">
        <ele>1569.97</ele>
        <time>2018-01-09T10:37:20Z</time>
      </trkpt>
      <trkpt lat="42.93966" lon="0.32375">
        <ele>1571.41</ele>
        <time>2018-01-09T10:37:34Z</time>
      </trkpt>
      <trkpt lat="42.93956" lon="0.32372">
        <ele>1574.3</ele>
        <time>2018-01-09T10:37:51Z</time>
      </trkpt>
      <trkpt lat="42.93946" lon="0.32369">
        <ele>1576.7</ele>
        <time>2018-01-09T10:38:06Z</time>
      </trkpt>
      <trkpt lat="42.93936" lon="0.32366">
        <ele>1579.1</ele>
        <time>2018-01-09T10:38:22Z</time>
      </trkpt>
      <trkpt lat="42.93927" lon="0.32366">
        <ele>1581.03</ele>
        <time>2018-01-09T10:38:34Z</time>
      </trkpt>
      <trkpt lat="42.93918" lon="0.32368">
        <ele>1582.47</ele>
        <time>2018-01-09T10:38:45Z</time>
      </trkpt>
      <trkpt lat="42.93908" lon="0.32365">
        <ele>1583.91</ele>
        <time>2018-01-09T10:38:58Z</time>
      </trkpt>
      <trkpt lat="42.93897" lon="0.32365">
        <ele>1584.87</ele>
        <time>2018-01-09T10:39:10Z</time>
      </trkpt>
      <trkpt lat="42.93887" lon="0.32366">
        <ele>1586.31</ele>
        <time>2018-01-09T10:39:23Z</time>
      </trkpt>
      <trkpt lat="42.93879" lon="0.32359">
        <ele>1587.75</ele>
        <time>2018-01-09T10:39:36Z</time>
      </trkpt>
      <trkpt lat="42.93869" lon="0.32352">
        <ele>1588.72</ele>
        <time>2018-01-09T10:39:50Z</time>
      </trkpt>
      <trkpt lat="42.9386" lon="0.32344">
        <ele>1589.68</ele>
        <time>2018-01-09T10:40:03Z</time>
      </trkpt>
      <trkpt lat="42.93851" lon="0.32339">
        <ele>1590.16</ele>
        <time>2018-01-09T10:40:15Z</time>
      </trkpt>
      <trkpt lat="42.93842" lon="0.32331">
        <ele>1591.6</ele>
        <time>2018-01-09T10:40:27Z</time>
      </trkpt>
      <trkpt lat="42.9383" lon="0.32324">
        <ele>1594</ele>
        <time>2018-01-09T10:40:44Z</time>
      </trkpt>
      <trkpt lat="42.93819" lon="0.32317">
        <ele>1595.45</ele>
        <time>2018-01-09T10:40:57Z</time>
      </trkpt>
      <trkpt lat="42.93809" lon="0.32307">
        <ele>1596.89</ele>
        <time>2018-01-09T10:41:11Z</time>
      </trkpt>
      <trkpt lat="42.93798" lon="0.32301">
        <ele>1598.33</ele>
        <time>2018-01-09T10:41:24Z</time>
      </trkpt>
      <trkpt lat="42.93787" lon="0.32295">
        <ele>1599.77</ele>
        <time>2018-01-09T10:41:37Z</time>
      </trkpt>
      <trkpt lat="42.93777" lon="0.3229">
        <ele>1601.21</ele>
        <time>2018-01-09T10:41:49Z</time>
      </trkpt>
      <trkpt lat="42.93767" lon="0.32284">
        <ele>1602.17</ele>
        <time>2018-01-09T10:42:01Z</time>
      </trkpt>
      <trkpt lat="42.93758" lon="0.32279">
        <ele>1603.14</ele>
        <time>2018-01-09T10:42:12Z</time>
      </trkpt>
      <trkpt lat="42.93748" lon="0.32273">
        <ele>1603.14</ele>
        <time>2018-01-09T10:42:23Z</time>
      </trkpt>
      <trkpt lat="42.93738" lon="0.32271">
        <ele>1603.14</ele>
        <time>2018-01-09T10:42:36Z</time>
      </trkpt>
      <trkpt lat="42.93726" lon="0.32272">
        <ele>1603.62</ele>
        <time>2018-01-09T10:42:48Z</time>
      </trkpt>
      <trkpt lat="42.93716" lon="0.32275">
        <ele>1604.1</ele>
        <time>2018-01-09T10:42:59Z</time>
      </trkpt>
      <trkpt lat="42.93706" lon="0.32274">
        <ele>1604.58</ele>
        <time>2018-01-09T10:43:15Z</time>
      </trkpt>
      <trkpt lat="42.93705" lon="0.32274">
        <ele>1603.14</ele>
        <time>2018-01-09T10:47:11Z</time>
      </trkpt>
      <trkpt lat="42.937" lon="0.32275">
        <ele>1605.54</ele>
        <time>2018-01-09T10:49:17Z</time>
      </trkpt>
      <trkpt lat="42.93688" lon="0.32277">
        <ele>1606.02</ele>
        <time>2018-01-09T10:49:32Z</time>
      </trkpt>
      <trkpt lat="42.93676" lon="0.32279">
        <ele>1606.5</ele>
        <time>2018-01-09T10:49:44Z</time>
      </trkpt>
      <trkpt lat="42.93664" lon="0.32285">
        <ele>1606.5</ele>
        <time>2018-01-09T10:49:57Z</time>
      </trkpt>
      <trkpt lat="42.93653" lon="0.32288">
        <ele>1605.54</ele>
        <time>2018-01-09T10:50:08Z</time>
      </trkpt>
      <trkpt lat="42.93641" lon="0.32292">
        <ele>1606.02</ele>
        <time>2018-01-09T10:50:19Z</time>
      </trkpt>
      <trkpt lat="42.9363" lon="0.32293">
        <ele>1605.54</ele>
        <time>2018-01-09T10:50:29Z</time>
      </trkpt>
      <trkpt lat="42.93618" lon="0.32291">
        <ele>1605.54</ele>
        <time>2018-01-09T10:50:41Z</time>
      </trkpt>
      <trkpt lat="42.93607" lon="0.3229">
        <ele>1606.5</ele>
        <time>2018-01-09T10:50:53Z</time>
      </trkpt>
      <trkpt lat="42.93595" lon="0.3229">
        <ele>1606.5</ele>
        <time>2018-01-09T10:51:04Z</time>
      </trkpt>
      <trkpt lat="42.93583" lon="0.32284">
        <ele>1607.46</ele>
        <time>2018-01-09T10:51:18Z</time>
      </trkpt>
      <trkpt lat="42.93571" lon="0.3228">
        <ele>1607.94</ele>
        <time>2018-01-09T10:51:37Z</time>
      </trkpt>
      <trkpt lat="42.9356" lon="0.32274">
        <ele>1608.9</ele>
        <time>2018-01-09T10:51:47Z</time>
      </trkpt>
      <trkpt lat="42.93551" lon="0.32268">
        <ele>1609.86</ele>
        <time>2018-01-09T10:51:57Z</time>
      </trkpt>
      <trkpt lat="42.9354" lon="0.32262">
        <ele>1610.35</ele>
        <time>2018-01-09T10:52:08Z</time>
      </trkpt>
      <trkpt lat="42.93532" lon="0.32254">
        <ele>1610.35</ele>
        <time>2018-01-09T10:52:17Z</time>
      </trkpt>
      <trkpt lat="42.93523" lon="0.32245">
        <ele>1610.83</ele>
        <time>2018-01-09T10:52:27Z</time>
      </trkpt>
      <trkpt lat="42.93514" lon="0.32236">
        <ele>1610.35</ele>
        <time>2018-01-09T10:52:37Z</time>
      </trkpt>
      <trkpt lat="42.93504" lon="0.3223">
        <ele>1610.35</ele>
        <time>2018-01-09T10:52:46Z</time>
      </trkpt>
      <trkpt lat="42.93494" lon="0.32224">
        <ele>1611.79</ele>
        <time>2018-01-09T10:52:56Z</time>
      </trkpt>
      <trkpt lat="42.93483" lon="0.32221">
        <ele>1612.75</ele>
        <time>2018-01-09T10:53:07Z</time>
      </trkpt>
      <trkpt lat="42.93469" lon="0.32215">
        <ele>1614.19</ele>
        <time>2018-01-09T10:53:22Z</time>
      </trkpt>
      <trkpt lat="42.93459" lon="0.32207">
        <ele>1615.15</ele>
        <time>2018-01-09T10:53:33Z</time>
      </trkpt>
      <trkpt lat="42.9345" lon="0.32199">
        <ele>1616.11</ele>
        <time>2018-01-09T10:53:43Z</time>
      </trkpt>
      <trkpt lat="42.93441" lon="0.3219">
        <ele>1616.59</ele>
        <time>2018-01-09T10:53:53Z</time>
      </trkpt>
      <trkpt lat="42.93433" lon="0.32183">
        <ele>1617.07</ele>
        <time>2018-01-09T10:54:02Z</time>
      </trkpt>
      <trkpt lat="42.93424" lon="0.32177">
        <ele>1617.07</ele>
        <time>2018-01-09T10:54:12Z</time>
      </trkpt>
      <trkpt lat="42.93414" lon="0.32169">
        <ele>1617.07</ele>
        <time>2018-01-09T10:54:22Z</time>
      </trkpt>
      <trkpt lat="42.93406" lon="0.32161">
        <ele>1617.56</ele>
        <time>2018-01-09T10:54:31Z</time>
      </trkpt>
      <trkpt lat="42.93398" lon="0.32152">
        <ele>1618.04</ele>
        <time>2018-01-09T10:54:41Z</time>
      </trkpt>
      <trkpt lat="42.93391" lon="0.32144">
        <ele>1617.56</ele>
        <time>2018-01-09T10:54:50Z</time>
      </trkpt>
      <trkpt lat="42.93387" lon="0.3213">
        <ele>1616.59</ele>
        <time>2018-01-09T10:55:00Z</time>
      </trkpt>
      <trkpt lat="42.93382" lon="0.32117">
        <ele>1615.63</ele>
        <time>2018-01-09T10:55:10Z</time>
      </trkpt>
      <trkpt lat="42.93373" lon="0.32108">
        <ele>1615.63</ele>
        <time>2018-01-09T10:55:20Z</time>
      </trkpt>
      <trkpt lat="42.93363" lon="0.32101">
        <ele>1615.63</ele>
        <time>2018-01-09T10:55:30Z</time>
      </trkpt>
      <trkpt lat="42.93355" lon="0.32093">
        <ele>1615.63</ele>
        <time>2018-01-09T10:55:40Z</time>
      </trkpt>
      <trkpt lat="42.93348" lon="0.32081">
        <ele>1616.11</ele>
        <time>2018-01-09T10:55:51Z</time>
      </trkpt>
      <trkpt lat="42.93339" lon="0.32073">
        <ele>1616.11</ele>
        <time>2018-01-09T10:56:01Z</time>
      </trkpt>
      <trkpt lat="42.9333" lon="0.32066">
        <ele>1616.11</ele>
        <time>2018-01-09T10:56:11Z</time>
      </trkpt>
      <trkpt lat="42.93325" lon="0.32059">
        <ele>1616.11</ele>
        <time>2018-01-09T10:57:34Z</time>
      </trkpt>
      <trkpt lat="42.93321" lon="0.32065">
        <ele>1617.56</ele>
        <time>2018-01-09T10:58:30Z</time>
      </trkpt>
      <trkpt lat="42.93312" lon="0.32063">
        <ele>1620.44</ele>
        <time>2018-01-09T10:58:45Z</time>
      </trkpt>
      <trkpt lat="42.93314" lon="0.32075">
        <ele>1623.8</ele>
        <time>2018-01-09T10:59:04Z</time>
      </trkpt>
      <trkpt lat="42.93314" lon="0.32087">
        <ele>1627.17</ele>
        <time>2018-01-09T10:59:26Z</time>
      </trkpt>
      <trkpt lat="42.93303" lon="0.32094">
        <ele>1630.05</ele>
        <time>2018-01-09T10:59:48Z</time>
      </trkpt>
      <trkpt lat="42.93303" lon="0.32104">
        <ele>1632.46</ele>
        <time>2018-01-09T11:00:09Z</time>
      </trkpt>
      <trkpt lat="42.93293" lon="0.32107">
        <ele>1633.9</ele>
        <time>2018-01-09T11:00:28Z</time>
      </trkpt>
      <trkpt lat="42.93284" lon="0.32109">
        <ele>1636.3</ele>
        <time>2018-01-09T11:00:43Z</time>
      </trkpt>
      <trkpt lat="42.93282" lon="0.32119">
        <ele>1637.74</ele>
        <time>2018-01-09T11:00:58Z</time>
      </trkpt>
      <trkpt lat="42.93276" lon="0.32125">
        <ele>1639.67</ele>
        <time>2018-01-09T11:01:20Z</time>
      </trkpt>
      <trkpt lat="42.93267" lon="0.32134">
        <ele>1642.07</ele>
        <time>2018-01-09T11:01:38Z</time>
      </trkpt>
      <trkpt lat="42.93258" lon="0.32137">
        <ele>1641.59</ele>
        <time>2018-01-09T11:01:50Z</time>
      </trkpt>
      <trkpt lat="42.93248" lon="0.32136">
        <ele>1641.59</ele>
        <time>2018-01-09T11:02:02Z</time>
      </trkpt>
      <trkpt lat="42.93241" lon="0.32129">
        <ele>1645.43</ele>
        <time>2018-01-09T11:02:24Z</time>
      </trkpt>
      <trkpt lat="42.93234" lon="0.32124">
        <ele>1645.91</ele>
        <time>2018-01-09T11:03:10Z</time>
      </trkpt>
      <trkpt lat="42.93224" lon="0.32122">
        <ele>1646.4</ele>
        <time>2018-01-09T11:03:22Z</time>
      </trkpt>
      <trkpt lat="42.93221" lon="0.32119">
        <ele>1643.03</ele>
        <time>2018-01-09T11:04:12Z</time>
      </trkpt>
      <trkpt lat="42.93212" lon="0.32115">
        <ele>1642.55</ele>
        <time>2018-01-09T11:04:22Z</time>
      </trkpt>
      <trkpt lat="42.93204" lon="0.3211">
        <ele>1642.55</ele>
        <time>2018-01-09T11:04:31Z</time>
      </trkpt>
      <trkpt lat="42.93195" lon="0.32106">
        <ele>1642.07</ele>
        <time>2018-01-09T11:04:40Z</time>
      </trkpt>
      <trkpt lat="42.93186" lon="0.32103">
        <ele>1640.15</ele>
        <time>2018-01-09T11:04:49Z</time>
      </trkpt>
      <trkpt lat="42.93176" lon="0.32099">
        <ele>1639.19</ele>
        <time>2018-01-09T11:04:59Z</time>
      </trkpt>
      <trkpt lat="42.93166" lon="0.32096">
        <ele>1637.74</ele>
        <time>2018-01-09T11:05:07Z</time>
      </trkpt>
      <trkpt lat="42.93157" lon="0.32094">
        <ele>1633.42</ele>
        <time>2018-01-09T11:05:16Z</time>
      </trkpt>
      <trkpt lat="42.93147" lon="0.32092">
        <ele>1631.49</ele>
        <time>2018-01-09T11:05:24Z</time>
      </trkpt>
      <trkpt lat="42.93138" lon="0.32089">
        <ele>1631.01</ele>
        <time>2018-01-09T11:05:33Z</time>
      </trkpt>
      <trkpt lat="42.93129" lon="0.32086">
        <ele>1629.09</ele>
        <time>2018-01-09T11:05:50Z</time>
      </trkpt>
      <trkpt lat="42.9312" lon="0.32082">
        <ele>1627.17</ele>
        <time>2018-01-09T11:06:03Z</time>
      </trkpt>
      <trkpt lat="42.93112" lon="0.32077">
        <ele>1626.69</ele>
        <time>2018-01-09T11:06:11Z</time>
      </trkpt>
      <trkpt lat="42.93104" lon="0.32072">
        <ele>1627.17</ele>
        <time>2018-01-09T11:06:19Z</time>
      </trkpt>
      <trkpt lat="42.93095" lon="0.32065">
        <ele>1626.21</ele>
        <time>2018-01-09T11:06:28Z</time>
      </trkpt>
      <trkpt lat="42.93086" lon="0.32059">
        <ele>1626.21</ele>
        <time>2018-01-09T11:06:37Z</time>
      </trkpt>
      <trkpt lat="42.93078" lon="0.32053">
        <ele>1625.25</ele>
        <time>2018-01-09T11:06:45Z</time>
      </trkpt>
      <trkpt lat="42.9307" lon="0.32048">
        <ele>1624.28</ele>
        <time>2018-01-09T11:06:53Z</time>
      </trkpt>
      <trkpt lat="42.93062" lon="0.32043">
        <ele>1621.88</ele>
        <time>2018-01-09T11:07:03Z</time>
      </trkpt>
      <trkpt lat="42.93054" lon="0.32038">
        <ele>1621.88</ele>
        <time>2018-01-09T11:07:12Z</time>
      </trkpt>
      <trkpt lat="42.93047" lon="0.32031">
        <ele>1619.96</ele>
        <time>2018-01-09T11:07:22Z</time>
      </trkpt>
      <trkpt lat="42.93039" lon="0.32024">
        <ele>1619.48</ele>
        <time>2018-01-09T11:07:31Z</time>
      </trkpt>
      <trkpt lat="42.93031" lon="0.32018">
        <ele>1618.04</ele>
        <time>2018-01-09T11:07:43Z</time>
      </trkpt>
      <trkpt lat="42.93026" lon="0.32008">
        <ele>1615.63</ele>
        <time>2018-01-09T11:07:53Z</time>
      </trkpt>
      <trkpt lat="42.93019" lon="0.31999">
        <ele>1614.67</ele>
        <time>2018-01-09T11:08:02Z</time>
      </trkpt>
      <trkpt lat="42.93013" lon="0.31989">
        <ele>1614.67</ele>
        <time>2018-01-09T11:08:12Z</time>
      </trkpt>
      <trkpt lat="42.93006" lon="0.31981">
        <ele>1614.19</ele>
        <time>2018-01-09T11:08:23Z</time>
      </trkpt>
      <trkpt lat="42.93001" lon="0.3197">
        <ele>1615.15</ele>
        <time>2018-01-09T11:08:33Z</time>
      </trkpt>
      <trkpt lat="42.92996" lon="0.31961">
        <ele>1614.19</ele>
        <time>2018-01-09T11:08:42Z</time>
      </trkpt>
      <trkpt lat="42.9299" lon="0.3195">
        <ele>1613.71</ele>
        <time>2018-01-09T11:08:51Z</time>
      </trkpt>
      <trkpt lat="42.92983" lon="0.31941">
        <ele>1613.23</ele>
        <time>2018-01-09T11:09:00Z</time>
      </trkpt>
      <trkpt lat="42.92975" lon="0.31933">
        <ele>1613.23</ele>
        <time>2018-01-09T11:09:10Z</time>
      </trkpt>
      <trkpt lat="42.92971" lon="0.31922">
        <ele>1612.27</ele>
        <time>2018-01-09T11:09:20Z</time>
      </trkpt>
      <trkpt lat="42.92966" lon="0.31908">
        <ele>1612.27</ele>
        <time>2018-01-09T11:09:33Z</time>
      </trkpt>
      <trkpt lat="42.92961" lon="0.31897">
        <ele>1612.75</ele>
        <time>2018-01-09T11:09:42Z</time>
      </trkpt>
      <trkpt lat="42.92954" lon="0.31888">
        <ele>1613.23</ele>
        <time>2018-01-09T11:09:53Z</time>
      </trkpt>
      <trkpt lat="42.92944" lon="0.31882">
        <ele>1613.71</ele>
        <time>2018-01-09T11:10:04Z</time>
      </trkpt>
      <trkpt lat="42.92934" lon="0.31878">
        <ele>1614.67</ele>
        <time>2018-01-09T11:10:17Z</time>
      </trkpt>
      <trkpt lat="42.92925" lon="0.3188">
        <ele>1615.63</ele>
        <time>2018-01-09T11:10:27Z</time>
      </trkpt>
      <trkpt lat="42.92916" lon="0.31875">
        <ele>1615.15</ele>
        <time>2018-01-09T11:10:38Z</time>
      </trkpt>
      <trkpt lat="42.92907" lon="0.31869">
        <ele>1613.71</ele>
        <time>2018-01-09T11:10:49Z</time>
      </trkpt>
      <trkpt lat="42.92899" lon="0.31861">
        <ele>1612.27</ele>
        <time>2018-01-09T11:10:59Z</time>
      </trkpt>
      <trkpt lat="42.92893" lon="0.31849">
        <ele>1613.71</ele>
        <time>2018-01-09T11:11:10Z</time>
      </trkpt>
      <trkpt lat="42.92883" lon="0.31842">
        <ele>1613.23</ele>
        <time>2018-01-09T11:11:22Z</time>
      </trkpt>
      <trkpt lat="42.92877" lon="0.31833">
        <ele>1616.11</ele>
        <time>2018-01-09T11:11:35Z</time>
      </trkpt>
      <trkpt lat="42.92872" lon="0.31824">
        <ele>1616.59</ele>
        <time>2018-01-09T11:11:47Z</time>
      </trkpt>
      <trkpt lat="42.92866" lon="0.31814">
        <ele>1618.52</ele>
        <time>2018-01-09T11:12:02Z</time>
      </trkpt>
      <trkpt lat="42.92858" lon="0.31806">
        <ele>1619.96</ele>
        <time>2018-01-09T11:12:15Z</time>
      </trkpt>
      <trkpt lat="42.92855" lon="0.31794">
        <ele>1619</ele>
        <time>2018-01-09T11:12:25Z</time>
      </trkpt>
      <trkpt lat="42.92848" lon="0.31784">
        <ele>1618.52</ele>
        <time>2018-01-09T11:12:35Z</time>
      </trkpt>
      <trkpt lat="42.92839" lon="0.31779">
        <ele>1618.04</ele>
        <time>2018-01-09T11:12:45Z</time>
      </trkpt>
      <trkpt lat="42.92829" lon="0.31777">
        <ele>1619</ele>
        <time>2018-01-09T11:12:56Z</time>
      </trkpt>
      <trkpt lat="42.9282" lon="0.31772">
        <ele>1618.52</ele>
        <time>2018-01-09T11:13:06Z</time>
      </trkpt>
      <trkpt lat="42.92811" lon="0.31766">
        <ele>1617.56</ele>
        <time>2018-01-09T11:13:16Z</time>
      </trkpt>
      <trkpt lat="42.92802" lon="0.31762">
        <ele>1616.59</ele>
        <time>2018-01-09T11:13:25Z</time>
      </trkpt>
      <trkpt lat="42.92792" lon="0.31759">
        <ele>1616.59</ele>
        <time>2018-01-09T11:13:35Z</time>
      </trkpt>
      <trkpt lat="42.92782" lon="0.31755">
        <ele>1616.11</ele>
        <time>2018-01-09T11:13:44Z</time>
      </trkpt>
      <trkpt lat="42.92772" lon="0.31752">
        <ele>1614.67</ele>
        <time>2018-01-09T11:13:54Z</time>
      </trkpt>
      <trkpt lat="42.92764" lon="0.31747">
        <ele>1612.75</ele>
        <time>2018-01-09T11:14:05Z</time>
      </trkpt>
      <trkpt lat="42.92756" lon="0.31745">
        <ele>1613.23</ele>
        <time>2018-01-09T11:14:15Z</time>
      </trkpt>
      <trkpt lat="42.92748" lon="0.31736">
        <ele>1611.79</ele>
        <time>2018-01-09T11:14:23Z</time>
      </trkpt>
      <trkpt lat="42.9274" lon="0.3173">
        <ele>1609.38</ele>
        <time>2018-01-09T11:14:31Z</time>
      </trkpt>
      <trkpt lat="42.9273" lon="0.31727">
        <ele>1609.86</ele>
        <time>2018-01-09T11:14:40Z</time>
      </trkpt>
      <trkpt lat="42.92721" lon="0.31722">
        <ele>1609.86</ele>
        <time>2018-01-09T11:14:48Z</time>
      </trkpt>
      <trkpt lat="42.92712" lon="0.31715">
        <ele>1608.42</ele>
        <time>2018-01-09T11:14:56Z</time>
      </trkpt>
      <trkpt lat="42.92703" lon="0.31711">
        <ele>1608.42</ele>
        <time>2018-01-09T11:15:04Z</time>
      </trkpt>
      <trkpt lat="42.92695" lon="0.31705">
        <ele>1608.9</ele>
        <time>2018-01-09T11:15:12Z</time>
      </trkpt>
      <trkpt lat="42.92686" lon="0.31698">
        <ele>1610.35</ele>
        <time>2018-01-09T11:15:21Z</time>
      </trkpt>
      <trkpt lat="42.92677" lon="0.31694">
        <ele>1611.31</ele>
        <time>2018-01-09T11:15:33Z</time>
      </trkpt>
      <trkpt lat="42.92666" lon="0.31691">
        <ele>1613.23</ele>
        <time>2018-01-09T11:15:47Z</time>
      </trkpt>
      <trkpt lat="42.92658" lon="0.31687">
        <ele>1615.63</ele>
        <time>2018-01-09T11:16:06Z</time>
      </trkpt>
      <trkpt lat="42.92648" lon="0.31683">
        <ele>1616.11</ele>
        <time>2018-01-09T11:16:19Z</time>
      </trkpt>
      <trkpt lat="42.92637" lon="0.31681">
        <ele>1617.56</ele>
        <time>2018-01-09T11:16:30Z</time>
      </trkpt>
      <trkpt lat="42.92627" lon="0.31677">
        <ele>1618.04</ele>
        <time>2018-01-09T11:16:41Z</time>
      </trkpt>
      <trkpt lat="42.92623" lon="0.31664">
        <ele>1619</ele>
        <time>2018-01-09T11:16:52Z</time>
      </trkpt>
      <trkpt lat="42.92616" lon="0.31654">
        <ele>1619.48</ele>
        <time>2018-01-09T11:17:02Z</time>
      </trkpt>
      <trkpt lat="42.92605" lon="0.31653">
        <ele>1620.92</ele>
        <time>2018-01-09T11:17:15Z</time>
      </trkpt>
      <trkpt lat="42.92596" lon="0.31655">
        <ele>1623.32</ele>
        <time>2018-01-09T11:17:30Z</time>
      </trkpt>
      <trkpt lat="42.92586" lon="0.31656">
        <ele>1625.73</ele>
        <time>2018-01-09T11:17:45Z</time>
      </trkpt>
      <trkpt lat="42.92577" lon="0.31652">
        <ele>1628.13</ele>
        <time>2018-01-09T11:18:00Z</time>
      </trkpt>
      <trkpt lat="42.92569" lon="0.31646">
        <ele>1630.05</ele>
        <time>2018-01-09T11:18:13Z</time>
      </trkpt>
      <trkpt lat="42.9256" lon="0.31639">
        <ele>1633.42</ele>
        <time>2018-01-09T11:18:29Z</time>
      </trkpt>
      <trkpt lat="42.92552" lon="0.31635">
        <ele>1635.34</ele>
        <time>2018-01-09T11:18:46Z</time>
      </trkpt>
      <trkpt lat="42.92544" lon="0.3163">
        <ele>1637.26</ele>
        <time>2018-01-09T11:19:02Z</time>
      </trkpt>
      <trkpt lat="42.92537" lon="0.31621">
        <ele>1637.74</ele>
        <time>2018-01-09T11:19:12Z</time>
      </trkpt>
      <trkpt lat="42.9253" lon="0.31614">
        <ele>1638.7</ele>
        <time>2018-01-09T11:19:22Z</time>
      </trkpt>
      <trkpt lat="42.92523" lon="0.31606">
        <ele>1639.19</ele>
        <time>2018-01-09T11:19:32Z</time>
      </trkpt>
      <trkpt lat="42.92515" lon="0.31602">
        <ele>1640.63</ele>
        <time>2018-01-09T11:19:42Z</time>
      </trkpt>
      <trkpt lat="42.92509" lon="0.31592">
        <ele>1641.59</ele>
        <time>2018-01-09T11:19:52Z</time>
      </trkpt>
      <trkpt lat="42.92502" lon="0.31583">
        <ele>1642.55</ele>
        <time>2018-01-09T11:20:03Z</time>
      </trkpt>
      <trkpt lat="42.92496" lon="0.31573">
        <ele>1644.95</ele>
        <time>2018-01-09T11:20:16Z</time>
      </trkpt>
      <trkpt lat="42.92488" lon="0.31567">
        <ele>1646.88</ele>
        <time>2018-01-09T11:20:47Z</time>
      </trkpt>
      <trkpt lat="42.92484" lon="0.31557">
        <ele>1649.28</ele>
        <time>2018-01-09T11:21:04Z</time>
      </trkpt>
      <trkpt lat="42.92476" lon="0.31553">
        <ele>1652.16</ele>
        <time>2018-01-09T11:21:26Z</time>
      </trkpt>
      <trkpt lat="42.92472" lon="0.31544">
        <ele>1652.16</ele>
        <time>2018-01-09T11:21:51Z</time>
      </trkpt>
      <trkpt lat="42.92463" lon="0.31538">
        <ele>1650.24</ele>
        <time>2018-01-09T11:21:59Z</time>
      </trkpt>
      <trkpt lat="42.92456" lon="0.31529">
        <ele>1650.24</ele>
        <time>2018-01-09T11:22:09Z</time>
      </trkpt>
      <trkpt lat="42.92449" lon="0.3152">
        <ele>1650.72</ele>
        <time>2018-01-09T11:22:20Z</time>
      </trkpt>
      <trkpt lat="42.92441" lon="0.31516">
        <ele>1651.68</ele>
        <time>2018-01-09T11:22:32Z</time>
      </trkpt>
      <trkpt lat="42.92434" lon="0.31511">
        <ele>1654.09</ele>
        <time>2018-01-09T11:22:46Z</time>
      </trkpt>
      <trkpt lat="42.92425" lon="0.31506">
        <ele>1655.05</ele>
        <time>2018-01-09T11:23:00Z</time>
      </trkpt>
      <trkpt lat="42.92417" lon="0.31502">
        <ele>1657.93</ele>
        <time>2018-01-09T11:23:16Z</time>
      </trkpt>
      <trkpt lat="42.92411" lon="0.31494">
        <ele>1660.81</ele>
        <time>2018-01-09T11:23:31Z</time>
      </trkpt>
      <trkpt lat="42.92405" lon="0.31485">
        <ele>1661.78</ele>
        <time>2018-01-09T11:23:43Z</time>
      </trkpt>
      <trkpt lat="42.92397" lon="0.31481">
        <ele>1664.18</ele>
        <time>2018-01-09T11:24:01Z</time>
      </trkpt>
      <trkpt lat="42.92388" lon="0.31481">
        <ele>1667.06</ele>
        <time>2018-01-09T11:24:20Z</time>
      </trkpt>
      <trkpt lat="42.92381" lon="0.31491">
        <ele>1668.51</ele>
        <time>2018-01-09T11:24:39Z</time>
      </trkpt>
      <trkpt lat="42.92373" lon="0.31494">
        <ele>1672.83</ele>
        <time>2018-01-09T11:25:02Z</time>
      </trkpt>
      <trkpt lat="42.92362" lon="0.31494">
        <ele>1676.68</ele>
        <time>2018-01-09T11:25:31Z</time>
      </trkpt>
      <trkpt lat="42.92354" lon="0.31497">
        <ele>1681</ele>
        <time>2018-01-09T11:26:02Z</time>
      </trkpt>
      <trkpt lat="42.92345" lon="0.31497">
        <ele>1683.89</ele>
        <time>2018-01-09T11:26:22Z</time>
      </trkpt>
      <trkpt lat="42.92337" lon="0.31495">
        <ele>1687.73</ele>
        <time>2018-01-09T11:26:42Z</time>
      </trkpt>
      <trkpt lat="42.9233" lon="0.31493">
        <ele>1690.14</ele>
        <time>2018-01-09T11:27:03Z</time>
      </trkpt>
      <trkpt lat="42.92322" lon="0.31493">
        <ele>1693.02</ele>
        <time>2018-01-09T11:27:22Z</time>
      </trkpt>
      <trkpt lat="42.92314" lon="0.31489">
        <ele>1695.9</ele>
        <time>2018-01-09T11:27:38Z</time>
      </trkpt>
      <trkpt lat="42.92305" lon="0.31487">
        <ele>1698.79</ele>
        <time>2018-01-09T11:27:54Z</time>
      </trkpt>
      <trkpt lat="42.92297" lon="0.31484">
        <ele>1701.19</ele>
        <time>2018-01-09T11:28:10Z</time>
      </trkpt>
      <trkpt lat="42.92288" lon="0.31482">
        <ele>1705.04</ele>
        <time>2018-01-09T11:28:29Z</time>
      </trkpt>
      <trkpt lat="42.9228" lon="0.31477">
        <ele>1706.96</ele>
        <time>2018-01-09T11:28:47Z</time>
      </trkpt>
      <trkpt lat="42.92273" lon="0.31475">
        <ele>1706.48</ele>
        <time>2018-01-09T11:29:55Z</time>
      </trkpt>
      <trkpt lat="42.92264" lon="0.31473">
        <ele>1707.44</ele>
        <time>2018-01-09T11:30:04Z</time>
      </trkpt>
      <trkpt lat="42.92258" lon="0.31469">
        <ele>1706.48</ele>
        <time>2018-01-09T11:32:46Z</time>
      </trkpt>
      <trkpt lat="42.92253" lon="0.31463">
        <ele>1707.44</ele>
        <time>2018-01-09T11:33:14Z</time>
      </trkpt>
      <trkpt lat="42.92245" lon="0.31455">
        <ele>1708.88</ele>
        <time>2018-01-09T11:33:29Z</time>
      </trkpt>
      <trkpt lat="42.92238" lon="0.31447">
        <ele>1709.36</ele>
        <time>2018-01-09T11:33:40Z</time>
      </trkpt>
      <trkpt lat="42.92231" lon="0.3144">
        <ele>1711.76</ele>
        <time>2018-01-09T11:33:52Z</time>
      </trkpt>
      <trkpt lat="42.92223" lon="0.31433">
        <ele>1714.65</ele>
        <time>2018-01-09T11:34:07Z</time>
      </trkpt>
      <trkpt lat="42.92218" lon="0.31426">
        <ele>1716.57</ele>
        <time>2018-01-09T11:34:23Z</time>
      </trkpt>
      <trkpt lat="42.92212" lon="0.31419">
        <ele>1718.97</ele>
        <time>2018-01-09T11:34:43Z</time>
      </trkpt>
      <trkpt lat="42.92208" lon="0.31406">
        <ele>1721.38</ele>
        <time>2018-01-09T11:35:04Z</time>
      </trkpt>
      <trkpt lat="42.92202" lon="0.31398">
        <ele>1724.74</ele>
        <time>2018-01-09T11:35:23Z</time>
      </trkpt>
      <trkpt lat="42.92194" lon="0.31403">
        <ele>1726.18</ele>
        <time>2018-01-09T11:35:40Z</time>
      </trkpt>
      <trkpt lat="42.92186" lon="0.31408">
        <ele>1730.51</ele>
        <time>2018-01-09T11:35:53Z</time>
      </trkpt>
      <trkpt lat="42.92177" lon="0.3141">
        <ele>1731.47</ele>
        <time>2018-01-09T11:36:08Z</time>
      </trkpt>
      <trkpt lat="42.92168" lon="0.31408">
        <ele>1732.91</ele>
        <time>2018-01-09T11:36:24Z</time>
      </trkpt>
      <trkpt lat="42.92159" lon="0.31408">
        <ele>1735.8</ele>
        <time>2018-01-09T11:36:37Z</time>
      </trkpt>
      <trkpt lat="42.9215" lon="0.31403">
        <ele>1737.72</ele>
        <time>2018-01-09T11:36:49Z</time>
      </trkpt>
      <trkpt lat="42.92142" lon="0.31398">
        <ele>1737.72</ele>
        <time>2018-01-09T11:36:59Z</time>
      </trkpt>
      <trkpt lat="42.92133" lon="0.31395">
        <ele>1738.68</ele>
        <time>2018-01-09T11:37:11Z</time>
      </trkpt>
      <trkpt lat="42.92123" lon="0.31392">
        <ele>1740.6</ele>
        <time>2018-01-09T11:37:25Z</time>
      </trkpt>
      <trkpt lat="42.92115" lon="0.31387">
        <ele>1742.53</ele>
        <time>2018-01-09T11:37:37Z</time>
      </trkpt>
      <trkpt lat="42.92106" lon="0.31387">
        <ele>1743.01</ele>
        <time>2018-01-09T11:37:49Z</time>
      </trkpt>
      <trkpt lat="42.92098" lon="0.3138">
        <ele>1745.41</ele>
        <time>2018-01-09T11:38:00Z</time>
      </trkpt>
      <trkpt lat="42.92089" lon="0.31377">
        <ele>1745.41</ele>
        <time>2018-01-09T11:38:11Z</time>
      </trkpt>
      <trkpt lat="42.92081" lon="0.31374">
        <ele>1746.37</ele>
        <time>2018-01-09T11:38:22Z</time>
      </trkpt>
      <trkpt lat="42.92072" lon="0.31371">
        <ele>1747.81</ele>
        <time>2018-01-09T11:38:33Z</time>
      </trkpt>
      <trkpt lat="42.92064" lon="0.31368">
        <ele>1749.74</ele>
        <time>2018-01-09T11:38:50Z</time>
      </trkpt>
      <trkpt lat="42.92054" lon="0.31366">
        <ele>1753.1</ele>
        <time>2018-01-09T11:39:04Z</time>
      </trkpt>
      <trkpt lat="42.92045" lon="0.31362">
        <ele>1753.1</ele>
        <time>2018-01-09T11:39:16Z</time>
      </trkpt>
      <trkpt lat="42.92036" lon="0.3136">
        <ele>1753.1</ele>
        <time>2018-01-09T11:39:27Z</time>
      </trkpt>
      <trkpt lat="42.92026" lon="0.31358">
        <ele>1754.54</ele>
        <time>2018-01-09T11:39:41Z</time>
      </trkpt>
      <trkpt lat="42.92017" lon="0.31358">
        <ele>1755.5</ele>
        <time>2018-01-09T11:39:58Z</time>
      </trkpt>
      <trkpt lat="42.9201" lon="0.3136">
        <ele>1753.1</ele>
        <time>2018-01-09T11:40:41Z</time>
      </trkpt>
      <trkpt lat="42.92001" lon="0.31362">
        <ele>1759.35</ele>
        <time>2018-01-09T11:41:28Z</time>
      </trkpt>
      <trkpt lat="42.91991" lon="0.31361">
        <ele>1758.87</ele>
        <time>2018-01-09T11:41:38Z</time>
      </trkpt>
      <trkpt lat="42.91982" lon="0.3136">
        <ele>1758.39</ele>
        <time>2018-01-09T11:41:48Z</time>
      </trkpt>
      <trkpt lat="42.91973" lon="0.31359">
        <ele>1756.95</ele>
        <time>2018-01-09T11:41:57Z</time>
      </trkpt>
      <trkpt lat="42.91963" lon="0.31359">
        <ele>1757.91</ele>
        <time>2018-01-09T11:42:07Z</time>
      </trkpt>
      <trkpt lat="42.91953" lon="0.31358">
        <ele>1757.43</ele>
        <time>2018-01-09T11:42:16Z</time>
      </trkpt>
      <trkpt lat="42.91944" lon="0.31357">
        <ele>1758.39</ele>
        <time>2018-01-09T11:42:26Z</time>
      </trkpt>
      <trkpt lat="42.91935" lon="0.31358">
        <ele>1756.95</ele>
        <time>2018-01-09T11:42:37Z</time>
      </trkpt>
      <trkpt lat="42.91926" lon="0.31354">
        <ele>1756.95</ele>
        <time>2018-01-09T11:42:46Z</time>
      </trkpt>
      <trkpt lat="42.91916" lon="0.31353">
        <ele>1756.47</ele>
        <time>2018-01-09T11:42:55Z</time>
      </trkpt>
      <trkpt lat="42.91907" lon="0.31349">
        <ele>1757.43</ele>
        <time>2018-01-09T11:43:04Z</time>
      </trkpt>
      <trkpt lat="42.91898" lon="0.31348">
        <ele>1755.02</ele>
        <time>2018-01-09T11:43:13Z</time>
      </trkpt>
      <trkpt lat="42.91889" lon="0.31345">
        <ele>1753.58</ele>
        <time>2018-01-09T11:43:22Z</time>
      </trkpt>
      <trkpt lat="42.9188" lon="0.31342">
        <ele>1750.7</ele>
        <time>2018-01-09T11:43:40Z</time>
      </trkpt>
      <trkpt lat="42.91871" lon="0.31339">
        <ele>1746.37</ele>
        <time>2018-01-09T11:43:50Z</time>
      </trkpt>
      <trkpt lat="42.91863" lon="0.31333">
        <ele>1750.22</ele>
        <time>2018-01-09T11:44:01Z</time>
      </trkpt>
      <trkpt lat="42.91854" lon="0.3133">
        <ele>1746.85</ele>
        <time>2018-01-09T11:44:12Z</time>
      </trkpt>
      <trkpt lat="42.91845" lon="0.31325">
        <ele>1744.45</ele>
        <time>2018-01-09T11:44:20Z</time>
      </trkpt>
      <trkpt lat="42.91838" lon="0.3132">
        <ele>1743.49</ele>
        <time>2018-01-09T11:44:28Z</time>
      </trkpt>
      <trkpt lat="42.9183" lon="0.31314">
        <ele>1742.53</ele>
        <time>2018-01-09T11:44:37Z</time>
      </trkpt>
      <trkpt lat="42.91822" lon="0.31309">
        <ele>1739.16</ele>
        <time>2018-01-09T11:44:54Z</time>
      </trkpt>
      <trkpt lat="42.91813" lon="0.31305">
        <ele>1737.24</ele>
        <time>2018-01-09T11:45:06Z</time>
      </trkpt>
      <trkpt lat="42.91803" lon="0.31302">
        <ele>1734.36</ele>
        <time>2018-01-09T11:45:18Z</time>
      </trkpt>
      <trkpt lat="42.91794" lon="0.31298">
        <ele>1728.11</ele>
        <time>2018-01-09T11:45:30Z</time>
      </trkpt>
      <trkpt lat="42.91785" lon="0.31296">
        <ele>1722.82</ele>
        <time>2018-01-09T11:45:42Z</time>
      </trkpt>
      <trkpt lat="42.91777" lon="0.3129">
        <ele>1719.46</ele>
        <time>2018-01-09T11:45:53Z</time>
      </trkpt>
      <trkpt lat="42.91769" lon="0.31283">
        <ele>1715.13</ele>
        <time>2018-01-09T11:46:06Z</time>
      </trkpt>
      <trkpt lat="42.91761" lon="0.31277">
        <ele>1712.25</ele>
        <time>2018-01-09T11:46:18Z</time>
      </trkpt>
      <trkpt lat="42.91753" lon="0.31274">
        <ele>1708.88</ele>
        <time>2018-01-09T11:46:31Z</time>
      </trkpt>
      <trkpt lat="42.91745" lon="0.31269">
        <ele>1704.07</ele>
        <time>2018-01-09T11:46:44Z</time>
      </trkpt>
      <trkpt lat="42.91736" lon="0.31265">
        <ele>1700.23</ele>
        <time>2018-01-09T11:46:54Z</time>
      </trkpt>
      <trkpt lat="42.91728" lon="0.3126">
        <ele>1696.86</ele>
        <time>2018-01-09T11:47:05Z</time>
      </trkpt>
      <trkpt lat="42.91719" lon="0.31256">
        <ele>1693.98</ele>
        <time>2018-01-09T11:47:15Z</time>
      </trkpt>
      <trkpt lat="42.91711" lon="0.31252">
        <ele>1691.1</ele>
        <time>2018-01-09T11:47:25Z</time>
      </trkpt>
      <trkpt lat="42.91702" lon="0.31246">
        <ele>1687.73</ele>
        <time>2018-01-09T11:47:34Z</time>
      </trkpt>
      <trkpt lat="42.91694" lon="0.31241">
        <ele>1685.81</ele>
        <time>2018-01-09T11:47:44Z</time>
      </trkpt>
      <trkpt lat="42.91686" lon="0.31234">
        <ele>1683.41</ele>
        <time>2018-01-09T11:47:53Z</time>
      </trkpt>
      <trkpt lat="42.91677" lon="0.3123">
        <ele>1681</ele>
        <time>2018-01-09T11:48:03Z</time>
      </trkpt>
      <trkpt lat="42.91668" lon="0.31226">
        <ele>1678.6</ele>
        <time>2018-01-09T11:48:13Z</time>
      </trkpt>
      <trkpt lat="42.91659" lon="0.31221">
        <ele>1676.68</ele>
        <time>2018-01-09T11:48:22Z</time>
      </trkpt>
      <trkpt lat="42.91651" lon="0.31216">
        <ele>1674.27</ele>
        <time>2018-01-09T11:48:32Z</time>
      </trkpt>
      <trkpt lat="42.91643" lon="0.3121">
        <ele>1672.83</ele>
        <time>2018-01-09T11:48:43Z</time>
      </trkpt>
      <trkpt lat="42.91635" lon="0.31206">
        <ele>1669.47</ele>
        <time>2018-01-09T11:48:55Z</time>
      </trkpt>
      <trkpt lat="42.91626" lon="0.312">
        <ele>1667.54</ele>
        <time>2018-01-09T11:49:25Z</time>
      </trkpt>
      <trkpt lat="42.91618" lon="0.31195">
        <ele>1662.74</ele>
        <time>2018-01-09T11:49:36Z</time>
      </trkpt>
      <trkpt lat="42.91611" lon="0.31192">
        <ele>1663.22</ele>
        <time>2018-01-09T11:49:45Z</time>
      </trkpt>
      <trkpt lat="42.91602" lon="0.31186">
        <ele>1661.78</ele>
        <time>2018-01-09T11:49:57Z</time>
      </trkpt>
      <trkpt lat="42.91593" lon="0.31182">
        <ele>1658.89</ele>
        <time>2018-01-09T11:50:08Z</time>
      </trkpt>
      <trkpt lat="42.91586" lon="0.31173">
        <ele>1655.05</ele>
        <time>2018-01-09T11:50:19Z</time>
      </trkpt>
      <trkpt lat="42.91578" lon="0.31168">
        <ele>1652.16</ele>
        <time>2018-01-09T11:50:29Z</time>
      </trkpt>
      <trkpt lat="42.9157" lon="0.31163">
        <ele>1648.32</ele>
        <time>2018-01-09T11:50:40Z</time>
      </trkpt>
      <trkpt lat="42.91562" lon="0.31156">
        <ele>1644.95</ele>
        <time>2018-01-09T11:50:51Z</time>
      </trkpt>
      <trkpt lat="42.91554" lon="0.31153">
        <ele>1642.07</ele>
        <time>2018-01-09T11:51:01Z</time>
      </trkpt>
      <trkpt lat="42.91545" lon="0.31154">
        <ele>1638.22</ele>
        <time>2018-01-09T11:51:13Z</time>
      </trkpt>
      <trkpt lat="42.91537" lon="0.31148">
        <ele>1636.78</ele>
        <time>2018-01-09T11:51:23Z</time>
      </trkpt>
      <trkpt lat="42.91531" lon="0.3114">
        <ele>1634.86</ele>
        <time>2018-01-09T11:51:31Z</time>
      </trkpt>
      <trkpt lat="42.91522" lon="0.31132">
        <ele>1632.46</ele>
        <time>2018-01-09T11:51:40Z</time>
      </trkpt>
      <trkpt lat="42.91514" lon="0.31128">
        <ele>1630.05</ele>
        <time>2018-01-09T11:51:48Z</time>
      </trkpt>
      <trkpt lat="42.91505" lon="0.31124">
        <ele>1627.17</ele>
        <time>2018-01-09T11:51:56Z</time>
      </trkpt>
      <trkpt lat="42.91497" lon="0.31121">
        <ele>1624.77</ele>
        <time>2018-01-09T11:52:05Z</time>
      </trkpt>
      <trkpt lat="42.91488" lon="0.31118">
        <ele>1622.84</ele>
        <time>2018-01-09T11:52:15Z</time>
      </trkpt>
      <trkpt lat="42.91478" lon="0.3112">
        <ele>1620.92</ele>
        <time>2018-01-09T11:52:23Z</time>
      </trkpt>
      <trkpt lat="42.91468" lon="0.31119">
        <ele>1620.92</ele>
        <time>2018-01-09T11:52:32Z</time>
      </trkpt>
      <trkpt lat="42.91459" lon="0.31116">
        <ele>1621.4</ele>
        <time>2018-01-09T11:52:41Z</time>
      </trkpt>
      <trkpt lat="42.91451" lon="0.31113">
        <ele>1620.92</ele>
        <time>2018-01-09T11:52:49Z</time>
      </trkpt>
      <trkpt lat="42.91442" lon="0.31109">
        <ele>1620.44</ele>
        <time>2018-01-09T11:52:57Z</time>
      </trkpt>
      <trkpt lat="42.91433" lon="0.31107">
        <ele>1620.44</ele>
        <time>2018-01-09T11:53:05Z</time>
      </trkpt>
      <trkpt lat="42.91424" lon="0.31103">
        <ele>1619.96</ele>
        <time>2018-01-09T11:53:13Z</time>
      </trkpt>
      <trkpt lat="42.91416" lon="0.31096">
        <ele>1619.48</ele>
        <time>2018-01-09T11:53:21Z</time>
      </trkpt>
      <trkpt lat="42.91408" lon="0.3109">
        <ele>1619</ele>
        <time>2018-01-09T11:53:29Z</time>
      </trkpt>
      <trkpt lat="42.914" lon="0.31082">
        <ele>1617.56</ele>
        <time>2018-01-09T11:53:36Z</time>
      </trkpt>
      <trkpt lat="42.91392" lon="0.31076">
        <ele>1616.59</ele>
        <time>2018-01-09T11:53:44Z</time>
      </trkpt>
      <trkpt lat="42.91383" lon="0.31072">
        <ele>1615.15</ele>
        <time>2018-01-09T11:53:52Z</time>
      </trkpt>
      <trkpt lat="42.91375" lon="0.31078">
        <ele>1613.23</ele>
        <time>2018-01-09T11:54:02Z</time>
      </trkpt>
      <trkpt lat="42.91368" lon="0.31087">
        <ele>1610.83</ele>
        <time>2018-01-09T11:54:11Z</time>
      </trkpt>
      <trkpt lat="42.91359" lon="0.31089">
        <ele>1607.94</ele>
        <time>2018-01-09T11:54:19Z</time>
      </trkpt>
      <trkpt lat="42.9135" lon="0.31085">
        <ele>1606.98</ele>
        <time>2018-01-09T11:54:28Z</time>
      </trkpt>
      <trkpt lat="42.91341" lon="0.31078">
        <ele>1606.5</ele>
        <time>2018-01-09T11:54:37Z</time>
      </trkpt>
      <trkpt lat="42.91334" lon="0.31069">
        <ele>1606.5</ele>
        <time>2018-01-09T11:54:46Z</time>
      </trkpt>
      <trkpt lat="42.91327" lon="0.31061">
        <ele>1607.46</ele>
        <time>2018-01-09T11:54:55Z</time>
      </trkpt>
      <trkpt lat="42.91321" lon="0.31051">
        <ele>1607.46</ele>
        <time>2018-01-09T11:55:06Z</time>
      </trkpt>
      <trkpt lat="42.91314" lon="0.31043">
        <ele>1607.46</ele>
        <time>2018-01-09T11:55:15Z</time>
      </trkpt>
      <trkpt lat="42.91307" lon="0.31035">
        <ele>1608.9</ele>
        <time>2018-01-09T11:55:25Z</time>
      </trkpt>
      <trkpt lat="42.913" lon="0.31026">
        <ele>1610.35</ele>
        <time>2018-01-09T11:55:36Z</time>
      </trkpt>
      <trkpt lat="42.91293" lon="0.31017">
        <ele>1610.83</ele>
        <time>2018-01-09T11:55:47Z</time>
      </trkpt>
      <trkpt lat="42.9129" lon="0.31005">
        <ele>1609.38</ele>
        <time>2018-01-09T11:55:59Z</time>
      </trkpt>
      <trkpt lat="42.91287" lon="0.30993">
        <ele>1607.46</ele>
        <time>2018-01-09T11:56:10Z</time>
      </trkpt>
      <trkpt lat="42.91281" lon="0.30983">
        <ele>1606.02</ele>
        <time>2018-01-09T11:56:19Z</time>
      </trkpt>
      <trkpt lat="42.91272" lon="0.3098">
        <ele>1606.5</ele>
        <time>2018-01-09T11:56:28Z</time>
      </trkpt>
      <trkpt lat="42.91263" lon="0.30975">
        <ele>1606.02</ele>
        <time>2018-01-09T11:56:38Z</time>
      </trkpt>
      <trkpt lat="42.9126" lon="0.30963">
        <ele>1607.94</ele>
        <time>2018-01-09T11:56:50Z</time>
      </trkpt>
      <trkpt lat="42.91253" lon="0.30954">
        <ele>1607.94</ele>
        <time>2018-01-09T11:57:03Z</time>
      </trkpt>
      <trkpt lat="42.91246" lon="0.30948">
        <ele>1611.31</ele>
        <time>2018-01-09T11:57:30Z</time>
      </trkpt>
      <trkpt lat="42.91243" lon="0.30937">
        <ele>1615.15</ele>
        <time>2018-01-09T11:57:47Z</time>
      </trkpt>
      <trkpt lat="42.91235" lon="0.30931">
        <ele>1619</ele>
        <time>2018-01-09T11:58:04Z</time>
      </trkpt>
      <trkpt lat="42.91228" lon="0.30922">
        <ele>1621.88</ele>
        <time>2018-01-09T11:58:25Z</time>
      </trkpt>
      <trkpt lat="42.91222" lon="0.30915">
        <ele>1625.73</ele>
        <time>2018-01-09T11:58:46Z</time>
      </trkpt>
      <trkpt lat="42.91213" lon="0.30912">
        <ele>1629.09</ele>
        <time>2018-01-09T11:59:04Z</time>
      </trkpt>
      <trkpt lat="42.91204" lon="0.30907">
        <ele>1631.98</ele>
        <time>2018-01-09T11:59:20Z</time>
      </trkpt>
      <trkpt lat="42.91198" lon="0.30902">
        <ele>1635.34</ele>
        <time>2018-01-09T11:59:37Z</time>
      </trkpt>
      <trkpt lat="42.9119" lon="0.30896">
        <ele>1637.26</ele>
        <time>2018-01-09T11:59:53Z</time>
      </trkpt>
      <trkpt lat="42.91183" lon="0.3089">
        <ele>1639.67</ele>
        <time>2018-01-09T12:00:09Z</time>
      </trkpt>
      <trkpt lat="42.91178" lon="0.30881">
        <ele>1641.59</ele>
        <time>2018-01-09T12:00:28Z</time>
      </trkpt>
      <trkpt lat="42.9117" lon="0.30875">
        <ele>1643.03</ele>
        <time>2018-01-09T12:00:41Z</time>
      </trkpt>
      <trkpt lat="42.91161" lon="0.30873">
        <ele>1644.47</ele>
        <time>2018-01-09T12:00:54Z</time>
      </trkpt>
      <trkpt lat="42.91153" lon="0.30866">
        <ele>1645.43</ele>
        <time>2018-01-09T12:01:06Z</time>
      </trkpt>
      <trkpt lat="42.91146" lon="0.30859">
        <ele>1647.84</ele>
        <time>2018-01-09T12:01:19Z</time>
      </trkpt>
      <trkpt lat="42.91139" lon="0.30849">
        <ele>1649.28</ele>
        <time>2018-01-09T12:01:37Z</time>
      </trkpt>
      <trkpt lat="42.91132" lon="0.30846">
        <ele>1651.2</ele>
        <time>2018-01-09T12:02:09Z</time>
      </trkpt>
      <trkpt lat="42.91122" lon="0.30843">
        <ele>1652.16</ele>
        <time>2018-01-09T12:02:21Z</time>
      </trkpt>
      <trkpt lat="42.91112" lon="0.3084">
        <ele>1651.68</ele>
        <time>2018-01-09T12:02:31Z</time>
      </trkpt>
      <trkpt lat="42.91104" lon="0.30837">
        <ele>1653.12</ele>
        <time>2018-01-09T12:02:41Z</time>
      </trkpt>
      <trkpt lat="42.91094" lon="0.30833">
        <ele>1654.57</ele>
        <time>2018-01-09T12:02:52Z</time>
      </trkpt>
      <trkpt lat="42.91087" lon="0.30827">
        <ele>1656.01</ele>
        <time>2018-01-09T12:03:02Z</time>
      </trkpt>
      <trkpt lat="42.91078" lon="0.30822">
        <ele>1658.41</ele>
        <time>2018-01-09T12:03:15Z</time>
      </trkpt>
      <trkpt lat="42.91069" lon="0.30819">
        <ele>1659.37</ele>
        <time>2018-01-09T12:03:28Z</time>
      </trkpt>
      <trkpt lat="42.9106" lon="0.30821">
        <ele>1659.85</ele>
        <time>2018-01-09T12:03:40Z</time>
      </trkpt>
      <trkpt lat="42.91052" lon="0.30816">
        <ele>1661.3</ele>
        <time>2018-01-09T12:03:52Z</time>
      </trkpt>
      <trkpt lat="42.91043" lon="0.30813">
        <ele>1659.85</ele>
        <time>2018-01-09T12:04:10Z</time>
      </trkpt>
      <trkpt lat="42.91034" lon="0.30808">
        <ele>1659.37</ele>
        <time>2018-01-09T12:04:21Z</time>
      </trkpt>
      <trkpt lat="42.91027" lon="0.30802">
        <ele>1658.41</ele>
        <time>2018-01-09T12:04:28Z</time>
      </trkpt>
      <trkpt lat="42.91018" lon="0.30797">
        <ele>1655.05</ele>
        <time>2018-01-09T12:04:36Z</time>
      </trkpt>
      <trkpt lat="42.9101" lon="0.3079">
        <ele>1655.53</ele>
        <time>2018-01-09T12:04:43Z</time>
      </trkpt>
      <trkpt lat="42.91005" lon="0.30778">
        <ele>1654.09</ele>
        <time>2018-01-09T12:04:52Z</time>
      </trkpt>
      <trkpt lat="42.91" lon="0.3077">
        <ele>1650.24</ele>
        <time>2018-01-09T12:05:01Z</time>
      </trkpt>
      <trkpt lat="42.9099" lon="0.30769">
        <ele>1648.8</ele>
        <time>2018-01-09T12:05:10Z</time>
      </trkpt>
      <trkpt lat="42.90982" lon="0.30769">
        <ele>1646.88</ele>
        <time>2018-01-09T12:05:19Z</time>
      </trkpt>
      <trkpt lat="42.90972" lon="0.30766">
        <ele>1644.95</ele>
        <time>2018-01-09T12:05:29Z</time>
      </trkpt>
      <trkpt lat="42.90963" lon="0.30765">
        <ele>1643.03</ele>
        <time>2018-01-09T12:05:38Z</time>
      </trkpt>
      <trkpt lat="42.90953" lon="0.30764">
        <ele>1640.63</ele>
        <time>2018-01-09T12:05:50Z</time>
      </trkpt>
      <trkpt lat="42.90944" lon="0.30763">
        <ele>1638.22</ele>
        <time>2018-01-09T12:06:01Z</time>
      </trkpt>
      <trkpt lat="42.90934" lon="0.30759">
        <ele>1634.38</ele>
        <time>2018-01-09T12:06:09Z</time>
      </trkpt>
      <trkpt lat="42.90925" lon="0.30755">
        <ele>1631.98</ele>
        <time>2018-01-09T12:06:17Z</time>
      </trkpt>
      <trkpt lat="42.90916" lon="0.30753">
        <ele>1629.09</ele>
        <time>2018-01-09T12:06:25Z</time>
      </trkpt>
      <trkpt lat="42.90907" lon="0.30752">
        <ele>1626.21</ele>
        <time>2018-01-09T12:06:33Z</time>
      </trkpt>
      <trkpt lat="42.90897" lon="0.30751">
        <ele>1622.84</ele>
        <time>2018-01-09T12:06:41Z</time>
      </trkpt>
      <trkpt lat="42.90887" lon="0.3075">
        <ele>1621.88</ele>
        <time>2018-01-09T12:06:48Z</time>
      </trkpt>
      <trkpt lat="42.90878" lon="0.30752">
        <ele>1620.44</ele>
        <time>2018-01-09T12:06:55Z</time>
      </trkpt>
      <trkpt lat="42.90867" lon="0.30752">
        <ele>1618.04</ele>
        <time>2018-01-09T12:07:03Z</time>
      </trkpt>
      <trkpt lat="42.90858" lon="0.30753">
        <ele>1618.04</ele>
        <time>2018-01-09T12:07:12Z</time>
      </trkpt>
      <trkpt lat="42.90848" lon="0.30754">
        <ele>1615.63</ele>
        <time>2018-01-09T12:07:20Z</time>
      </trkpt>
      <trkpt lat="42.90837" lon="0.30753">
        <ele>1614.67</ele>
        <time>2018-01-09T12:07:28Z</time>
      </trkpt>
      <trkpt lat="42.90828" lon="0.30752">
        <ele>1615.63</ele>
        <time>2018-01-09T12:07:36Z</time>
      </trkpt>
      <trkpt lat="42.90819" lon="0.30751">
        <ele>1614.67</ele>
        <time>2018-01-09T12:07:44Z</time>
      </trkpt>
      <trkpt lat="42.9081" lon="0.30747">
        <ele>1613.71</ele>
        <time>2018-01-09T12:07:51Z</time>
      </trkpt>
      <trkpt lat="42.908" lon="0.30744">
        <ele>1612.75</ele>
        <time>2018-01-09T12:07:59Z</time>
      </trkpt>
      <trkpt lat="42.90791" lon="0.30741">
        <ele>1612.75</ele>
        <time>2018-01-09T12:08:07Z</time>
      </trkpt>
      <trkpt lat="42.90783" lon="0.30736">
        <ele>1612.27</ele>
        <time>2018-01-09T12:08:15Z</time>
      </trkpt>
      <trkpt lat="42.90774" lon="0.30731">
        <ele>1612.27</ele>
        <time>2018-01-09T12:08:24Z</time>
      </trkpt>
      <trkpt lat="42.90764" lon="0.30728">
        <ele>1613.23</ele>
        <time>2018-01-09T12:08:32Z</time>
      </trkpt>
      <trkpt lat="42.90755" lon="0.30727">
        <ele>1612.27</ele>
        <time>2018-01-09T12:08:41Z</time>
      </trkpt>
      <trkpt lat="42.90746" lon="0.30723">
        <ele>1613.23</ele>
        <time>2018-01-09T12:08:50Z</time>
      </trkpt>
      <trkpt lat="42.90737" lon="0.30721">
        <ele>1613.71</ele>
        <time>2018-01-09T12:08:59Z</time>
      </trkpt>
      <trkpt lat="42.90728" lon="0.30717">
        <ele>1613.71</ele>
        <time>2018-01-09T12:09:08Z</time>
      </trkpt>
      <trkpt lat="42.9072" lon="0.30712">
        <ele>1614.67</ele>
        <time>2018-01-09T12:09:18Z</time>
      </trkpt>
      <trkpt lat="42.90711" lon="0.30709">
        <ele>1615.63</ele>
        <time>2018-01-09T12:09:29Z</time>
      </trkpt>
      <trkpt lat="42.90703" lon="0.30704">
        <ele>1616.11</ele>
        <time>2018-01-09T12:09:39Z</time>
      </trkpt>
      <trkpt lat="42.90695" lon="0.30698">
        <ele>1617.56</ele>
        <time>2018-01-09T12:10:01Z</time>
      </trkpt>
      <trkpt lat="42.90685" lon="0.30698">
        <ele>1615.63</ele>
        <time>2018-01-09T12:10:09Z</time>
      </trkpt>
      <trkpt lat="42.90674" lon="0.307">
        <ele>1615.63</ele>
        <time>2018-01-09T12:10:17Z</time>
      </trkpt>
      <trkpt lat="42.90665" lon="0.307">
        <ele>1615.15</ele>
        <time>2018-01-09T12:10:25Z</time>
      </trkpt>
      <trkpt lat="42.90656" lon="0.30699">
        <ele>1616.11</ele>
        <time>2018-01-09T12:10:50Z</time>
      </trkpt>
      <trkpt lat="42.90647" lon="0.30697">
        <ele>1617.07</ele>
        <time>2018-01-09T12:10:58Z</time>
      </trkpt>
      <trkpt lat="42.9064" lon="0.30691">
        <ele>1612.75</ele>
        <time>2018-01-09T12:11:08Z</time>
      </trkpt>
      <trkpt lat="42.90633" lon="0.30682">
        <ele>1613.71</ele>
        <time>2018-01-09T12:11:19Z</time>
      </trkpt>
      <trkpt lat="42.90631" lon="0.30669">
        <ele>1612.75</ele>
        <time>2018-01-09T12:11:30Z</time>
      </trkpt>
      <trkpt lat="42.90626" lon="0.30658">
        <ele>1611.79</ele>
        <time>2018-01-09T12:12:18Z</time>
      </trkpt>
      <trkpt lat="42.9062" lon="0.30649">
        <ele>1609.86</ele>
        <time>2018-01-09T12:12:44Z</time>
      </trkpt>
      <trkpt lat="42.90615" lon="0.30639">
        <ele>1606.02</ele>
        <time>2018-01-09T12:13:01Z</time>
      </trkpt>
      <trkpt lat="42.90609" lon="0.30632">
        <ele>1605.06</ele>
        <time>2018-01-09T12:13:10Z</time>
      </trkpt>
      <trkpt lat="42.906" lon="0.30628">
        <ele>1602.17</ele>
        <time>2018-01-09T12:13:19Z</time>
      </trkpt>
      <trkpt lat="42.90591" lon="0.30624">
        <ele>1601.69</ele>
        <time>2018-01-09T12:13:28Z</time>
      </trkpt>
      <trkpt lat="42.90585" lon="0.30615">
        <ele>1598.81</ele>
        <time>2018-01-09T12:13:36Z</time>
      </trkpt>
      <trkpt lat="42.90578" lon="0.30607">
        <ele>1602.17</ele>
        <time>2018-01-09T12:13:44Z</time>
      </trkpt>
      <trkpt lat="42.90571" lon="0.30599">
        <ele>1603.14</ele>
        <time>2018-01-09T12:13:53Z</time>
      </trkpt>
      <trkpt lat="42.90563" lon="0.3059">
        <ele>1597.37</ele>
        <time>2018-01-09T12:14:02Z</time>
      </trkpt>
      <trkpt lat="42.90557" lon="0.30583">
        <ele>1595.45</ele>
        <time>2018-01-09T12:14:11Z</time>
      </trkpt>
      <trkpt lat="42.90555" lon="0.30571">
        <ele>1596.41</ele>
        <time>2018-01-09T12:14:22Z</time>
      </trkpt>
      <trkpt lat="42.90556" lon="0.30557">
        <ele>1591.6</ele>
        <time>2018-01-09T12:14:36Z</time>
      </trkpt>
      <trkpt lat="42.90551" lon="0.30546">
        <ele>1586.31</ele>
        <time>2018-01-09T12:14:45Z</time>
      </trkpt>
      <trkpt lat="42.90541" lon="0.30543">
        <ele>1583.43</ele>
        <time>2018-01-09T12:14:57Z</time>
      </trkpt>
      <trkpt lat="42.90534" lon="0.30552">
        <ele>1583.43</ele>
        <time>2018-01-09T12:15:06Z</time>
      </trkpt>
      <trkpt lat="42.90525" lon="0.30559">
        <ele>1581.03</ele>
        <time>2018-01-09T12:15:13Z</time>
      </trkpt>
      <trkpt lat="42.90516" lon="0.30561">
        <ele>1579.58</ele>
        <time>2018-01-09T12:15:20Z</time>
      </trkpt>
      <trkpt lat="42.90505" lon="0.30558">
        <ele>1574.78</ele>
        <time>2018-01-09T12:15:28Z</time>
      </trkpt>
      <trkpt lat="42.90496" lon="0.30556">
        <ele>1573.82</ele>
        <time>2018-01-09T12:15:36Z</time>
      </trkpt>
      <trkpt lat="42.90488" lon="0.30551">
        <ele>1571.41</ele>
        <time>2018-01-09T12:15:45Z</time>
      </trkpt>
      <trkpt lat="42.90481" lon="0.30546">
        <ele>1571.89</ele>
        <time>2018-01-09T12:15:54Z</time>
      </trkpt>
      <trkpt lat="42.90478" lon="0.30532">
        <ele>1568.53</ele>
        <time>2018-01-09T12:16:04Z</time>
      </trkpt>
      <trkpt lat="42.90469" lon="0.30526">
        <ele>1564.68</ele>
        <time>2018-01-09T12:16:12Z</time>
      </trkpt>
      <trkpt lat="42.9046" lon="0.30528">
        <ele>1562.28</ele>
        <time>2018-01-09T12:16:20Z</time>
      </trkpt>
      <trkpt lat="42.90449" lon="0.30524">
        <ele>1560.36</ele>
        <time>2018-01-09T12:16:28Z</time>
      </trkpt>
      <trkpt lat="42.90441" lon="0.30519">
        <ele>1557.95</ele>
        <time>2018-01-09T12:16:37Z</time>
      </trkpt>
      <trkpt lat="42.90437" lon="0.30508">
        <ele>1554.59</ele>
        <time>2018-01-09T12:16:46Z</time>
      </trkpt>
      <trkpt lat="42.90428" lon="0.30503">
        <ele>1549.3</ele>
        <time>2018-01-09T12:16:55Z</time>
      </trkpt>
      <trkpt lat="42.90418" lon="0.30501">
        <ele>1548.34</ele>
        <time>2018-01-09T12:17:03Z</time>
      </trkpt>
      <trkpt lat="42.9041" lon="0.305">
        <ele>1547.86</ele>
        <time>2018-01-09T12:17:10Z</time>
      </trkpt>
      <trkpt lat="42.90399" lon="0.30502">
        <ele>1548.34</ele>
        <time>2018-01-09T12:17:18Z</time>
      </trkpt>
      <trkpt lat="42.90391" lon="0.30504">
        <ele>1548.34</ele>
        <time>2018-01-09T12:17:25Z</time>
      </trkpt>
      <trkpt lat="42.90381" lon="0.30506">
        <ele>1546.42</ele>
        <time>2018-01-09T12:17:33Z</time>
      </trkpt>
      <trkpt lat="42.90371" lon="0.3051">
        <ele>1543.05</ele>
        <time>2018-01-09T12:17:41Z</time>
      </trkpt>
      <trkpt lat="42.90363" lon="0.30514">
        <ele>1543.05</ele>
        <time>2018-01-09T12:17:49Z</time>
      </trkpt>
      <trkpt lat="42.90353" lon="0.30518">
        <ele>1542.57</ele>
        <time>2018-01-09T12:17:58Z</time>
      </trkpt>
      <trkpt lat="42.90344" lon="0.30519">
        <ele>1542.09</ele>
        <time>2018-01-09T12:18:06Z</time>
      </trkpt>
      <trkpt lat="42.90334" lon="0.30519">
        <ele>1539.69</ele>
        <time>2018-01-09T12:18:13Z</time>
      </trkpt>
      <trkpt lat="42.90324" lon="0.30519">
        <ele>1539.69</ele>
        <time>2018-01-09T12:18:21Z</time>
      </trkpt>
      <trkpt lat="42.90314" lon="0.30519">
        <ele>1538.73</ele>
        <time>2018-01-09T12:18:29Z</time>
      </trkpt>
      <trkpt lat="42.90304" lon="0.3052">
        <ele>1537.29</ele>
        <time>2018-01-09T12:18:37Z</time>
      </trkpt>
      <trkpt lat="42.90294" lon="0.30521">
        <ele>1535.36</ele>
        <time>2018-01-09T12:18:45Z</time>
      </trkpt>
      <trkpt lat="42.90286" lon="0.30519">
        <ele>1536.32</ele>
        <time>2018-01-09T12:18:55Z</time>
      </trkpt>
      <trkpt lat="42.90276" lon="0.30521">
        <ele>1536.8</ele>
        <time>2018-01-09T12:19:05Z</time>
      </trkpt>
      <trkpt lat="42.90267" lon="0.30526">
        <ele>1539.69</ele>
        <time>2018-01-09T12:19:16Z</time>
      </trkpt>
      <trkpt lat="42.90258" lon="0.30532">
        <ele>1540.17</ele>
        <time>2018-01-09T12:19:27Z</time>
      </trkpt>
      <trkpt lat="42.90248" lon="0.30533">
        <ele>1539.69</ele>
        <time>2018-01-09T12:19:39Z</time>
      </trkpt>
      <trkpt lat="42.90238" lon="0.30538">
        <ele>1541.61</ele>
        <time>2018-01-09T12:19:51Z</time>
      </trkpt>
      <trkpt lat="42.90229" lon="0.30543">
        <ele>1543.05</ele>
        <time>2018-01-09T12:20:03Z</time>
      </trkpt>
      <trkpt lat="42.90216" lon="0.30547">
        <ele>1544.98</ele>
        <time>2018-01-09T12:20:28Z</time>
      </trkpt>
      <trkpt lat="42.90226" lon="0.30536">
        <ele>1548.34</ele>
        <time>2018-01-09T12:23:42Z</time>
      </trkpt>
      <trkpt lat="42.90221" lon="0.30539">
        <ele>1544.01</ele>
        <time>2018-01-09T12:25:24Z</time>
      </trkpt>
      <trkpt lat="42.90212" lon="0.30545">
        <ele>1546.42</ele>
        <time>2018-01-09T12:25:33Z</time>
      </trkpt>
      <trkpt lat="42.90204" lon="0.3055">
        <ele>1544.01</ele>
        <time>2018-01-09T12:25:43Z</time>
      </trkpt>
      <trkpt lat="42.90195" lon="0.30554">
        <ele>1541.13</ele>
        <time>2018-01-09T12:25:52Z</time>
      </trkpt>
      <trkpt lat="42.90185" lon="0.30558">
        <ele>1544.98</ele>
        <time>2018-01-09T12:26:01Z</time>
      </trkpt>
      <trkpt lat="42.90177" lon="0.30563">
        <ele>1543.05</ele>
        <time>2018-01-09T12:26:10Z</time>
      </trkpt>
      <trkpt lat="42.90168" lon="0.30567">
        <ele>1544.98</ele>
        <time>2018-01-09T12:26:19Z</time>
      </trkpt>
      <trkpt lat="42.90159" lon="0.30571">
        <ele>1544.5</ele>
        <time>2018-01-09T12:26:28Z</time>
      </trkpt>
      <trkpt lat="42.90149" lon="0.30574">
        <ele>1545.46</ele>
        <time>2018-01-09T12:26:38Z</time>
      </trkpt>
      <trkpt lat="42.90139" lon="0.30576">
        <ele>1544.5</ele>
        <time>2018-01-09T12:26:47Z</time>
      </trkpt>
      <trkpt lat="42.9013" lon="0.30579">
        <ele>1544.5</ele>
        <time>2018-01-09T12:26:56Z</time>
      </trkpt>
      <trkpt lat="42.90121" lon="0.30577">
        <ele>1546.42</ele>
        <time>2018-01-09T12:27:05Z</time>
      </trkpt>
      <trkpt lat="42.90112" lon="0.30575">
        <ele>1544.5</ele>
        <time>2018-01-09T12:27:16Z</time>
      </trkpt>
      <trkpt lat="42.90103" lon="0.30576">
        <ele>1549.3</ele>
        <time>2018-01-09T12:27:28Z</time>
      </trkpt>
      <trkpt lat="42.90094" lon="0.30574">
        <ele>1548.34</ele>
        <time>2018-01-09T12:27:41Z</time>
      </trkpt>
      <trkpt lat="42.90085" lon="0.30575">
        <ele>1548.82</ele>
        <time>2018-01-09T12:27:55Z</time>
      </trkpt>
      <trkpt lat="42.90076" lon="0.30579">
        <ele>1551.71</ele>
        <time>2018-01-09T12:28:12Z</time>
      </trkpt>
      <trkpt lat="42.90069" lon="0.30584">
        <ele>1554.11</ele>
        <time>2018-01-09T12:28:32Z</time>
      </trkpt>
      <trkpt lat="42.90061" lon="0.30591">
        <ele>1554.59</ele>
        <time>2018-01-09T12:28:45Z</time>
      </trkpt>
      <trkpt lat="42.90055" lon="0.30598">
        <ele>1556.99</ele>
        <time>2018-01-09T12:28:57Z</time>
      </trkpt>
      <trkpt lat="42.90046" lon="0.30599">
        <ele>1559.88</ele>
        <time>2018-01-09T12:29:10Z</time>
      </trkpt>
      <trkpt lat="42.90039" lon="0.30594">
        <ele>1563.24</ele>
        <time>2018-01-09T12:29:30Z</time>
      </trkpt>
      <trkpt lat="42.90043" lon="0.30585">
        <ele>1563.24</ele>
        <time>2018-01-09T12:29:53Z</time>
      </trkpt>
      <trkpt lat="42.90046" lon="0.30573">
        <ele>1563.72</ele>
        <time>2018-01-09T12:30:07Z</time>
      </trkpt>
      <trkpt lat="42.90054" lon="0.30574">
        <ele>1559.88</ele>
        <time>2018-01-09T12:30:57Z</time>
      </trkpt>
      <trkpt lat="42.90057" lon="0.30581">
        <ele>1559.4</ele>
        <time>2018-01-09T12:31:38Z</time>
      </trkpt>
      <trkpt lat="42.90059" lon="0.30593">
        <ele>1559.4</ele>
        <time>2018-01-09T12:31:51Z</time>
      </trkpt>
      <trkpt lat="42.90059" lon="0.30606">
        <ele>1559.88</ele>
        <time>2018-01-09T12:32:01Z</time>
      </trkpt>
      <trkpt lat="42.90062" lon="0.30604">
        <ele>1560.36</ele>
        <time>2018-01-09T12:49:07Z</time>
      </trkpt>
      <trkpt lat="42.90059" lon="0.30601">
        <ele>1561.32</ele>
        <time>2018-01-09T12:51:08Z</time>
      </trkpt>
      <trkpt lat="42.90065" lon="0.3059">
        <ele>1558.92</ele>
        <time>2018-01-09T12:51:27Z</time>
      </trkpt>
      <trkpt lat="42.90071" lon="0.30583">
        <ele>1557.95</ele>
        <time>2018-01-09T12:52:17Z</time>
      </trkpt>
      <trkpt lat="42.90078" lon="0.30575">
        <ele>1557.47</ele>
        <time>2018-01-09T12:52:37Z</time>
      </trkpt>
      <trkpt lat="42.90086" lon="0.30571">
        <ele>1555.55</ele>
        <time>2018-01-09T12:52:55Z</time>
      </trkpt>
      <trkpt lat="42.90096" lon="0.3057">
        <ele>1553.63</ele>
        <time>2018-01-09T12:53:05Z</time>
      </trkpt>
      <trkpt lat="42.90105" lon="0.30572">
        <ele>1551.22</ele>
        <time>2018-01-09T12:53:13Z</time>
      </trkpt>
      <trkpt lat="42.90115" lon="0.30572">
        <ele>1549.3</ele>
        <time>2018-01-09T12:53:21Z</time>
      </trkpt>
      <trkpt lat="42.90124" lon="0.30574">
        <ele>1547.86</ele>
        <time>2018-01-09T12:53:29Z</time>
      </trkpt>
      <trkpt lat="42.90134" lon="0.30569">
        <ele>1547.38</ele>
        <time>2018-01-09T12:53:38Z</time>
      </trkpt>
      <trkpt lat="42.90142" lon="0.30561">
        <ele>1546.9</ele>
        <time>2018-01-09T12:53:47Z</time>
      </trkpt>
      <trkpt lat="42.90148" lon="0.30553">
        <ele>1545.46</ele>
        <time>2018-01-09T12:53:59Z</time>
      </trkpt>
      <trkpt lat="42.90155" lon="0.30545">
        <ele>1544.98</ele>
        <time>2018-01-09T12:54:08Z</time>
      </trkpt>
      <trkpt lat="42.90163" lon="0.30538">
        <ele>1543.53</ele>
        <time>2018-01-09T12:54:17Z</time>
      </trkpt>
      <trkpt lat="42.90171" lon="0.30528">
        <ele>1542.57</ele>
        <time>2018-01-09T12:54:26Z</time>
      </trkpt>
      <trkpt lat="42.90178" lon="0.30521">
        <ele>1541.61</ele>
        <time>2018-01-09T12:54:34Z</time>
      </trkpt>
      <trkpt lat="42.90185" lon="0.30513">
        <ele>1540.65</ele>
        <time>2018-01-09T12:54:42Z</time>
      </trkpt>
      <trkpt lat="42.90192" lon="0.30503">
        <ele>1540.17</ele>
        <time>2018-01-09T12:54:50Z</time>
      </trkpt>
      <trkpt lat="42.90199" lon="0.30495">
        <ele>1539.21</ele>
        <time>2018-01-09T12:54:58Z</time>
      </trkpt>
      <trkpt lat="42.90205" lon="0.30485">
        <ele>1538.73</ele>
        <time>2018-01-09T12:55:06Z</time>
      </trkpt>
      <trkpt lat="42.9021" lon="0.30477">
        <ele>1538.25</ele>
        <time>2018-01-09T12:55:14Z</time>
      </trkpt>
      <trkpt lat="42.90218" lon="0.30468">
        <ele>1536.8</ele>
        <time>2018-01-09T12:55:22Z</time>
      </trkpt>
      <trkpt lat="42.90227" lon="0.30462">
        <ele>1536.32</ele>
        <time>2018-01-09T12:55:31Z</time>
      </trkpt>
      <trkpt lat="42.90235" lon="0.30455">
        <ele>1535.36</ele>
        <time>2018-01-09T12:55:40Z</time>
      </trkpt>
      <trkpt lat="42.90243" lon="0.3045">
        <ele>1534.88</ele>
        <time>2018-01-09T12:55:48Z</time>
      </trkpt>
      <trkpt lat="42.90252" lon="0.30445">
        <ele>1533.92</ele>
        <time>2018-01-09T12:55:59Z</time>
      </trkpt>
      <trkpt lat="42.90261" lon="0.30441">
        <ele>1532.96</ele>
        <time>2018-01-09T12:56:07Z</time>
      </trkpt>
      <trkpt lat="42.90269" lon="0.30435">
        <ele>1531.52</ele>
        <time>2018-01-09T12:56:14Z</time>
      </trkpt>
      <trkpt lat="42.90279" lon="0.3043">
        <ele>1530.56</ele>
        <time>2018-01-09T12:56:21Z</time>
      </trkpt>
      <trkpt lat="42.90286" lon="0.30426">
        <ele>1530.56</ele>
        <time>2018-01-09T12:56:28Z</time>
      </trkpt>
      <trkpt lat="42.90293" lon="0.30421">
        <ele>1529.59</ele>
        <time>2018-01-09T12:56:35Z</time>
      </trkpt>
      <trkpt lat="42.90303" lon="0.30415">
        <ele>1527.67</ele>
        <time>2018-01-09T12:56:43Z</time>
      </trkpt>
      <trkpt lat="42.90313" lon="0.30411">
        <ele>1526.23</ele>
        <time>2018-01-09T12:56:51Z</time>
      </trkpt>
      <trkpt lat="42.90323" lon="0.30405">
        <ele>1524.79</ele>
        <time>2018-01-09T12:56:58Z</time>
      </trkpt>
      <trkpt lat="42.90333" lon="0.30398">
        <ele>1523.83</ele>
        <time>2018-01-09T12:57:06Z</time>
      </trkpt>
      <trkpt lat="42.90341" lon="0.30393">
        <ele>1522.39</ele>
        <time>2018-01-09T12:57:13Z</time>
      </trkpt>
      <trkpt lat="42.90347" lon="0.30386">
        <ele>1520.94</ele>
        <time>2018-01-09T12:57:20Z</time>
      </trkpt>
      <trkpt lat="42.90357" lon="0.3038">
        <ele>1519.98</ele>
        <time>2018-01-09T12:57:28Z</time>
      </trkpt>
      <trkpt lat="42.90366" lon="0.30374">
        <ele>1518.54</ele>
        <time>2018-01-09T12:57:35Z</time>
      </trkpt>
      <trkpt lat="42.90377" lon="0.30367">
        <ele>1517.58</ele>
        <time>2018-01-09T12:57:43Z</time>
      </trkpt>
      <trkpt lat="42.90383" lon="0.30361">
        <ele>1516.14</ele>
        <time>2018-01-09T12:57:50Z</time>
      </trkpt>
      <trkpt lat="42.90392" lon="0.30355">
        <ele>1515.18</ele>
        <time>2018-01-09T12:57:58Z</time>
      </trkpt>
      <trkpt lat="42.90399" lon="0.30347">
        <ele>1514.69</ele>
        <time>2018-01-09T12:58:05Z</time>
      </trkpt>
      <trkpt lat="42.90406" lon="0.30338">
        <ele>1513.25</ele>
        <time>2018-01-09T12:58:13Z</time>
      </trkpt>
      <trkpt lat="42.90414" lon="0.3033">
        <ele>1512.77</ele>
        <time>2018-01-09T12:58:21Z</time>
      </trkpt>
      <trkpt lat="42.90423" lon="0.30323">
        <ele>1511.81</ele>
        <time>2018-01-09T12:58:28Z</time>
      </trkpt>
      <trkpt lat="42.90429" lon="0.30312">
        <ele>1510.85</ele>
        <time>2018-01-09T12:58:36Z</time>
      </trkpt>
      <trkpt lat="42.90437" lon="0.30304">
        <ele>1509.89</ele>
        <time>2018-01-09T12:58:43Z</time>
      </trkpt>
      <trkpt lat="42.90444" lon="0.30294">
        <ele>1508.93</ele>
        <time>2018-01-09T12:58:51Z</time>
      </trkpt>
      <trkpt lat="42.90452" lon="0.30286">
        <ele>1508.45</ele>
        <time>2018-01-09T12:58:59Z</time>
      </trkpt>
      <trkpt lat="42.90458" lon="0.30276">
        <ele>1507.48</ele>
        <time>2018-01-09T12:59:07Z</time>
      </trkpt>
      <trkpt lat="42.90465" lon="0.30268">
        <ele>1505.56</ele>
        <time>2018-01-09T12:59:15Z</time>
      </trkpt>
      <trkpt lat="42.90475" lon="0.30258">
        <ele>1506.04</ele>
        <time>2018-01-09T12:59:23Z</time>
      </trkpt>
      <trkpt lat="42.90483" lon="0.30249">
        <ele>1506.04</ele>
        <time>2018-01-09T12:59:32Z</time>
      </trkpt>
      <trkpt lat="42.90491" lon="0.30241">
        <ele>1506.04</ele>
        <time>2018-01-09T12:59:40Z</time>
      </trkpt>
      <trkpt lat="42.90496" lon="0.30234">
        <ele>1506.04</ele>
        <time>2018-01-09T12:59:48Z</time>
      </trkpt>
      <trkpt lat="42.90504" lon="0.30225">
        <ele>1506.04</ele>
        <time>2018-01-09T12:59:57Z</time>
      </trkpt>
      <trkpt lat="42.90512" lon="0.30219">
        <ele>1501.24</ele>
        <time>2018-01-09T13:00:05Z</time>
      </trkpt>
      <trkpt lat="42.9052" lon="0.30211">
        <ele>1502.2</ele>
        <time>2018-01-09T13:00:13Z</time>
      </trkpt>
      <trkpt lat="42.90528" lon="0.30204">
        <ele>1502.2</ele>
        <time>2018-01-09T13:00:21Z</time>
      </trkpt>
      <trkpt lat="42.90535" lon="0.30196">
        <ele>1502.2</ele>
        <time>2018-01-09T13:00:30Z</time>
      </trkpt>
      <trkpt lat="42.90543" lon="0.30187">
        <ele>1502.2</ele>
        <time>2018-01-09T13:00:39Z</time>
      </trkpt>
      <trkpt lat="42.9055" lon="0.3018">
        <ele>1496.43</ele>
        <time>2018-01-09T13:00:48Z</time>
      </trkpt>
      <trkpt lat="42.90559" lon="0.30173">
        <ele>1495.95</ele>
        <time>2018-01-09T13:00:56Z</time>
      </trkpt>
      <trkpt lat="42.90567" lon="0.30165">
        <ele>1495.47</ele>
        <time>2018-01-09T13:01:04Z</time>
      </trkpt>
      <trkpt lat="42.90575" lon="0.30159">
        <ele>1494.51</ele>
        <time>2018-01-09T13:01:13Z</time>
      </trkpt>
      <trkpt lat="42.90584" lon="0.30153">
        <ele>1494.99</ele>
        <time>2018-01-09T13:01:21Z</time>
      </trkpt>
      <trkpt lat="42.90593" lon="0.30149">
        <ele>1493.55</ele>
        <time>2018-01-09T13:01:29Z</time>
      </trkpt>
      <trkpt lat="42.90602" lon="0.30148">
        <ele>1491.14</ele>
        <time>2018-01-09T13:01:37Z</time>
      </trkpt>
      <trkpt lat="42.90612" lon="0.30145">
        <ele>1489.7</ele>
        <time>2018-01-09T13:01:45Z</time>
      </trkpt>
      <trkpt lat="42.90621" lon="0.3014">
        <ele>1488.74</ele>
        <time>2018-01-09T13:01:54Z</time>
      </trkpt>
      <trkpt lat="42.90629" lon="0.30134">
        <ele>1487.3</ele>
        <time>2018-01-09T13:02:02Z</time>
      </trkpt>
      <trkpt lat="42.90636" lon="0.30124">
        <ele>1486.82</ele>
        <time>2018-01-09T13:02:10Z</time>
      </trkpt>
      <trkpt lat="42.90639" lon="0.30112">
        <ele>1487.78</ele>
        <time>2018-01-09T13:02:17Z</time>
      </trkpt>
      <trkpt lat="42.90644" lon="0.30105">
        <ele>1485.85</ele>
        <time>2018-01-09T13:02:40Z</time>
      </trkpt>
      <trkpt lat="42.90645" lon="0.30091">
        <ele>1479.61</ele>
        <time>2018-01-09T13:02:55Z</time>
      </trkpt>
      <trkpt lat="42.90647" lon="0.30078">
        <ele>1477.2</ele>
        <time>2018-01-09T13:03:05Z</time>
      </trkpt>
      <trkpt lat="42.90649" lon="0.30066">
        <ele>1473.36</ele>
        <time>2018-01-09T13:03:16Z</time>
      </trkpt>
      <trkpt lat="42.90649" lon="0.30055">
        <ele>1470.47</ele>
        <time>2018-01-09T13:03:29Z</time>
      </trkpt>
      <trkpt lat="42.90654" lon="0.30047">
        <ele>1467.59</ele>
        <time>2018-01-09T13:03:41Z</time>
      </trkpt>
      <trkpt lat="42.90659" lon="0.30037">
        <ele>1465.67</ele>
        <time>2018-01-09T13:03:51Z</time>
      </trkpt>
      <trkpt lat="42.90669" lon="0.30034">
        <ele>1466.63</ele>
        <time>2018-01-09T13:04:03Z</time>
      </trkpt>
      <trkpt lat="42.90679" lon="0.30033">
        <ele>1466.63</ele>
        <time>2018-01-09T13:04:24Z</time>
      </trkpt>
      <trkpt lat="42.90688" lon="0.3003">
        <ele>1463.26</ele>
        <time>2018-01-09T13:04:35Z</time>
      </trkpt>
      <trkpt lat="42.90697" lon="0.30027">
        <ele>1462.3</ele>
        <time>2018-01-09T13:04:44Z</time>
      </trkpt>
      <trkpt lat="42.90707" lon="0.30025">
        <ele>1461.34</ele>
        <time>2018-01-09T13:04:52Z</time>
      </trkpt>
      <trkpt lat="42.90716" lon="0.30022">
        <ele>1459.42</ele>
        <time>2018-01-09T13:05:01Z</time>
      </trkpt>
      <trkpt lat="42.90725" lon="0.30017">
        <ele>1457.98</ele>
        <time>2018-01-09T13:05:17Z</time>
      </trkpt>
      <trkpt lat="42.90734" lon="0.30014">
        <ele>1457.5</ele>
        <time>2018-01-09T13:05:26Z</time>
      </trkpt>
      <trkpt lat="42.90744" lon="0.30009">
        <ele>1456.53</ele>
        <time>2018-01-09T13:05:34Z</time>
      </trkpt>
      <trkpt lat="42.90754" lon="0.30006">
        <ele>1455.57</ele>
        <time>2018-01-09T13:05:42Z</time>
      </trkpt>
      <trkpt lat="42.90764" lon="0.30001">
        <ele>1454.61</ele>
        <time>2018-01-09T13:05:50Z</time>
      </trkpt>
      <trkpt lat="42.90773" lon="0.29997">
        <ele>1454.13</ele>
        <time>2018-01-09T13:05:58Z</time>
      </trkpt>
      <trkpt lat="42.90783" lon="0.29994">
        <ele>1452.69</ele>
        <time>2018-01-09T13:06:07Z</time>
      </trkpt>
      <trkpt lat="42.90793" lon="0.2999">
        <ele>1451.73</ele>
        <time>2018-01-09T13:06:15Z</time>
      </trkpt>
      <trkpt lat="42.90802" lon="0.29986">
        <ele>1450.77</ele>
        <time>2018-01-09T13:06:23Z</time>
      </trkpt>
      <trkpt lat="42.90811" lon="0.29982">
        <ele>1450.29</ele>
        <time>2018-01-09T13:06:31Z</time>
      </trkpt>
      <trkpt lat="42.9082" lon="0.29977">
        <ele>1449.81</ele>
        <time>2018-01-09T13:06:39Z</time>
      </trkpt>
      <trkpt lat="42.90828" lon="0.29973">
        <ele>1448.84</ele>
        <time>2018-01-09T13:06:46Z</time>
      </trkpt>
      <trkpt lat="42.90836" lon="0.29969">
        <ele>1447.88</ele>
        <time>2018-01-09T13:06:53Z</time>
      </trkpt>
      <trkpt lat="42.90845" lon="0.29966">
        <ele>1446.92</ele>
        <time>2018-01-09T13:07:00Z</time>
      </trkpt>
      <trkpt lat="42.90854" lon="0.29963">
        <ele>1445.96</ele>
        <time>2018-01-09T13:07:08Z</time>
      </trkpt>
      <trkpt lat="42.90864" lon="0.29957">
        <ele>1445.48</ele>
        <time>2018-01-09T13:07:16Z</time>
      </trkpt>
      <trkpt lat="42.90874" lon="0.29955">
        <ele>1445.48</ele>
        <time>2018-01-09T13:07:24Z</time>
      </trkpt>
      <trkpt lat="42.90883" lon="0.2995">
        <ele>1443.56</ele>
        <time>2018-01-09T13:07:32Z</time>
      </trkpt>
      <trkpt lat="42.90892" lon="0.29947">
        <ele>1442.6</ele>
        <time>2018-01-09T13:07:40Z</time>
      </trkpt>
      <trkpt lat="42.90901" lon="0.29942">
        <ele>1441.63</ele>
        <time>2018-01-09T13:07:48Z</time>
      </trkpt>
      <trkpt lat="42.9091" lon="0.29937">
        <ele>1440.67</ele>
        <time>2018-01-09T13:07:56Z</time>
      </trkpt>
      <trkpt lat="42.90919" lon="0.29933">
        <ele>1439.71</ele>
        <time>2018-01-09T13:08:04Z</time>
      </trkpt>
      <trkpt lat="42.90928" lon="0.29927">
        <ele>1439.23</ele>
        <time>2018-01-09T13:08:12Z</time>
      </trkpt>
      <trkpt lat="42.90937" lon="0.29921">
        <ele>1438.75</ele>
        <time>2018-01-09T13:08:20Z</time>
      </trkpt>
      <trkpt lat="42.90946" lon="0.29915">
        <ele>1437.79</ele>
        <time>2018-01-09T13:08:28Z</time>
      </trkpt>
      <trkpt lat="42.90954" lon="0.29909">
        <ele>1436.83</ele>
        <time>2018-01-09T13:08:36Z</time>
      </trkpt>
      <trkpt lat="42.90962" lon="0.29901">
        <ele>1436.83</ele>
        <time>2018-01-09T13:08:44Z</time>
      </trkpt>
      <trkpt lat="42.90971" lon="0.29896">
        <ele>1435.87</ele>
        <time>2018-01-09T13:08:52Z</time>
      </trkpt>
      <trkpt lat="42.90979" lon="0.2989">
        <ele>1434.91</ele>
        <time>2018-01-09T13:09:00Z</time>
      </trkpt>
      <trkpt lat="42.90988" lon="0.29883">
        <ele>1433.94</ele>
        <time>2018-01-09T13:09:08Z</time>
      </trkpt>
      <trkpt lat="42.90997" lon="0.29877">
        <ele>1433.46</ele>
        <time>2018-01-09T13:09:16Z</time>
      </trkpt>
      <trkpt lat="42.91006" lon="0.29871">
        <ele>1432.98</ele>
        <time>2018-01-09T13:09:25Z</time>
      </trkpt>
      <trkpt lat="42.91014" lon="0.29864">
        <ele>1432.02</ele>
        <time>2018-01-09T13:09:33Z</time>
      </trkpt>
      <trkpt lat="42.91023" lon="0.29857">
        <ele>1431.54</ele>
        <time>2018-01-09T13:09:41Z</time>
      </trkpt>
      <trkpt lat="42.91032" lon="0.29851">
        <ele>1432.5</ele>
        <time>2018-01-09T13:09:48Z</time>
      </trkpt>
      <trkpt lat="42.91038" lon="0.29841">
        <ele>1429.62</ele>
        <time>2018-01-09T13:09:56Z</time>
      </trkpt>
      <trkpt lat="42.91045" lon="0.29832">
        <ele>1429.62</ele>
        <time>2018-01-09T13:10:05Z</time>
      </trkpt>
      <trkpt lat="42.91049" lon="0.29819">
        <ele>1429.14</ele>
        <time>2018-01-09T13:10:13Z</time>
      </trkpt>
      <trkpt lat="42.9105" lon="0.29807">
        <ele>1428.18</ele>
        <time>2018-01-09T13:10:21Z</time>
      </trkpt>
      <trkpt lat="42.91048" lon="0.29793">
        <ele>1428.18</ele>
        <time>2018-01-09T13:10:31Z</time>
      </trkpt>
      <trkpt lat="42.91047" lon="0.29779">
        <ele>1427.7</ele>
        <time>2018-01-09T13:10:39Z</time>
      </trkpt>
      <trkpt lat="42.91049" lon="0.29766">
        <ele>1427.21</ele>
        <time>2018-01-09T13:10:47Z</time>
      </trkpt>
      <trkpt lat="42.91058" lon="0.29763">
        <ele>1427.21</ele>
        <time>2018-01-09T13:10:55Z</time>
      </trkpt>
      <trkpt lat="42.91069" lon="0.29762">
        <ele>1426.73</ele>
        <time>2018-01-09T13:11:04Z</time>
      </trkpt>
      <trkpt lat="42.91079" lon="0.29758">
        <ele>1426.25</ele>
        <time>2018-01-09T13:11:13Z</time>
      </trkpt>
      <trkpt lat="42.91089" lon="0.29758">
        <ele>1425.77</ele>
        <time>2018-01-09T13:11:22Z</time>
      </trkpt>
      <trkpt lat="42.911" lon="0.29758">
        <ele>1424.81</ele>
        <time>2018-01-09T13:11:31Z</time>
      </trkpt>
      <trkpt lat="42.91109" lon="0.29756">
        <ele>1424.81</ele>
        <time>2018-01-09T13:11:39Z</time>
      </trkpt>
      <trkpt lat="42.91118" lon="0.29755">
        <ele>1424.33</ele>
        <time>2018-01-09T13:11:48Z</time>
      </trkpt>
      <trkpt lat="42.91126" lon="0.29752">
        <ele>1423.85</ele>
        <time>2018-01-09T13:11:57Z</time>
      </trkpt>
      <trkpt lat="42.91136" lon="0.29751">
        <ele>1422.41</ele>
        <time>2018-01-09T13:12:05Z</time>
      </trkpt>
      <trkpt lat="42.91145" lon="0.29748">
        <ele>1421.93</ele>
        <time>2018-01-09T13:12:13Z</time>
      </trkpt>
      <trkpt lat="42.91154" lon="0.29744">
        <ele>1420</ele>
        <time>2018-01-09T13:12:22Z</time>
      </trkpt>
      <trkpt lat="42.91162" lon="0.29741">
        <ele>1418.56</ele>
        <time>2018-01-09T13:12:31Z</time>
      </trkpt>
      <trkpt lat="42.91173" lon="0.29736">
        <ele>1418.56</ele>
        <time>2018-01-09T13:12:41Z</time>
      </trkpt>
      <trkpt lat="42.91183" lon="0.29741">
        <ele>1415.68</ele>
        <time>2018-01-09T13:12:53Z</time>
      </trkpt>
      <trkpt lat="42.91192" lon="0.29744">
        <ele>1414.24</ele>
        <time>2018-01-09T13:13:01Z</time>
      </trkpt>
      <trkpt lat="42.91201" lon="0.29744">
        <ele>1412.79</ele>
        <time>2018-01-09T13:13:10Z</time>
      </trkpt>
      <trkpt lat="42.91211" lon="0.29747">
        <ele>1411.83</ele>
        <time>2018-01-09T13:13:19Z</time>
      </trkpt>
      <trkpt lat="42.91222" lon="0.2975">
        <ele>1410.87</ele>
        <time>2018-01-09T13:13:29Z</time>
      </trkpt>
      <trkpt lat="42.91231" lon="0.29754">
        <ele>1410.39</ele>
        <time>2018-01-09T13:13:38Z</time>
      </trkpt>
      <trkpt lat="42.91242" lon="0.29758">
        <ele>1409.43</ele>
        <time>2018-01-09T13:13:47Z</time>
      </trkpt>
      <trkpt lat="42.91251" lon="0.29765">
        <ele>1408.95</ele>
        <time>2018-01-09T13:13:56Z</time>
      </trkpt>
      <trkpt lat="42.9126" lon="0.29771">
        <ele>1409.43</ele>
        <time>2018-01-09T13:14:04Z</time>
      </trkpt>
      <trkpt lat="42.9127" lon="0.29775">
        <ele>1408.95</ele>
        <time>2018-01-09T13:14:12Z</time>
      </trkpt>
      <trkpt lat="42.91279" lon="0.29778">
        <ele>1407.03</ele>
        <time>2018-01-09T13:14:21Z</time>
      </trkpt>
      <trkpt lat="42.91286" lon="0.29776">
        <ele>1406.55</ele>
        <time>2018-01-09T13:14:30Z</time>
      </trkpt>
      <trkpt lat="42.91296" lon="0.29776">
        <ele>1405.1</ele>
        <time>2018-01-09T13:15:17Z</time>
      </trkpt>
      <trkpt lat="42.91307" lon="0.29776">
        <ele>1404.14</ele>
        <time>2018-01-09T13:15:26Z</time>
      </trkpt>
      <trkpt lat="42.91316" lon="0.29779">
        <ele>1401.74</ele>
        <time>2018-01-09T13:15:35Z</time>
      </trkpt>
      <trkpt lat="42.91325" lon="0.2978">
        <ele>1399.82</ele>
        <time>2018-01-09T13:15:51Z</time>
      </trkpt>
      <trkpt lat="42.91332" lon="0.29776">
        <ele>1399.82</ele>
        <time>2018-01-09T13:16:15Z</time>
      </trkpt>
      <trkpt lat="42.91338" lon="0.29768">
        <ele>1400.3</ele>
        <time>2018-01-09T13:17:48Z</time>
      </trkpt>
      <trkpt lat="42.91334" lon="0.29777">
        <ele>1400.3</ele>
        <time>2018-01-09T13:20:32Z</time>
      </trkpt>
      <trkpt lat="42.91331" lon="0.29782">
        <ele>1400.3</ele>
        <time>2018-01-09T13:20:53Z</time>
      </trkpt>
      <trkpt lat="42.91337" lon="0.29762">
        <ele>1402.22</ele>
        <time>2018-01-09T13:21:27Z</time>
      </trkpt>
      <trkpt lat="42.91337" lon="0.2977">
        <ele>1403.18</ele>
        <time>2018-01-09T13:22:03Z</time>
      </trkpt>
      <trkpt lat="42.91346" lon="0.29758">
        <ele>1403.18</ele>
        <time>2018-01-09T13:23:25Z</time>
      </trkpt>
      <trkpt lat="42.91356" lon="0.2975">
        <ele>1402.7</ele>
        <time>2018-01-09T13:23:41Z</time>
      </trkpt>
      <trkpt lat="42.91366" lon="0.2974">
        <ele>1401.74</ele>
        <time>2018-01-09T13:23:55Z</time>
      </trkpt>
      <trkpt lat="42.91374" lon="0.29731">
        <ele>1401.74</ele>
        <time>2018-01-09T13:24:07Z</time>
      </trkpt>
      <trkpt lat="42.91383" lon="0.2972">
        <ele>1402.22</ele>
        <time>2018-01-09T13:24:15Z</time>
      </trkpt>
      <trkpt lat="42.91394" lon="0.2971">
        <ele>1403.18</ele>
        <time>2018-01-09T13:24:26Z</time>
      </trkpt>
      <trkpt lat="42.91404" lon="0.29703">
        <ele>1404.14</ele>
        <time>2018-01-09T13:24:34Z</time>
      </trkpt>
      <trkpt lat="42.9141" lon="0.29693">
        <ele>1404.14</ele>
        <time>2018-01-09T13:24:43Z</time>
      </trkpt>
      <trkpt lat="42.91417" lon="0.29683">
        <ele>1404.14</ele>
        <time>2018-01-09T13:24:53Z</time>
      </trkpt>
      <trkpt lat="42.91425" lon="0.29671">
        <ele>1403.66</ele>
        <time>2018-01-09T13:25:03Z</time>
      </trkpt>
      <trkpt lat="42.91436" lon="0.29664">
        <ele>1403.18</ele>
        <time>2018-01-09T13:25:14Z</time>
      </trkpt>
      <trkpt lat="42.91448" lon="0.29655">
        <ele>1403.18</ele>
        <time>2018-01-09T13:25:24Z</time>
      </trkpt>
      <trkpt lat="42.91457" lon="0.29645">
        <ele>1401.26</ele>
        <time>2018-01-09T13:25:33Z</time>
      </trkpt>
      <trkpt lat="42.91466" lon="0.29639">
        <ele>1400.3</ele>
        <time>2018-01-09T13:25:41Z</time>
      </trkpt>
      <trkpt lat="42.91475" lon="0.29632">
        <ele>1399.34</ele>
        <time>2018-01-09T13:25:49Z</time>
      </trkpt>
      <trkpt lat="42.91484" lon="0.29624">
        <ele>1398.37</ele>
        <time>2018-01-09T13:25:58Z</time>
      </trkpt>
      <trkpt lat="42.91493" lon="0.29618">
        <ele>1396.93</ele>
        <time>2018-01-09T13:26:08Z</time>
      </trkpt>
      <trkpt lat="42.91505" lon="0.29611">
        <ele>1395.49</ele>
        <time>2018-01-09T13:26:17Z</time>
      </trkpt>
      <trkpt lat="42.91514" lon="0.29606">
        <ele>1395.01</ele>
        <time>2018-01-09T13:26:27Z</time>
      </trkpt>
      <trkpt lat="42.91524" lon="0.296">
        <ele>1394.05</ele>
        <time>2018-01-09T13:26:35Z</time>
      </trkpt>
      <trkpt lat="42.9153" lon="0.29591">
        <ele>1392.61</ele>
        <time>2018-01-09T13:26:44Z</time>
      </trkpt>
      <trkpt lat="42.9154" lon="0.29586">
        <ele>1391.17</ele>
        <time>2018-01-09T13:26:53Z</time>
      </trkpt>
      <trkpt lat="42.91549" lon="0.29579">
        <ele>1390.2</ele>
        <time>2018-01-09T13:27:01Z</time>
      </trkpt>
      <trkpt lat="42.91559" lon="0.29573">
        <ele>1389.24</ele>
        <time>2018-01-09T13:27:09Z</time>
      </trkpt>
      <trkpt lat="42.91567" lon="0.29566">
        <ele>1388.76</ele>
        <time>2018-01-09T13:27:17Z</time>
      </trkpt>
      <trkpt lat="42.91575" lon="0.29561">
        <ele>1387.8</ele>
        <time>2018-01-09T13:27:25Z</time>
      </trkpt>
      <trkpt lat="42.91584" lon="0.29558">
        <ele>1386.36</ele>
        <time>2018-01-09T13:27:32Z</time>
      </trkpt>
      <trkpt lat="42.91592" lon="0.29555">
        <ele>1385.4</ele>
        <time>2018-01-09T13:27:40Z</time>
      </trkpt>
      <trkpt lat="42.91601" lon="0.2955">
        <ele>1383.96</ele>
        <time>2018-01-09T13:27:49Z</time>
      </trkpt>
      <trkpt lat="42.91606" lon="0.29542">
        <ele>1382.99</ele>
        <time>2018-01-09T13:27:57Z</time>
      </trkpt>
      <trkpt lat="42.91613" lon="0.29539">
        <ele>1381.07</ele>
        <time>2018-01-09T13:28:06Z</time>
      </trkpt>
      <trkpt lat="42.91623" lon="0.2954">
        <ele>1379.63</ele>
        <time>2018-01-09T13:28:16Z</time>
      </trkpt>
      <trkpt lat="42.91631" lon="0.29532">
        <ele>1377.71</ele>
        <time>2018-01-09T13:28:27Z</time>
      </trkpt>
      <trkpt lat="42.91639" lon="0.29527">
        <ele>1375.78</ele>
        <time>2018-01-09T13:28:38Z</time>
      </trkpt>
      <trkpt lat="42.91651" lon="0.29525">
        <ele>1373.86</ele>
        <time>2018-01-09T13:28:47Z</time>
      </trkpt>
      <trkpt lat="42.9166" lon="0.29523">
        <ele>1373.38</ele>
        <time>2018-01-09T13:28:54Z</time>
      </trkpt>
      <trkpt lat="42.9167" lon="0.29521">
        <ele>1372.42</ele>
        <time>2018-01-09T13:29:02Z</time>
      </trkpt>
      <trkpt lat="42.9168" lon="0.29518">
        <ele>1372.42</ele>
        <time>2018-01-09T13:29:11Z</time>
      </trkpt>
      <trkpt lat="42.9169" lon="0.29519">
        <ele>1371.46</ele>
        <time>2018-01-09T13:29:20Z</time>
      </trkpt>
      <trkpt lat="42.91701" lon="0.29517">
        <ele>1370.02</ele>
        <time>2018-01-09T13:29:30Z</time>
      </trkpt>
      <trkpt lat="42.9171" lon="0.29517">
        <ele>1368.09</ele>
        <time>2018-01-09T13:29:40Z</time>
      </trkpt>
      <trkpt lat="42.9172" lon="0.29516">
        <ele>1366.65</ele>
        <time>2018-01-09T13:29:49Z</time>
      </trkpt>
      <trkpt lat="42.9173" lon="0.29516">
        <ele>1365.69</ele>
        <time>2018-01-09T13:30:00Z</time>
      </trkpt>
      <trkpt lat="42.91739" lon="0.29518">
        <ele>1363.29</ele>
        <time>2018-01-09T13:30:11Z</time>
      </trkpt>
      <trkpt lat="42.91751" lon="0.29521">
        <ele>1361.84</ele>
        <time>2018-01-09T13:30:21Z</time>
      </trkpt>
      <trkpt lat="42.91762" lon="0.29526">
        <ele>1358.96</ele>
        <time>2018-01-09T13:30:32Z</time>
      </trkpt>
      <trkpt lat="42.91773" lon="0.29533">
        <ele>1357.52</ele>
        <time>2018-01-09T13:30:42Z</time>
      </trkpt>
      <trkpt lat="42.91782" lon="0.2954">
        <ele>1355.12</ele>
        <time>2018-01-09T13:30:53Z</time>
      </trkpt>
      <trkpt lat="42.91792" lon="0.2955">
        <ele>1352.23</ele>
        <time>2018-01-09T13:31:05Z</time>
      </trkpt>
      <trkpt lat="42.91801" lon="0.2956">
        <ele>1350.31</ele>
        <time>2018-01-09T13:31:14Z</time>
      </trkpt>
      <trkpt lat="42.91808" lon="0.29568">
        <ele>1348.39</ele>
        <time>2018-01-09T13:31:22Z</time>
      </trkpt>
      <trkpt lat="42.91814" lon="0.29576">
        <ele>1346.94</ele>
        <time>2018-01-09T13:31:31Z</time>
      </trkpt>
      <trkpt lat="42.91822" lon="0.29588">
        <ele>1345.5</ele>
        <time>2018-01-09T13:31:42Z</time>
      </trkpt>
      <trkpt lat="42.91829" lon="0.29598">
        <ele>1343.1</ele>
        <time>2018-01-09T13:31:52Z</time>
      </trkpt>
      <trkpt lat="42.9184" lon="0.296">
        <ele>1341.66</ele>
        <time>2018-01-09T13:32:00Z</time>
      </trkpt>
      <trkpt lat="42.9185" lon="0.29601">
        <ele>1339.25</ele>
        <time>2018-01-09T13:32:09Z</time>
      </trkpt>
      <trkpt lat="42.9186" lon="0.29601">
        <ele>1337.33</ele>
        <time>2018-01-09T13:32:17Z</time>
      </trkpt>
      <trkpt lat="42.91869" lon="0.29596">
        <ele>1333.97</ele>
        <time>2018-01-09T13:32:27Z</time>
      </trkpt>
      <trkpt lat="42.91879" lon="0.29591">
        <ele>1332.52</ele>
        <time>2018-01-09T13:32:35Z</time>
      </trkpt>
      <trkpt lat="42.91886" lon="0.29586">
        <ele>1330.6</ele>
        <time>2018-01-09T13:32:43Z</time>
      </trkpt>
      <trkpt lat="42.91895" lon="0.2958">
        <ele>1328.68</ele>
        <time>2018-01-09T13:32:52Z</time>
      </trkpt>
      <trkpt lat="42.91907" lon="0.29572">
        <ele>1326.76</ele>
        <time>2018-01-09T13:33:04Z</time>
      </trkpt>
      <trkpt lat="42.91916" lon="0.29568">
        <ele>1324.35</ele>
        <time>2018-01-09T13:33:16Z</time>
      </trkpt>
      <trkpt lat="42.9193" lon="0.2956">
        <ele>1321.47</ele>
        <time>2018-01-09T13:33:31Z</time>
      </trkpt>
      <trkpt lat="42.91938" lon="0.29553">
        <ele>1319.07</ele>
        <time>2018-01-09T13:33:42Z</time>
      </trkpt>
      <trkpt lat="42.91948" lon="0.29548">
        <ele>1316.66</ele>
        <time>2018-01-09T13:33:52Z</time>
      </trkpt>
      <trkpt lat="42.91957" lon="0.29546">
        <ele>1314.74</ele>
        <time>2018-01-09T13:34:02Z</time>
      </trkpt>
      <trkpt lat="42.91965" lon="0.29542">
        <ele>1313.3</ele>
        <time>2018-01-09T13:34:13Z</time>
      </trkpt>
      <trkpt lat="42.91976" lon="0.2954">
        <ele>1311.38</ele>
        <time>2018-01-09T13:34:24Z</time>
      </trkpt>
      <trkpt lat="42.91985" lon="0.29534">
        <ele>1309.45</ele>
        <time>2018-01-09T13:34:35Z</time>
      </trkpt>
      <trkpt lat="42.91993" lon="0.29528">
        <ele>1307.05</ele>
        <time>2018-01-09T13:34:48Z</time>
      </trkpt>
      <trkpt lat="42.92002" lon="0.29525">
        <ele>1303.69</ele>
        <time>2018-01-09T13:35:03Z</time>
      </trkpt>
      <trkpt lat="42.92013" lon="0.29524">
        <ele>1302.72</ele>
        <time>2018-01-09T13:35:14Z</time>
      </trkpt>
      <trkpt lat="42.92023" lon="0.29524">
        <ele>1299.84</ele>
        <time>2018-01-09T13:35:25Z</time>
      </trkpt>
      <trkpt lat="42.92031" lon="0.29519">
        <ele>1297.92</ele>
        <time>2018-01-09T13:35:36Z</time>
      </trkpt>
      <trkpt lat="42.92039" lon="0.29514">
        <ele>1295.51</ele>
        <time>2018-01-09T13:35:47Z</time>
      </trkpt>
      <trkpt lat="42.9205" lon="0.29512">
        <ele>1293.11</ele>
        <time>2018-01-09T13:35:58Z</time>
      </trkpt>
      <trkpt lat="42.92061" lon="0.29508">
        <ele>1290.71</ele>
        <time>2018-01-09T13:36:10Z</time>
      </trkpt>
      <trkpt lat="42.92072" lon="0.29505">
        <ele>1288.3</ele>
        <time>2018-01-09T13:36:20Z</time>
      </trkpt>
      <trkpt lat="42.92081" lon="0.29503">
        <ele>1286.38</ele>
        <time>2018-01-09T13:36:29Z</time>
      </trkpt>
      <trkpt lat="42.9209" lon="0.29502">
        <ele>1284.94</ele>
        <time>2018-01-09T13:36:38Z</time>
      </trkpt>
      <trkpt lat="42.921" lon="0.29499">
        <ele>1282.54</ele>
        <time>2018-01-09T13:36:48Z</time>
      </trkpt>
      <trkpt lat="42.92108" lon="0.29497">
        <ele>1281.09</ele>
        <time>2018-01-09T13:36:58Z</time>
      </trkpt>
      <trkpt lat="42.92117" lon="0.29498">
        <ele>1279.65</ele>
        <time>2018-01-09T13:37:07Z</time>
      </trkpt>
      <trkpt lat="42.92128" lon="0.29495">
        <ele>1279.17</ele>
        <time>2018-01-09T13:37:16Z</time>
      </trkpt>
      <trkpt lat="42.92136" lon="0.29488">
        <ele>1278.69</ele>
        <time>2018-01-09T13:37:25Z</time>
      </trkpt>
      <trkpt lat="42.92144" lon="0.29481">
        <ele>1277.73</ele>
        <time>2018-01-09T13:37:34Z</time>
      </trkpt>
      <trkpt lat="42.9215" lon="0.29471">
        <ele>1275.81</ele>
        <time>2018-01-09T13:37:44Z</time>
      </trkpt>
      <trkpt lat="42.92157" lon="0.29463">
        <ele>1273.88</ele>
        <time>2018-01-09T13:37:53Z</time>
      </trkpt>
      <trkpt lat="42.92163" lon="0.29454">
        <ele>1271.96</ele>
        <time>2018-01-09T13:38:02Z</time>
      </trkpt>
      <trkpt lat="42.92171" lon="0.29448">
        <ele>1269.56</ele>
        <time>2018-01-09T13:38:14Z</time>
      </trkpt>
      <trkpt lat="42.92181" lon="0.29439">
        <ele>1267.16</ele>
        <time>2018-01-09T13:38:30Z</time>
      </trkpt>
      <trkpt lat="42.92189" lon="0.29434">
        <ele>1265.23</ele>
        <time>2018-01-09T13:38:39Z</time>
      </trkpt>
      <trkpt lat="42.92198" lon="0.29425">
        <ele>1262.83</ele>
        <time>2018-01-09T13:38:51Z</time>
      </trkpt>
      <trkpt lat="42.92208" lon="0.29419">
        <ele>1261.39</ele>
        <time>2018-01-09T13:39:01Z</time>
      </trkpt>
      <trkpt lat="42.92219" lon="0.29407">
        <ele>1258.5</ele>
        <time>2018-01-09T13:39:14Z</time>
      </trkpt>
      <trkpt lat="42.92234" lon="0.294">
        <ele>1256.1</ele>
        <time>2018-01-09T13:39:27Z</time>
      </trkpt>
      <trkpt lat="42.92243" lon="0.29394">
        <ele>1253.7</ele>
        <time>2018-01-09T13:39:39Z</time>
      </trkpt>
      <trkpt lat="42.92252" lon="0.2939">
        <ele>1251.77</ele>
        <time>2018-01-09T13:39:46Z</time>
      </trkpt>
      <trkpt lat="42.9226" lon="0.29379">
        <ele>1250.33</ele>
        <time>2018-01-09T13:39:56Z</time>
      </trkpt>
      <trkpt lat="42.92269" lon="0.29375">
        <ele>1248.41</ele>
        <time>2018-01-09T13:40:04Z</time>
      </trkpt>
      <trkpt lat="42.92277" lon="0.29372">
        <ele>1246.97</ele>
        <time>2018-01-09T13:40:12Z</time>
      </trkpt>
      <trkpt lat="42.92286" lon="0.29365">
        <ele>1245.53</ele>
        <time>2018-01-09T13:40:22Z</time>
      </trkpt>
      <trkpt lat="42.92297" lon="0.2936">
        <ele>1243.6</ele>
        <time>2018-01-09T13:40:32Z</time>
      </trkpt>
      <trkpt lat="42.92307" lon="0.29356">
        <ele>1241.68</ele>
        <time>2018-01-09T13:40:40Z</time>
      </trkpt>
      <trkpt lat="42.92317" lon="0.29349">
        <ele>1240.72</ele>
        <time>2018-01-09T13:40:48Z</time>
      </trkpt>
      <trkpt lat="42.92325" lon="0.29342">
        <ele>1239.28</ele>
        <time>2018-01-09T13:40:56Z</time>
      </trkpt>
      <trkpt lat="42.92334" lon="0.29338">
        <ele>1237.35</ele>
        <time>2018-01-09T13:41:04Z</time>
      </trkpt>
      <trkpt lat="42.92344" lon="0.29332">
        <ele>1235.91</ele>
        <time>2018-01-09T13:41:14Z</time>
      </trkpt>
      <trkpt lat="42.92351" lon="0.29321">
        <ele>1234.47</ele>
        <time>2018-01-09T13:41:24Z</time>
      </trkpt>
      <trkpt lat="42.92358" lon="0.29314">
        <ele>1233.99</ele>
        <time>2018-01-09T13:41:36Z</time>
      </trkpt>
      <trkpt lat="42.92369" lon="0.29315">
        <ele>1233.03</ele>
        <time>2018-01-09T13:41:49Z</time>
      </trkpt>
      <trkpt lat="42.9238" lon="0.29311">
        <ele>1232.07</ele>
        <time>2018-01-09T13:42:02Z</time>
      </trkpt>
      <trkpt lat="42.92391" lon="0.29305">
        <ele>1231.11</ele>
        <time>2018-01-09T13:42:14Z</time>
      </trkpt>
      <trkpt lat="42.92401" lon="0.29301">
        <ele>1230.14</ele>
        <time>2018-01-09T13:42:23Z</time>
      </trkpt>
      <trkpt lat="42.92412" lon="0.29298">
        <ele>1229.18</ele>
        <time>2018-01-09T13:42:34Z</time>
      </trkpt>
      <trkpt lat="42.92424" lon="0.29294">
        <ele>1227.74</ele>
        <time>2018-01-09T13:42:44Z</time>
      </trkpt>
      <trkpt lat="42.92434" lon="0.29291">
        <ele>1227.26</ele>
        <time>2018-01-09T13:42:52Z</time>
      </trkpt>
      <trkpt lat="42.92445" lon="0.29287">
        <ele>1226.3</ele>
        <time>2018-01-09T13:43:00Z</time>
      </trkpt>
      <trkpt lat="42.92456" lon="0.29285">
        <ele>1224.86</ele>
        <time>2018-01-09T13:43:22Z</time>
      </trkpt>
      <trkpt lat="42.92457" lon="0.29286">
        <ele>1224.38</ele>
        <time>2018-01-09T13:43:50Z</time>
      </trkpt>
      <trkpt lat="42.92457" lon="0.29285">
        <ele>1228.7</ele>
        <time>2018-01-09T13:56:18Z</time>
      </trkpt>
      <trkpt lat="42.92471" lon="0.29281">
        <ele>1228.7</ele>
        <time>2018-01-09T13:56:45Z</time>
      </trkpt>
      <trkpt lat="42.92483" lon="0.29279">
        <ele>1227.26</ele>
        <time>2018-01-09T13:56:58Z</time>
      </trkpt>
      <trkpt lat="42.92492" lon="0.29276">
        <ele>1226.78</ele>
        <time>2018-01-09T13:57:07Z</time>
      </trkpt>
      <trkpt lat="42.92504" lon="0.29277">
        <ele>1226.78</ele>
        <time>2018-01-09T13:57:18Z</time>
      </trkpt>
      <trkpt lat="42.92517" lon="0.29279">
        <ele>1225.34</ele>
        <time>2018-01-09T13:57:31Z</time>
      </trkpt>
      <trkpt lat="42.92528" lon="0.29282">
        <ele>1226.78</ele>
        <time>2018-01-09T13:57:42Z</time>
      </trkpt>
      <trkpt lat="42.92538" lon="0.2928">
        <ele>1222.93</ele>
        <time>2018-01-09T13:57:51Z</time>
      </trkpt>
      <trkpt lat="42.92548" lon="0.29281">
        <ele>1221.97</ele>
        <time>2018-01-09T13:57:59Z</time>
      </trkpt>
      <trkpt lat="42.92559" lon="0.29284">
        <ele>1221.49</ele>
        <time>2018-01-09T13:58:08Z</time>
      </trkpt>
      <trkpt lat="42.9257" lon="0.29288">
        <ele>1220.53</ele>
        <time>2018-01-09T13:58:16Z</time>
      </trkpt>
      <trkpt lat="42.92578" lon="0.29291">
        <ele>1219.57</ele>
        <time>2018-01-09T13:58:23Z</time>
      </trkpt>
      <trkpt lat="42.92587" lon="0.29296">
        <ele>1219.09</ele>
        <time>2018-01-09T13:58:31Z</time>
      </trkpt>
      <trkpt lat="42.92597" lon="0.29301">
        <ele>1217.65</ele>
        <time>2018-01-09T13:58:39Z</time>
      </trkpt>
      <trkpt lat="42.92604" lon="0.29308">
        <ele>1217.17</ele>
        <time>2018-01-09T13:58:47Z</time>
      </trkpt>
      <trkpt lat="42.9261" lon="0.29315">
        <ele>1216.21</ele>
        <time>2018-01-09T13:58:56Z</time>
      </trkpt>
      <trkpt lat="42.9262" lon="0.29319">
        <ele>1215.72</ele>
        <time>2018-01-09T13:59:05Z</time>
      </trkpt>
      <trkpt lat="42.9263" lon="0.2932">
        <ele>1214.28</ele>
        <time>2018-01-09T13:59:14Z</time>
      </trkpt>
      <trkpt lat="42.92643" lon="0.29324">
        <ele>1213.32</ele>
        <time>2018-01-09T13:59:21Z</time>
      </trkpt>
      <trkpt lat="42.92652" lon="0.29324">
        <ele>1212.84</ele>
        <time>2018-01-09T13:59:28Z</time>
      </trkpt>
      <trkpt lat="42.92661" lon="0.29327">
        <ele>1211.88</ele>
        <time>2018-01-09T13:59:36Z</time>
      </trkpt>
      <trkpt lat="42.9267" lon="0.29332">
        <ele>1210.92</ele>
        <time>2018-01-09T13:59:46Z</time>
      </trkpt>
      <trkpt lat="42.9268" lon="0.29333">
        <ele>1209.96</ele>
        <time>2018-01-09T13:59:55Z</time>
      </trkpt>
      <trkpt lat="42.92689" lon="0.29333">
        <ele>1209</ele>
        <time>2018-01-09T14:00:05Z</time>
      </trkpt>
      <trkpt lat="42.92699" lon="0.29338">
        <ele>1208.51</ele>
        <time>2018-01-09T14:00:13Z</time>
      </trkpt>
      <trkpt lat="42.92709" lon="0.29339">
        <ele>1208.03</ele>
        <time>2018-01-09T14:00:22Z</time>
      </trkpt>
      <trkpt lat="42.92718" lon="0.29343">
        <ele>1207.07</ele>
        <time>2018-01-09T14:00:30Z</time>
      </trkpt>
      <trkpt lat="42.92728" lon="0.29346">
        <ele>1206.59</ele>
        <time>2018-01-09T14:00:38Z</time>
      </trkpt>
      <trkpt lat="42.92737" lon="0.29349">
        <ele>1206.11</ele>
        <time>2018-01-09T14:00:46Z</time>
      </trkpt>
      <trkpt lat="42.92747" lon="0.29353">
        <ele>1205.15</ele>
        <time>2018-01-09T14:00:54Z</time>
      </trkpt>
      <trkpt lat="42.92756" lon="0.29356">
        <ele>1204.67</ele>
        <time>2018-01-09T14:01:02Z</time>
      </trkpt>
      <trkpt lat="42.92765" lon="0.29357">
        <ele>1203.71</ele>
        <time>2018-01-09T14:01:10Z</time>
      </trkpt>
      <trkpt lat="42.92777" lon="0.29359">
        <ele>1202.75</ele>
        <time>2018-01-09T14:01:19Z</time>
      </trkpt>
      <trkpt lat="42.92787" lon="0.29361">
        <ele>1201.79</ele>
        <time>2018-01-09T14:01:27Z</time>
      </trkpt>
      <trkpt lat="42.92795" lon="0.29358">
        <ele>1200.82</ele>
        <time>2018-01-09T14:01:36Z</time>
      </trkpt>
      <trkpt lat="42.92806" lon="0.29359">
        <ele>1199.86</ele>
        <time>2018-01-09T14:01:44Z</time>
      </trkpt>
      <trkpt lat="42.92815" lon="0.29353">
        <ele>1198.42</ele>
        <time>2018-01-09T14:01:53Z</time>
      </trkpt>
      <trkpt lat="42.92825" lon="0.29353">
        <ele>1197.46</ele>
        <time>2018-01-09T14:02:01Z</time>
      </trkpt>
      <trkpt lat="42.92835" lon="0.29355">
        <ele>1196.02</ele>
        <time>2018-01-09T14:02:09Z</time>
      </trkpt>
      <trkpt lat="42.92845" lon="0.29354">
        <ele>1194.58</ele>
        <time>2018-01-09T14:02:17Z</time>
      </trkpt>
      <trkpt lat="42.92854" lon="0.29352">
        <ele>1193.61</ele>
        <time>2018-01-09T14:02:25Z</time>
      </trkpt>
      <trkpt lat="42.92864" lon="0.29352">
        <ele>1192.65</ele>
        <time>2018-01-09T14:02:33Z</time>
      </trkpt>
      <trkpt lat="42.92873" lon="0.29354">
        <ele>1191.21</ele>
        <time>2018-01-09T14:02:42Z</time>
      </trkpt>
      <trkpt lat="42.92883" lon="0.29361">
        <ele>1190.73</ele>
        <time>2018-01-09T14:02:52Z</time>
      </trkpt>
      <trkpt lat="42.92891" lon="0.2936">
        <ele>1189.77</ele>
        <time>2018-01-09T14:03:00Z</time>
      </trkpt>
      <trkpt lat="42.92901" lon="0.29365">
        <ele>1188.81</ele>
        <time>2018-01-09T14:03:09Z</time>
      </trkpt>
      <trkpt lat="42.92911" lon="0.29363">
        <ele>1187.85</ele>
        <time>2018-01-09T14:03:18Z</time>
      </trkpt>
      <trkpt lat="42.9292" lon="0.29367">
        <ele>1186.88</ele>
        <time>2018-01-09T14:03:27Z</time>
      </trkpt>
      <trkpt lat="42.9293" lon="0.2937">
        <ele>1186.4</ele>
        <time>2018-01-09T14:03:35Z</time>
      </trkpt>
      <trkpt lat="42.92941" lon="0.29372">
        <ele>1185.44</ele>
        <time>2018-01-09T14:03:44Z</time>
      </trkpt>
      <trkpt lat="42.92951" lon="0.29373">
        <ele>1184.48</ele>
        <time>2018-01-09T14:03:53Z</time>
      </trkpt>
      <trkpt lat="42.92961" lon="0.29374">
        <ele>1184</ele>
        <time>2018-01-09T14:04:02Z</time>
      </trkpt>
      <trkpt lat="42.9297" lon="0.29374">
        <ele>1183.04</ele>
        <time>2018-01-09T14:04:11Z</time>
      </trkpt>
      <trkpt lat="42.9298" lon="0.29376">
        <ele>1182.56</ele>
        <time>2018-01-09T14:04:20Z</time>
      </trkpt>
      <trkpt lat="42.9299" lon="0.29378">
        <ele>1181.6</ele>
        <time>2018-01-09T14:04:27Z</time>
      </trkpt>
      <trkpt lat="42.92999" lon="0.29379">
        <ele>1181.12</ele>
        <time>2018-01-09T14:04:34Z</time>
      </trkpt>
      <trkpt lat="42.93007" lon="0.29383">
        <ele>1181.6</ele>
        <time>2018-01-09T14:05:08Z</time>
      </trkpt>
      <trkpt lat="42.93017" lon="0.29383">
        <ele>1180.16</ele>
        <time>2018-01-09T14:05:18Z</time>
      </trkpt>
      <trkpt lat="42.93026" lon="0.29382">
        <ele>1179.67</ele>
        <time>2018-01-09T14:05:28Z</time>
      </trkpt>
      <trkpt lat="42.93036" lon="0.2938">
        <ele>1179.19</ele>
        <time>2018-01-09T14:05:37Z</time>
      </trkpt>
      <trkpt lat="42.93045" lon="0.2938">
        <ele>1178.71</ele>
        <time>2018-01-09T14:05:47Z</time>
      </trkpt>
      <trkpt lat="42.93055" lon="0.29381">
        <ele>1178.23</ele>
        <time>2018-01-09T14:05:58Z</time>
      </trkpt>
      <trkpt lat="42.93065" lon="0.2938">
        <ele>1177.27</ele>
        <time>2018-01-09T14:06:08Z</time>
      </trkpt>
      <trkpt lat="42.93074" lon="0.2938">
        <ele>1176.79</ele>
        <time>2018-01-09T14:06:18Z</time>
      </trkpt>
      <trkpt lat="42.93085" lon="0.29381">
        <ele>1176.31</ele>
        <time>2018-01-09T14:06:28Z</time>
      </trkpt>
      <trkpt lat="42.93094" lon="0.29378">
        <ele>1175.83</ele>
        <time>2018-01-09T14:06:37Z</time>
      </trkpt>
      <trkpt lat="42.93103" lon="0.29376">
        <ele>1174.87</ele>
        <time>2018-01-09T14:06:46Z</time>
      </trkpt>
      <trkpt lat="42.93113" lon="0.29377">
        <ele>1174.39</ele>
        <time>2018-01-09T14:06:55Z</time>
      </trkpt>
      <trkpt lat="42.93123" lon="0.2938">
        <ele>1173.91</ele>
        <time>2018-01-09T14:07:05Z</time>
      </trkpt>
      <trkpt lat="42.93134" lon="0.2938">
        <ele>1172.95</ele>
        <time>2018-01-09T14:07:15Z</time>
      </trkpt>
      <trkpt lat="42.93145" lon="0.29381">
        <ele>1171.98</ele>
        <time>2018-01-09T14:07:24Z</time>
      </trkpt>
      <trkpt lat="42.93154" lon="0.29377">
        <ele>1171.02</ele>
        <time>2018-01-09T14:07:34Z</time>
      </trkpt>
      <trkpt lat="42.93164" lon="0.29378">
        <ele>1170.06</ele>
        <time>2018-01-09T14:07:42Z</time>
      </trkpt>
      <trkpt lat="42.93173" lon="0.29376">
        <ele>1169.1</ele>
        <time>2018-01-09T14:07:51Z</time>
      </trkpt>
      <trkpt lat="42.93184" lon="0.29373">
        <ele>1168.14</ele>
        <time>2018-01-09T14:08:00Z</time>
      </trkpt>
      <trkpt lat="42.93193" lon="0.29367">
        <ele>1167.18</ele>
        <time>2018-01-09T14:08:08Z</time>
      </trkpt>
      <trkpt lat="42.93201" lon="0.29361">
        <ele>1166.22</ele>
        <time>2018-01-09T14:08:16Z</time>
      </trkpt>
      <trkpt lat="42.9321" lon="0.29357">
        <ele>1165.26</ele>
        <time>2018-01-09T14:08:23Z</time>
      </trkpt>
      <trkpt lat="42.93219" lon="0.29354">
        <ele>1164.77</ele>
        <time>2018-01-09T14:08:31Z</time>
      </trkpt>
      <trkpt lat="42.93229" lon="0.29362">
        <ele>1164.29</ele>
        <time>2018-01-09T14:08:59Z</time>
      </trkpt>
      <trkpt lat="42.93226" lon="0.29351">
        <ele>1163.81</ele>
        <time>2018-01-09T14:09:14Z</time>
      </trkpt>
      <trkpt lat="42.93235" lon="0.2934">
        <ele>1163.33</ele>
        <time>2018-01-09T14:09:25Z</time>
      </trkpt>
      <trkpt lat="42.93243" lon="0.29334">
        <ele>1162.85</ele>
        <time>2018-01-09T14:09:34Z</time>
      </trkpt>
      <trkpt lat="42.93253" lon="0.29331">
        <ele>1162.37</ele>
        <time>2018-01-09T14:09:43Z</time>
      </trkpt>
      <trkpt lat="42.93261" lon="0.29324">
        <ele>1162.37</ele>
        <time>2018-01-09T14:09:51Z</time>
      </trkpt>
      <trkpt lat="42.9327" lon="0.29317">
        <ele>1161.89</ele>
        <time>2018-01-09T14:09:59Z</time>
      </trkpt>
      <trkpt lat="42.93279" lon="0.29311">
        <ele>1161.41</ele>
        <time>2018-01-09T14:10:07Z</time>
      </trkpt>
      <trkpt lat="42.93287" lon="0.29302">
        <ele>1160.93</ele>
        <time>2018-01-09T14:10:16Z</time>
      </trkpt>
      <trkpt lat="42.93294" lon="0.29296">
        <ele>1160.93</ele>
        <time>2018-01-09T14:10:23Z</time>
      </trkpt>
      <trkpt lat="42.93303" lon="0.29289">
        <ele>1160.45</ele>
        <time>2018-01-09T14:10:30Z</time>
      </trkpt>
      <trkpt lat="42.9331" lon="0.2928">
        <ele>1159.49</ele>
        <time>2018-01-09T14:10:37Z</time>
      </trkpt>
      <trkpt lat="42.93316" lon="0.2927">
        <ele>1158.53</ele>
        <time>2018-01-09T14:10:45Z</time>
      </trkpt>
      <trkpt lat="42.93323" lon="0.29258">
        <ele>1157.56</ele>
        <time>2018-01-09T14:10:53Z</time>
      </trkpt>
      <trkpt lat="42.93329" lon="0.29248">
        <ele>1157.08</ele>
        <time>2018-01-09T14:11:00Z</time>
      </trkpt>
      <trkpt lat="42.93335" lon="0.29238">
        <ele>1156.6</ele>
        <time>2018-01-09T14:11:07Z</time>
      </trkpt>
      <trkpt lat="42.93342" lon="0.29228">
        <ele>1155.64</ele>
        <time>2018-01-09T14:11:14Z</time>
      </trkpt>
      <trkpt lat="42.93349" lon="0.2922">
        <ele>1155.16</ele>
        <time>2018-01-09T14:11:21Z</time>
      </trkpt>
      <trkpt lat="42.93357" lon="0.29213">
        <ele>1154.68</ele>
        <time>2018-01-09T14:11:29Z</time>
      </trkpt>
      <trkpt lat="42.93366" lon="0.29207">
        <ele>1153.72</ele>
        <time>2018-01-09T14:11:36Z</time>
      </trkpt>
      <trkpt lat="42.93375" lon="0.29201">
        <ele>1153.24</ele>
        <time>2018-01-09T14:11:44Z</time>
      </trkpt>
      <trkpt lat="42.93384" lon="0.29195">
        <ele>1152.76</ele>
        <time>2018-01-09T14:11:51Z</time>
      </trkpt>
      <trkpt lat="42.93392" lon="0.29188">
        <ele>1152.28</ele>
        <time>2018-01-09T14:11:58Z</time>
      </trkpt>
      <trkpt lat="42.934" lon="0.29183">
        <ele>1151.8</ele>
        <time>2018-01-09T14:12:05Z</time>
      </trkpt>
      <trkpt lat="42.93409" lon="0.29176">
        <ele>1151.32</ele>
        <time>2018-01-09T14:12:12Z</time>
      </trkpt>
      <trkpt lat="42.93417" lon="0.2917">
        <ele>1150.84</ele>
        <time>2018-01-09T14:12:19Z</time>
      </trkpt>
      <trkpt lat="42.93427" lon="0.29163">
        <ele>1149.87</ele>
        <time>2018-01-09T14:12:27Z</time>
      </trkpt>
      <trkpt lat="42.93435" lon="0.29157">
        <ele>1149.39</ele>
        <time>2018-01-09T14:12:34Z</time>
      </trkpt>
      <trkpt lat="42.93443" lon="0.29152">
        <ele>1148.91</ele>
        <time>2018-01-09T14:12:41Z</time>
      </trkpt>
      <trkpt lat="42.93451" lon="0.29146">
        <ele>1148.43</ele>
        <time>2018-01-09T14:12:48Z</time>
      </trkpt>
      <trkpt lat="42.9346" lon="0.29141">
        <ele>1148.43</ele>
        <time>2018-01-09T14:12:55Z</time>
      </trkpt>
      <trkpt lat="42.93468" lon="0.29137">
        <ele>1147.95</ele>
        <time>2018-01-09T14:13:02Z</time>
      </trkpt>
      <trkpt lat="42.93478" lon="0.29132">
        <ele>1146.99</ele>
        <time>2018-01-09T14:13:10Z</time>
      </trkpt>
      <trkpt lat="42.93487" lon="0.29128">
        <ele>1146.51</ele>
        <time>2018-01-09T14:13:18Z</time>
      </trkpt>
      <trkpt lat="42.93497" lon="0.29124">
        <ele>1146.51</ele>
        <time>2018-01-09T14:13:25Z</time>
      </trkpt>
      <trkpt lat="42.93506" lon="0.29118">
        <ele>1145.55</ele>
        <time>2018-01-09T14:13:33Z</time>
      </trkpt>
      <trkpt lat="42.93515" lon="0.29113">
        <ele>1145.07</ele>
        <time>2018-01-09T14:13:41Z</time>
      </trkpt>
      <trkpt lat="42.93525" lon="0.29107">
        <ele>1144.59</ele>
        <time>2018-01-09T14:13:49Z</time>
      </trkpt>
      <trkpt lat="42.93533" lon="0.29101">
        <ele>1144.59</ele>
        <time>2018-01-09T14:13:56Z</time>
      </trkpt>
      <trkpt lat="42.93542" lon="0.29095">
        <ele>1144.11</ele>
        <time>2018-01-09T14:14:03Z</time>
      </trkpt>
      <trkpt lat="42.93549" lon="0.29087">
        <ele>1143.14</ele>
        <time>2018-01-09T14:14:10Z</time>
      </trkpt>
      <trkpt lat="42.93557" lon="0.29077">
        <ele>1142.18</ele>
        <time>2018-01-09T14:14:17Z</time>
      </trkpt>
      <trkpt lat="42.93563" lon="0.29066">
        <ele>1142.18</ele>
        <time>2018-01-09T14:14:24Z</time>
      </trkpt>
      <trkpt lat="42.93568" lon="0.29055">
        <ele>1141.7</ele>
        <time>2018-01-09T14:14:31Z</time>
      </trkpt>
      <trkpt lat="42.93573" lon="0.29045">
        <ele>1141.22</ele>
        <time>2018-01-09T14:14:38Z</time>
      </trkpt>
      <trkpt lat="42.93579" lon="0.29034">
        <ele>1140.74</ele>
        <time>2018-01-09T14:14:45Z</time>
      </trkpt>
      <trkpt lat="42.93583" lon="0.29024">
        <ele>1140.74</ele>
        <time>2018-01-09T14:14:52Z</time>
      </trkpt>
      <trkpt lat="42.93588" lon="0.29013">
        <ele>1140.26</ele>
        <time>2018-01-09T14:14:59Z</time>
      </trkpt>
      <trkpt lat="42.93594" lon="0.29001">
        <ele>1140.26</ele>
        <time>2018-01-09T14:15:07Z</time>
      </trkpt>
      <trkpt lat="42.93598" lon="0.28989">
        <ele>1140.26</ele>
        <time>2018-01-09T14:15:15Z</time>
      </trkpt>
      <trkpt lat="42.93603" lon="0.28979">
        <ele>1139.78</ele>
        <time>2018-01-09T14:15:22Z</time>
      </trkpt>
      <trkpt lat="42.93609" lon="0.28969">
        <ele>1139.78</ele>
        <time>2018-01-09T14:15:29Z</time>
      </trkpt>
      <trkpt lat="42.93614" lon="0.28958">
        <ele>1139.78</ele>
        <time>2018-01-09T14:15:37Z</time>
      </trkpt>
      <trkpt lat="42.93621" lon="0.28948">
        <ele>1139.3</ele>
        <time>2018-01-09T14:15:45Z</time>
      </trkpt>
      <trkpt lat="42.93628" lon="0.28938">
        <ele>1139.3</ele>
        <time>2018-01-09T14:15:52Z</time>
      </trkpt>
      <trkpt lat="42.93633" lon="0.28928">
        <ele>1138.82</ele>
        <time>2018-01-09T14:16:00Z</time>
      </trkpt>
      <trkpt lat="42.93638" lon="0.28918">
        <ele>1138.34</ele>
        <time>2018-01-09T14:16:07Z</time>
      </trkpt>
      <trkpt lat="42.93645" lon="0.28907">
        <ele>1137.86</ele>
        <time>2018-01-09T14:16:15Z</time>
      </trkpt>
      <trkpt lat="42.9365" lon="0.28897">
        <ele>1137.38</ele>
        <time>2018-01-09T14:16:22Z</time>
      </trkpt>
      <trkpt lat="42.93655" lon="0.28887">
        <ele>1136.9</ele>
        <time>2018-01-09T14:16:29Z</time>
      </trkpt>
      <trkpt lat="42.9366" lon="0.28876">
        <ele>1136.9</ele>
        <time>2018-01-09T14:16:36Z</time>
      </trkpt>
      <trkpt lat="42.93665" lon="0.28865">
        <ele>1136.42</ele>
        <time>2018-01-09T14:16:43Z</time>
      </trkpt>
      <trkpt lat="42.93671" lon="0.28854">
        <ele>1135.94</ele>
        <time>2018-01-09T14:16:50Z</time>
      </trkpt>
      <trkpt lat="42.93676" lon="0.28843">
        <ele>1135.45</ele>
        <time>2018-01-09T14:17:00Z</time>
      </trkpt>
      <trkpt lat="42.93682" lon="0.28833">
        <ele>1135.45</ele>
        <time>2018-01-09T14:17:07Z</time>
      </trkpt>
      <trkpt lat="42.93688" lon="0.28822">
        <ele>1134.97</ele>
        <time>2018-01-09T14:17:14Z</time>
      </trkpt>
      <trkpt lat="42.93693" lon="0.28812">
        <ele>1134.49</ele>
        <time>2018-01-09T14:17:21Z</time>
      </trkpt>
      <trkpt lat="42.937" lon="0.28801">
        <ele>1134.01</ele>
        <time>2018-01-09T14:17:29Z</time>
      </trkpt>
      <trkpt lat="42.93707" lon="0.28791">
        <ele>1133.53</ele>
        <time>2018-01-09T14:17:36Z</time>
      </trkpt>
      <trkpt lat="42.93713" lon="0.28782">
        <ele>1133.53</ele>
        <time>2018-01-09T14:17:43Z</time>
      </trkpt>
      <trkpt lat="42.93719" lon="0.28771">
        <ele>1133.05</ele>
        <time>2018-01-09T14:17:51Z</time>
      </trkpt>
      <trkpt lat="42.93725" lon="0.2876">
        <ele>1132.57</ele>
        <time>2018-01-09T14:17:59Z</time>
      </trkpt>
      <trkpt lat="42.93731" lon="0.2875">
        <ele>1132.09</ele>
        <time>2018-01-09T14:18:06Z</time>
      </trkpt>
      <trkpt lat="42.93737" lon="0.2874">
        <ele>1132.09</ele>
        <time>2018-01-09T14:18:14Z</time>
      </trkpt>
      <trkpt lat="42.93743" lon="0.28729">
        <ele>1131.61</ele>
        <time>2018-01-09T14:18:21Z</time>
      </trkpt>
      <trkpt lat="42.9375" lon="0.28719">
        <ele>1131.13</ele>
        <time>2018-01-09T14:18:29Z</time>
      </trkpt>
      <trkpt lat="42.93755" lon="0.28709">
        <ele>1131.13</ele>
        <time>2018-01-09T14:18:36Z</time>
      </trkpt>
      <trkpt lat="42.93762" lon="0.28699">
        <ele>1130.65</ele>
        <time>2018-01-09T14:18:43Z</time>
      </trkpt>
      <trkpt lat="42.93768" lon="0.28688">
        <ele>1130.17</ele>
        <time>2018-01-09T14:18:51Z</time>
      </trkpt>
      <trkpt lat="42.93774" lon="0.28678">
        <ele>1129.69</ele>
        <time>2018-01-09T14:18:58Z</time>
      </trkpt>
      <trkpt lat="42.9378" lon="0.28668">
        <ele>1129.21</ele>
        <time>2018-01-09T14:19:05Z</time>
      </trkpt>
      <trkpt lat="42.93786" lon="0.28659">
        <ele>1128.73</ele>
        <time>2018-01-09T14:19:12Z</time>
      </trkpt>
      <trkpt lat="42.93792" lon="0.28649">
        <ele>1128.73</ele>
        <time>2018-01-09T14:19:19Z</time>
      </trkpt>
      <trkpt lat="42.93799" lon="0.2864">
        <ele>1128.24</ele>
        <time>2018-01-09T14:19:26Z</time>
      </trkpt>
      <trkpt lat="42.93805" lon="0.28629">
        <ele>1128.24</ele>
        <time>2018-01-09T14:19:34Z</time>
      </trkpt>
      <trkpt lat="42.9381" lon="0.28618">
        <ele>1127.76</ele>
        <time>2018-01-09T14:19:41Z</time>
      </trkpt>
      <trkpt lat="42.93816" lon="0.28608">
        <ele>1127.28</ele>
        <time>2018-01-09T14:19:49Z</time>
      </trkpt>
      <trkpt lat="42.93823" lon="0.28596">
        <ele>1127.28</ele>
        <time>2018-01-09T14:19:57Z</time>
      </trkpt>
      <trkpt lat="42.93829" lon="0.28587">
        <ele>1126.32</ele>
        <time>2018-01-09T14:20:04Z</time>
      </trkpt>
      <trkpt lat="42.93836" lon="0.28576">
        <ele>1126.32</ele>
        <time>2018-01-09T14:20:12Z</time>
      </trkpt>
      <trkpt lat="42.93842" lon="0.28566">
        <ele>1126.32</ele>
        <time>2018-01-09T14:20:19Z</time>
      </trkpt>
      <trkpt lat="42.93848" lon="0.28557">
        <ele>1125.84</ele>
        <time>2018-01-09T14:20:26Z</time>
      </trkpt>
      <trkpt lat="42.93854" lon="0.28548">
        <ele>1125.84</ele>
        <time>2018-01-09T14:20:33Z</time>
      </trkpt>
      <trkpt lat="42.9386" lon="0.28539">
        <ele>1125.36</ele>
        <time>2018-01-09T14:20:40Z</time>
      </trkpt>
      <trkpt lat="42.93865" lon="0.28529">
        <ele>1125.36</ele>
        <time>2018-01-09T14:20:47Z</time>
      </trkpt>
      <trkpt lat="42.93871" lon="0.2852">
        <ele>1124.88</ele>
        <time>2018-01-09T14:20:54Z</time>
      </trkpt>
      <trkpt lat="42.93878" lon="0.2851">
        <ele>1124.88</ele>
        <time>2018-01-09T14:21:02Z</time>
      </trkpt>
      <trkpt lat="42.93884" lon="0.28501">
        <ele>1124.88</ele>
        <time>2018-01-09T14:21:09Z</time>
      </trkpt>
      <trkpt lat="42.9389" lon="0.28489">
        <ele>1124.4</ele>
        <time>2018-01-09T14:21:17Z</time>
      </trkpt>
      <trkpt lat="42.93896" lon="0.2848">
        <ele>1123.92</ele>
        <time>2018-01-09T14:21:24Z</time>
      </trkpt>
      <trkpt lat="42.93902" lon="0.2847">
        <ele>1123.92</ele>
        <time>2018-01-09T14:21:31Z</time>
      </trkpt>
      <trkpt lat="42.93907" lon="0.28458">
        <ele>1123.44</ele>
        <time>2018-01-09T14:21:39Z</time>
      </trkpt>
      <trkpt lat="42.93914" lon="0.28447">
        <ele>1122.96</ele>
        <time>2018-01-09T14:22:23Z</time>
      </trkpt>
      <trkpt lat="42.93919" lon="0.28438">
        <ele>1122.96</ele>
        <time>2018-01-09T14:22:31Z</time>
      </trkpt>
      <trkpt lat="42.93925" lon="0.28426">
        <ele>1122.48</ele>
        <time>2018-01-09T14:22:39Z</time>
      </trkpt>
      <trkpt lat="42.93931" lon="0.28416">
        <ele>1122</ele>
        <time>2018-01-09T14:22:47Z</time>
      </trkpt>
      <trkpt lat="42.93937" lon="0.28405">
        <ele>1122</ele>
        <time>2018-01-09T14:22:56Z</time>
      </trkpt>
      <trkpt lat="42.93943" lon="0.28396">
        <ele>1121.52</ele>
        <time>2018-01-09T14:23:05Z</time>
      </trkpt>
      <trkpt lat="42.9395" lon="0.28387">
        <ele>1121.03</ele>
        <time>2018-01-09T14:23:13Z</time>
      </trkpt>
      <trkpt lat="42.93958" lon="0.28376">
        <ele>1120.55</ele>
        <time>2018-01-09T14:23:21Z</time>
      </trkpt>
      <trkpt lat="42.93964" lon="0.28367">
        <ele>1120.55</ele>
        <time>2018-01-09T14:23:28Z</time>
      </trkpt>
      <trkpt lat="42.93971" lon="0.28356">
        <ele>1120.07</ele>
        <time>2018-01-09T14:23:35Z</time>
      </trkpt>
      <trkpt lat="42.93977" lon="0.28346">
        <ele>1119.59</ele>
        <time>2018-01-09T14:23:42Z</time>
      </trkpt>
      <trkpt lat="42.93983" lon="0.28336">
        <ele>1119.11</ele>
        <time>2018-01-09T14:23:49Z</time>
      </trkpt>
      <trkpt lat="42.9399" lon="0.28326">
        <ele>1119.11</ele>
        <time>2018-01-09T14:23:57Z</time>
      </trkpt>
      <trkpt lat="42.93996" lon="0.28315">
        <ele>1119.11</ele>
        <time>2018-01-09T14:24:05Z</time>
      </trkpt>
      <trkpt lat="42.94004" lon="0.28305">
        <ele>1118.63</ele>
        <time>2018-01-09T14:24:13Z</time>
      </trkpt>
      <trkpt lat="42.94012" lon="0.28295">
        <ele>1117.67</ele>
        <time>2018-01-09T14:24:21Z</time>
      </trkpt>
      <trkpt lat="42.94019" lon="0.28287">
        <ele>1118.63</ele>
        <time>2018-01-09T14:24:28Z</time>
      </trkpt>
      <trkpt lat="42.94026" lon="0.28276">
        <ele>1117.19</ele>
        <time>2018-01-09T14:24:35Z</time>
      </trkpt>
      <trkpt lat="42.94034" lon="0.28268">
        <ele>1117.19</ele>
        <time>2018-01-09T14:24:42Z</time>
      </trkpt>
      <trkpt lat="42.94042" lon="0.2826">
        <ele>1116.71</ele>
        <time>2018-01-09T14:24:50Z</time>
      </trkpt>
      <trkpt lat="42.94048" lon="0.28252">
        <ele>1117.19</ele>
        <time>2018-01-09T14:25:07Z</time>
      </trkpt>
      <trkpt lat="42.94057" lon="0.28251">
        <ele>1116.71</ele>
        <time>2018-01-09T14:25:17Z</time>
      </trkpt>
      <trkpt lat="42.94066" lon="0.28256">
        <ele>1116.23</ele>
        <time>2018-01-09T14:25:25Z</time>
      </trkpt>
      <trkpt lat="42.94075" lon="0.28261">
        <ele>1115.75</ele>
        <time>2018-01-09T14:25:33Z</time>
      </trkpt>
      <trkpt lat="42.94084" lon="0.28267">
        <ele>1115.75</ele>
        <time>2018-01-09T14:25:41Z</time>
      </trkpt>
      <trkpt lat="42.94093" lon="0.28268">
        <ele>1115.75</ele>
        <time>2018-01-09T14:25:48Z</time>
      </trkpt>
      <trkpt lat="42.94103" lon="0.28268">
        <ele>1115.27</ele>
        <time>2018-01-09T14:25:56Z</time>
      </trkpt>
      <trkpt lat="42.94112" lon="0.28275">
        <ele>1114.79</ele>
        <time>2018-01-09T14:26:04Z</time>
      </trkpt>
      <trkpt lat="42.9412" lon="0.28281">
        <ele>1114.79</ele>
        <time>2018-01-09T14:26:11Z</time>
      </trkpt>
      <trkpt lat="42.94127" lon="0.28289">
        <ele>1114.79</ele>
        <time>2018-01-09T14:26:18Z</time>
      </trkpt>
      <trkpt lat="42.94138" lon="0.28291">
        <ele>1114.31</ele>
        <time>2018-01-09T14:26:27Z</time>
      </trkpt>
      <trkpt lat="42.94146" lon="0.28295">
        <ele>1113.82</ele>
        <time>2018-01-09T14:26:35Z</time>
      </trkpt>
      <trkpt lat="42.94155" lon="0.28302">
        <ele>1113.34</ele>
        <time>2018-01-09T14:26:44Z</time>
      </trkpt>
      <trkpt lat="42.94162" lon="0.28312">
        <ele>1111.42</ele>
        <time>2018-01-09T14:26:53Z</time>
      </trkpt>
      <trkpt lat="42.94169" lon="0.28319">
        <ele>1108.54</ele>
        <time>2018-01-09T14:27:02Z</time>
      </trkpt>
      <trkpt lat="42.94174" lon="0.28329">
        <ele>1107.1</ele>
        <time>2018-01-09T14:27:09Z</time>
      </trkpt>
      <trkpt lat="42.94179" lon="0.2834">
        <ele>1105.65</ele>
        <time>2018-01-09T14:27:19Z</time>
      </trkpt>
      <trkpt lat="42.94185" lon="0.28351">
        <ele>1102.77</ele>
        <time>2018-01-09T14:27:28Z</time>
      </trkpt>
      <trkpt lat="42.9419" lon="0.28362">
        <ele>1099.4</ele>
        <time>2018-01-09T14:27:37Z</time>
      </trkpt>
      <trkpt lat="42.94195" lon="0.28372">
        <ele>1098.44</ele>
        <time>2018-01-09T14:27:44Z</time>
      </trkpt>
      <trkpt lat="42.94201" lon="0.28381">
        <ele>1098.44</ele>
        <time>2018-01-09T14:27:51Z</time>
      </trkpt>
      <trkpt lat="42.94208" lon="0.28392">
        <ele>1098.44</ele>
        <time>2018-01-09T14:27:59Z</time>
      </trkpt>
      <trkpt lat="42.94213" lon="0.28403">
        <ele>1099.4</ele>
        <time>2018-01-09T14:28:08Z</time>
      </trkpt>
      <trkpt lat="42.94222" lon="0.28414">
        <ele>1098.92</ele>
        <time>2018-01-09T14:28:20Z</time>
      </trkpt>
      <trkpt lat="42.94228" lon="0.28428">
        <ele>1098.44</ele>
        <time>2018-01-09T14:28:28Z</time>
      </trkpt>
      <trkpt lat="42.9423" lon="0.28439">
        <ele>1098.92</ele>
        <time>2018-01-09T14:28:35Z</time>
      </trkpt>
      <trkpt lat="42.94238" lon="0.28449">
        <ele>1098.92</ele>
        <time>2018-01-09T14:28:43Z</time>
      </trkpt>
      <trkpt lat="42.94246" lon="0.28462">
        <ele>1099.4</ele>
        <time>2018-01-09T14:28:53Z</time>
      </trkpt>
      <trkpt lat="42.94255" lon="0.28456">
        <ele>1099.89</ele>
        <time>2018-01-09T14:29:02Z</time>
      </trkpt>
      <trkpt lat="42.94264" lon="0.28444">
        <ele>1099.4</ele>
        <time>2018-01-09T14:29:11Z</time>
      </trkpt>
      <trkpt lat="42.9427" lon="0.28427">
        <ele>1098.92</ele>
        <time>2018-01-09T14:29:19Z</time>
      </trkpt>
      <trkpt lat="42.94273" lon="0.28414">
        <ele>1098.44</ele>
        <time>2018-01-09T14:29:26Z</time>
      </trkpt>
      <trkpt lat="42.94277" lon="0.284">
        <ele>1097.96</ele>
        <time>2018-01-09T14:29:34Z</time>
      </trkpt>
      <trkpt lat="42.94278" lon="0.28386">
        <ele>1097.96</ele>
        <time>2018-01-09T14:29:42Z</time>
      </trkpt>
      <trkpt lat="42.94279" lon="0.28372">
        <ele>1097.96</ele>
        <time>2018-01-09T14:29:50Z</time>
      </trkpt>
      <trkpt lat="42.94279" lon="0.28359">
        <ele>1097.96</ele>
        <time>2018-01-09T14:29:57Z</time>
      </trkpt>
      <trkpt lat="42.94277" lon="0.28345">
        <ele>1097.48</ele>
        <time>2018-01-09T14:30:05Z</time>
      </trkpt>
    </trkseg>
  </trk>
</gpx>